<?xml version='1.0' encoding='UTF-8'?><gpx version="1.1" creator="JPX - https://github.com/jenetics/jpx" xmlns="http://www.topografix.com/GPX/1/1"><trk><trkseg><trkpt lat="43.25845310878943" lon="5.630075820003142"><ele>349.0</ele><time>2026-03-24T15:08:03Z</time></trkpt><trkpt lat="43.25834360701344" lon="5.630112264249783"><ele>349.0</ele><time>2026-03-24T15:08:05Z</time></trkpt><trkpt lat="43.258279587457025" lon="5.63011544914544"><ele>349.0</ele><time>2026-03-24T15:08:06Z</time></trkpt><trkpt lat="43.25821440816357" lon="5.630099165897281"><ele>349.0</ele><time>2026-03-24T15:08:07Z</time></trkpt><trkpt lat="43.25813289390447" lon="5.63000971862246"><ele>349.0</ele><time>2026-03-24T15:08:09Z</time></trkpt><trkpt lat="43.25808412171949" lon="5.629900832235883"><ele>349.0</ele><time>2026-03-24T15:08:10.999Z</time></trkpt><trkpt lat="43.258078337044886" lon="5.629755062776766"><ele>349.0</ele><time>2026-03-24T15:08:12.999Z</time></trkpt><trkpt lat="43.25810690439949" lon="5.629664853191721"><ele>349.0</ele><time>2026-03-24T15:08:13.999Z</time></trkpt><trkpt lat="43.258149902172725" lon="5.629593467980266"><ele>349.0</ele><time>2026-03-24T15:08:14.999Z</time></trkpt><trkpt lat="43.25816393602456" lon="5.629471438146477"><ele>349.0</ele><time>2026-03-24T15:08:16.999Z</time></trkpt><trkpt lat="43.25809101855471" lon="5.629320216277513"><ele>349.0</ele><time>2026-03-24T15:08:18.999Z</time></trkpt><trkpt lat="43.25803873511408" lon="5.629228132140439"><ele>349.0</ele><time>2026-03-24T15:08:19.999Z</time></trkpt><trkpt lat="43.25804533426248" lon="5.6291362619478065"><ele>351.4</ele><time>2026-03-24T15:08:20.999Z</time></trkpt><trkpt lat="43.25806389067743" lon="5.628992542423917"><ele>353.79999999999995</ele><time>2026-03-24T15:08:21.999Z</time></trkpt><trkpt lat="43.258063745988544" lon="5.628874018612178"><ele>356.20000000000005</ele><time>2026-03-24T15:08:22.999Z</time></trkpt><trkpt lat="43.25807007159282" lon="5.628755854052574"><ele>358.6</ele><time>2026-03-24T15:08:23.999Z</time></trkpt><trkpt lat="43.25806336233874" lon="5.628644385776128"><ele>361.0</ele><time>2026-03-24T15:08:24.999Z</time></trkpt><trkpt lat="43.25806828329051" lon="5.628521935433259"><ele>361.6</ele><time>2026-03-24T15:08:25.999Z</time></trkpt><trkpt lat="43.25808434745337" lon="5.628402651923338"><ele>362.20000000000005</ele><time>2026-03-24T15:08:26.999Z</time></trkpt><trkpt lat="43.25809421026559" lon="5.628284539847226"><ele>362.79999999999995</ele><time>2026-03-24T15:08:27.999Z</time></trkpt><trkpt lat="43.258080886829376" lon="5.628130377960217"><ele>363.4</ele><time>2026-03-24T15:08:28.999Z</time></trkpt><trkpt lat="43.25803671592864" lon="5.627986442724522"><ele>364.0</ele><time>2026-03-24T15:08:29.999Z</time></trkpt><trkpt lat="43.25797398549906" lon="5.6278360173844195"><ele>363.75</ele><time>2026-03-24T15:08:30.999Z</time></trkpt><trkpt lat="43.25790143995416" lon="5.627684013219131"><ele>363.5</ele><time>2026-03-24T15:08:31.999Z</time></trkpt><trkpt lat="43.25784163148319" lon="5.627567901842713"><ele>363.25</ele><time>2026-03-24T15:08:32.999Z</time></trkpt><trkpt lat="43.25779907768844" lon="5.627438695382269"><ele>363.0</ele><time>2026-03-24T15:08:33.999Z</time></trkpt><trkpt lat="43.25779834095976" lon="5.62727974809485"><ele>363.0</ele><time>2026-03-24T15:08:34.999Z</time></trkpt><trkpt lat="43.2577947671766" lon="5.627086687438041"><ele>363.0</ele><time>2026-03-24T15:08:35.999Z</time></trkpt><trkpt lat="43.25778103368951" lon="5.62690325720275"><ele>363.0</ele><time>2026-03-24T15:08:36.999Z</time></trkpt><trkpt lat="43.25774452426733" lon="5.626729215753295"><ele>363.0</ele><time>2026-03-24T15:08:37.999Z</time></trkpt><trkpt lat="43.25771114867228" lon="5.626564240556632"><ele>362.5</ele><time>2026-03-24T15:08:38.999Z</time></trkpt><trkpt lat="43.25768339136316" lon="5.626399845734165"><ele>362.0</ele><time>2026-03-24T15:08:39.999Z</time></trkpt><trkpt lat="43.257673186293395" lon="5.626231167747102"><ele>361.5</ele><time>2026-03-24T15:08:40.999Z</time></trkpt><trkpt lat="43.257670199596035" lon="5.626074922775542"><ele>361.0</ele><time>2026-03-24T15:08:41.999Z</time></trkpt><trkpt lat="43.257663490548666" lon="5.625916013341922"><ele>360.0</ele><time>2026-03-24T15:08:42.999Z</time></trkpt><trkpt lat="43.25768720693072" lon="5.625731868405876"><ele>359.0</ele><time>2026-03-24T15:08:43.999Z</time></trkpt><trkpt lat="43.257728742338905" lon="5.625484372194261"><ele>358.0</ele><time>2026-03-24T15:08:44.999Z</time></trkpt><trkpt lat="43.25776444242531" lon="5.625260917454007"><ele>355.66666666666663</ele><time>2026-03-24T15:08:45.999Z</time></trkpt><trkpt lat="43.257798489674634" lon="5.625035677301012"><ele>353.3333333333333</ele><time>2026-03-24T15:08:46.999Z</time></trkpt><trkpt lat="43.25783759542975" lon="5.6248068538913"><ele>351.0</ele><time>2026-03-24T15:08:47.999Z</time></trkpt><trkpt lat="43.257878056047986" lon="5.624572843372873"><ele>351.0</ele><time>2026-03-24T15:08:48.999Z</time></trkpt><trkpt lat="43.257919116689045" lon="5.624350370004785"><ele>351.0</ele><time>2026-03-24T15:08:49.999Z</time></trkpt><trkpt lat="43.257961338614585" lon="5.624107389401334"><ele>351.0</ele><time>2026-03-24T15:08:50.999Z</time></trkpt><trkpt lat="43.25799628837915" lon="5.623887491143355"><ele>351.0</ele><time>2026-03-24T15:08:51.999Z</time></trkpt><trkpt lat="43.258043991849554" lon="5.623669678918228"><ele>351.0</ele><time>2026-03-24T15:08:52.999Z</time></trkpt><trkpt lat="43.25809934702455" lon="5.623489573372064"><ele>351.0</ele><time>2026-03-24T15:08:53.999Z</time></trkpt><trkpt lat="43.25814444418126" lon="5.623292188299342"><ele>350.75</ele><time>2026-03-24T15:08:55Z</time></trkpt><trkpt lat="43.25818775821189" lon="5.623112138157805"><ele>350.5</ele><time>2026-03-24T15:08:56Z</time></trkpt><trkpt lat="43.258210107505434" lon="5.622933628903253"><ele>350.25</ele><time>2026-03-24T15:08:57Z</time></trkpt><trkpt lat="43.25823381692428" lon="5.622771590473474"><ele>350.0</ele><time>2026-03-24T15:08:58Z</time></trkpt><trkpt lat="43.25825284531894" lon="5.62262470512554"><ele>350.6</ele><time>2026-03-24T15:08:59Z</time></trkpt><trkpt lat="43.25825667074613" lon="5.62248178818026"><ele>351.2</ele><time>2026-03-24T15:09:00Z</time></trkpt><trkpt lat="43.25825836226242" lon="5.622343654339333"><ele>351.79999999999995</ele><time>2026-03-24T15:09:01Z</time></trkpt><trkpt lat="43.258253995466156" lon="5.622187604386956"><ele>352.4</ele><time>2026-03-24T15:09:02Z</time></trkpt><trkpt lat="43.25824089914835" lon="5.622042805934886"><ele>353.0</ele><time>2026-03-24T15:09:03Z</time></trkpt><trkpt lat="43.25820327528957" lon="5.621868536896667"><ele>353.0</ele><time>2026-03-24T15:09:04Z</time></trkpt><trkpt lat="43.258163969586654" lon="5.6216819604458745"><ele>353.0</ele><time>2026-03-24T15:09:05Z</time></trkpt><trkpt lat="43.25810802817361" lon="5.621458409257975"><ele>353.0</ele><time>2026-03-24T15:09:06Z</time></trkpt><trkpt lat="43.2580513356134" lon="5.621249485337848"><ele>355.0</ele><time>2026-03-24T15:09:07Z</time></trkpt><trkpt lat="43.258012727944966" lon="5.62106854247984"><ele>357.0</ele><time>2026-03-24T15:09:08Z</time></trkpt><trkpt lat="43.25799085006405" lon="5.620911820222675"><ele>359.0</ele><time>2026-03-24T15:09:09Z</time></trkpt><trkpt lat="43.25795603845648" lon="5.620766574403646"><ele>361.0</ele><time>2026-03-24T15:09:10Z</time></trkpt><trkpt lat="43.25792224526515" lon="5.620643702325242"><ele>361.0</ele><time>2026-03-24T15:09:11Z</time></trkpt><trkpt lat="43.25788882972678" lon="5.620538211400536"><ele>361.0</ele><time>2026-03-24T15:09:12Z</time></trkpt><trkpt lat="43.257868771519405" lon="5.620453545488754"><ele>361.0</ele><time>2026-03-24T15:09:12.999Z</time></trkpt><trkpt lat="43.257828161309256" lon="5.620289281525478"><ele>361.0</ele><time>2026-03-24T15:09:14.999Z</time></trkpt><trkpt lat="43.25780673557598" lon="5.620204146014312"><ele>361.0</ele><time>2026-03-24T15:09:15.999Z</time></trkpt><trkpt lat="43.2577706924239" lon="5.62010414274151"><ele>361.0</ele><time>2026-03-24T15:09:16.999Z</time></trkpt><trkpt lat="43.25773923447288" lon="5.6199783065746445"><ele>360.0</ele><time>2026-03-24T15:09:17.999Z</time></trkpt><trkpt lat="43.257715515588245" lon="5.619857409740042"><ele>359.0</ele><time>2026-03-24T15:09:18.999Z</time></trkpt><trkpt lat="43.257695771992296" lon="5.6197614571125065"><ele>358.0</ele><time>2026-03-24T15:09:19.999Z</time></trkpt><trkpt lat="43.25764869273427" lon="5.619604407419491"><ele>357.0</ele><time>2026-03-24T15:09:21.999Z</time></trkpt><trkpt lat="43.25758972037467" lon="5.619488296895361"><ele>356.0</ele><time>2026-03-24T15:09:23.999Z</time></trkpt><trkpt lat="43.257548651001684" lon="5.619367181240847"><ele>355.0</ele><time>2026-03-24T15:09:25.999Z</time></trkpt><trkpt lat="43.25751280297989" lon="5.61921231033404"><ele>354.0</ele><time>2026-03-24T15:09:27.999Z</time></trkpt><trkpt lat="43.25746141548113" lon="5.6190714109827535"><ele>353.0</ele><time>2026-03-24T15:09:29.999Z</time></trkpt><trkpt lat="43.25740906636043" lon="5.618980983382459"><ele>352.0</ele><time>2026-03-24T15:09:31.999Z</time></trkpt><trkpt lat="43.2573698914786" lon="5.6188153776315115"><ele>351.0</ele><time>2026-03-24T15:09:33.999Z</time></trkpt><trkpt lat="43.25735612695169" lon="5.618698743978497"><ele>350.1666666666667</ele><time>2026-03-24T15:09:34.999Z</time></trkpt><trkpt lat="43.2573257844866" lon="5.618608784489473"><ele>349.3333333333333</ele><time>2026-03-24T15:09:35.999Z</time></trkpt><trkpt lat="43.25728550240522" lon="5.618529112981352"><ele>348.5</ele><time>2026-03-24T15:09:36.999Z</time></trkpt><trkpt lat="43.25722493567129" lon="5.618417451472001"><ele>347.66666666666663</ele><time>2026-03-24T15:09:37.999Z</time></trkpt><trkpt lat="43.2571755153537" lon="5.618328425871241"><ele>346.8333333333333</ele><time>2026-03-24T15:09:38.999Z</time></trkpt><trkpt lat="43.25712951276047" lon="5.61823602826168"><ele>346.0</ele><time>2026-03-24T15:09:39.999Z</time></trkpt><trkpt lat="43.257087708348415" lon="5.618152846846059"><ele>347.0</ele><time>2026-03-24T15:09:40.999Z</time></trkpt><trkpt lat="43.25703177279863" lon="5.618047395626379"><ele>348.0</ele><time>2026-03-24T15:09:42.999Z</time></trkpt><trkpt lat="43.256973475254824" lon="5.61798464842771"><ele>349.0</ele><time>2026-03-24T15:09:43.999Z</time></trkpt><trkpt lat="43.25691100291638" lon="5.617871924031956"><ele>350.0</ele><time>2026-03-24T15:09:45.999Z</time></trkpt><trkpt lat="43.25689286646023" lon="5.617753561547068"><ele>351.0</ele><time>2026-03-24T15:09:47.999Z</time></trkpt><trkpt lat="43.25681847922402" lon="5.617667055958414"><ele>351.0</ele><time>2026-03-24T15:09:50.999Z</time></trkpt><trkpt lat="43.256749061928375" lon="5.617642880067563"><ele>351.0</ele><time>2026-03-24T15:09:51.999Z</time></trkpt><trkpt lat="43.25664960071577" lon="5.617603718302972"><ele>351.0</ele><time>2026-03-24T15:09:53.999Z</time></trkpt><trkpt lat="43.25659072478317" lon="5.617569768627217"><ele>351.0</ele><time>2026-03-24T15:09:55.999Z</time></trkpt><trkpt lat="43.256530024330964" lon="5.617514741673906"><ele>351.0</ele><time>2026-03-24T15:09:58.999Z</time></trkpt><trkpt lat="43.25646691857187" lon="5.617414731969987"><ele>351.0</ele><time>2026-03-24T15:10:01.999Z</time></trkpt><trkpt lat="43.256456102476676" lon="5.617304410875121"><ele>351.0</ele><time>2026-03-24T15:10:03.999Z</time></trkpt><trkpt lat="43.256459509893396" lon="5.617206155163266"><ele>351.0</ele><time>2026-03-24T15:10:04.999Z</time></trkpt><trkpt lat="43.2564330783693" lon="5.617039827259507"><ele>351.0</ele><time>2026-03-24T15:10:06.999Z</time></trkpt><trkpt lat="43.25640660121495" lon="5.616952728765887"><ele>351.0</ele><time>2026-03-24T15:10:07.999Z</time></trkpt><trkpt lat="43.25638226917146" lon="5.616870452298915"><ele>351.0</ele><time>2026-03-24T15:10:08.999Z</time></trkpt><trkpt lat="43.25635901746666" lon="5.616694279133095"><ele>347.0</ele><time>2026-03-24T15:10:10.999Z</time></trkpt><trkpt lat="43.256356810419526" lon="5.616586433642453"><ele>343.0</ele><time>2026-03-24T15:10:11.999Z</time></trkpt><trkpt lat="43.2563552423093" lon="5.616455850541824"><ele>339.0</ele><time>2026-03-24T15:10:12.999Z</time></trkpt><trkpt lat="43.25634157970334" lon="5.61633239108761"><ele>335.0</ele><time>2026-03-24T15:10:13.999Z</time></trkpt><trkpt lat="43.256303986267916" lon="5.6162070279242915"><ele>331.0</ele><time>2026-03-24T15:10:14.999Z</time></trkpt><trkpt lat="43.256266271876015" lon="5.616076343657378"><ele>330.8333333333333</ele><time>2026-03-24T15:10:15.999Z</time></trkpt><trkpt lat="43.25623539753672" lon="5.615967147757849"><ele>330.66666666666663</ele><time>2026-03-24T15:10:16.999Z</time></trkpt><trkpt lat="43.256214733481315" lon="5.615846825080995"><ele>330.5</ele><time>2026-03-24T15:10:17.999Z</time></trkpt><trkpt lat="43.256215335428315" lon="5.6157268819209625"><ele>330.3333333333333</ele><time>2026-03-24T15:10:18.999Z</time></trkpt><trkpt lat="43.25619759084933" lon="5.615614893849073"><ele>330.1666666666667</ele><time>2026-03-24T15:10:19.999Z</time></trkpt><trkpt lat="43.25617500410837" lon="5.615506870441849"><ele>330.0</ele><time>2026-03-24T15:10:20.999Z</time></trkpt><trkpt lat="43.25614515024192" lon="5.615387591626312"><ele>329.2</ele><time>2026-03-24T15:10:21.999Z</time></trkpt><trkpt lat="43.256091981605444" lon="5.615256023214397"><ele>328.4</ele><time>2026-03-24T15:10:22.999Z</time></trkpt><trkpt lat="43.256048156885484" lon="5.615096723074368"><ele>327.6</ele><time>2026-03-24T15:10:23.999Z</time></trkpt><trkpt lat="43.25600950689335" lon="5.614974790092673"><ele>326.8</ele><time>2026-03-24T15:10:24.999Z</time></trkpt><trkpt lat="43.25597171600704" lon="5.614851724843245"><ele>326.0</ele><time>2026-03-24T15:10:25.999Z</time></trkpt><trkpt lat="43.25593343885085" lon="5.61471838071933"><ele>326.0</ele><time>2026-03-24T15:10:26.999Z</time></trkpt><trkpt lat="43.25590510524998" lon="5.614592983475593"><ele>326.0</ele><time>2026-03-24T15:10:27.999Z</time></trkpt><trkpt lat="43.255865707331694" lon="5.614407801696219"><ele>326.0</ele><time>2026-03-24T15:10:28.999Z</time></trkpt><trkpt lat="43.25584246974132" lon="5.614262772541369"><ele>326.0</ele><time>2026-03-24T15:10:29.999Z</time></trkpt><trkpt lat="43.255819453774784" lon="5.614106371432226"><ele>325.6</ele><time>2026-03-24T15:10:30.999Z</time></trkpt><trkpt lat="43.25579416784086" lon="5.613983669350278"><ele>325.20000000000005</ele><time>2026-03-24T15:10:31.999Z</time></trkpt><trkpt lat="43.25575960815822" lon="5.613859316334838"><ele>324.79999999999995</ele><time>2026-03-24T15:10:32.999Z</time></trkpt><trkpt lat="43.255705776989146" lon="5.613725482575612"><ele>324.4</ele><time>2026-03-24T15:10:33.999Z</time></trkpt><trkpt lat="43.255633066831514" lon="5.613609274886643"><ele>324.0</ele><time>2026-03-24T15:10:34.999Z</time></trkpt><trkpt lat="43.25557254364186" lon="5.613467611434196"><ele>323.6</ele><time>2026-03-24T15:10:35.999Z</time></trkpt><trkpt lat="43.25551780423457" lon="5.613355171788047"><ele>323.2</ele><time>2026-03-24T15:10:36.999Z</time></trkpt><trkpt lat="43.25548042257553" lon="5.613251395630657"><ele>322.8</ele><time>2026-03-24T15:10:37.999Z</time></trkpt><trkpt lat="43.25545871885438" lon="5.613139913263037"><ele>322.40000000000003</ele><time>2026-03-24T15:10:38.999Z</time></trkpt><trkpt lat="43.255454731459885" lon="5.613017956148691"><ele>322.0</ele><time>2026-03-24T15:10:39.999Z</time></trkpt><trkpt lat="43.255474530863054" lon="5.612847952055055"><ele>320.66666666666663</ele><time>2026-03-24T15:10:40.999Z</time></trkpt><trkpt lat="43.25547962318608" lon="5.612631165658942"><ele>319.3333333333333</ele><time>2026-03-24T15:10:41.999Z</time></trkpt><trkpt lat="43.25548934868977" lon="5.612417811200536"><ele>318.0</ele><time>2026-03-24T15:10:42.999Z</time></trkpt><trkpt lat="43.25550407015361" lon="5.612219616610218"><ele>318.0</ele><time>2026-03-24T15:10:43.999Z</time></trkpt><trkpt lat="43.255531970957065" lon="5.6120292841168276"><ele>318.0</ele><time>2026-03-24T15:10:44.999Z</time></trkpt><trkpt lat="43.25555037095848" lon="5.611846339657124"><ele>318.0</ele><time>2026-03-24T15:10:45.999Z</time></trkpt><trkpt lat="43.255540861062805" lon="5.611605199992971"><ele>317.5</ele><time>2026-03-24T15:10:46.999Z</time></trkpt><trkpt lat="43.25552256923098" lon="5.611385644063925"><ele>317.0</ele><time>2026-03-24T15:10:47.999Z</time></trkpt><trkpt lat="43.255520642104486" lon="5.611200240016639"><ele>316.5</ele><time>2026-03-24T15:10:48.999Z</time></trkpt><trkpt lat="43.255520660193106" lon="5.61103230268751"><ele>316.0</ele><time>2026-03-24T15:10:49.999Z</time></trkpt><trkpt lat="43.25551945684421" lon="5.610873468467832"><ele>316.0</ele><time>2026-03-24T15:10:50.999Z</time></trkpt><trkpt lat="43.255509062392015" lon="5.610735766377595"><ele>316.0</ele><time>2026-03-24T15:10:51.999Z</time></trkpt><trkpt lat="43.25548535500838" lon="5.610592499572096"><ele>316.0</ele><time>2026-03-24T15:10:52.999Z</time></trkpt><trkpt lat="43.25545601835762" lon="5.6104753306137"><ele>316.0</ele><time>2026-03-24T15:10:53.999Z</time></trkpt><trkpt lat="43.25541154458376" lon="5.610347119915134"><ele>316.0</ele><time>2026-03-24T15:10:54.999Z</time></trkpt><trkpt lat="43.25535849132499" lon="5.61020273343076"><ele>317.75</ele><time>2026-03-24T15:10:55.999Z</time></trkpt><trkpt lat="43.255293155018556" lon="5.610050154502849"><ele>319.5</ele><time>2026-03-24T15:10:56.999Z</time></trkpt><trkpt lat="43.25522775716367" lon="5.609914587003774"><ele>321.25</ele><time>2026-03-24T15:10:57.999Z</time></trkpt><trkpt lat="43.25514152723772" lon="5.6097902320844995"><ele>323.0</ele><time>2026-03-24T15:10:58.999Z</time></trkpt><trkpt lat="43.255049588500725" lon="5.6096671057940135"><ele>323.0</ele><time>2026-03-24T15:10:59.999Z</time></trkpt><trkpt lat="43.25496702626589" lon="5.6095647209186215"><ele>323.0</ele><time>2026-03-24T15:11:00.999Z</time></trkpt><trkpt lat="43.25488761830105" lon="5.609458138894619"><ele>323.0</ele><time>2026-03-24T15:11:01.999Z</time></trkpt><trkpt lat="43.254814285022626" lon="5.609374610226596"><ele>323.0</ele><time>2026-03-24T15:11:02.999Z</time></trkpt><trkpt lat="43.254761185919875" lon="5.609290830772325"><ele>323.0</ele><time>2026-03-24T15:11:03.999Z</time></trkpt><trkpt lat="43.254705953108804" lon="5.609149157138342"><ele>321.5</ele><time>2026-03-24T15:11:04.999Z</time></trkpt><trkpt lat="43.254665662068334" lon="5.6089803397918745"><ele>320.0</ele><time>2026-03-24T15:11:05.999Z</time></trkpt><trkpt lat="43.25464681106003" lon="5.608813142419784"><ele>318.5</ele><time>2026-03-24T15:11:06.999Z</time></trkpt><trkpt lat="43.254612270937734" lon="5.608586470237477"><ele>317.0</ele><time>2026-03-24T15:11:07.999Z</time></trkpt><trkpt lat="43.25455732786836" lon="5.608358424803832"><ele>317.0</ele><time>2026-03-24T15:11:08.999Z</time></trkpt><trkpt lat="43.25450112563983" lon="5.608148068715102"><ele>317.0</ele><time>2026-03-24T15:11:09.999Z</time></trkpt><trkpt lat="43.25447559371988" lon="5.607967442685793"><ele>317.0</ele><time>2026-03-24T15:11:10.999Z</time></trkpt><trkpt lat="43.25442428136687" lon="5.607756127515332"><ele>318.33333333333337</ele><time>2026-03-24T15:11:11.999Z</time></trkpt><trkpt lat="43.254370798658854" lon="5.60754383660474"><ele>319.6666666666667</ele><time>2026-03-24T15:11:12.999Z</time></trkpt><trkpt lat="43.25431996040914" lon="5.607331144570565"><ele>321.0</ele><time>2026-03-24T15:11:13.999Z</time></trkpt><trkpt lat="43.254269286777955" lon="5.607119489239782"><ele>321.25</ele><time>2026-03-24T15:11:14.999Z</time></trkpt><trkpt lat="43.254223981027096" lon="5.60692871383596"><ele>321.5</ele><time>2026-03-24T15:11:15.999Z</time></trkpt><trkpt lat="43.254184146751534" lon="5.606749026032936"><ele>321.75</ele><time>2026-03-24T15:11:16.999Z</time></trkpt><trkpt lat="43.25414103648309" lon="5.606570910576024"><ele>322.0</ele><time>2026-03-24T15:11:17.999Z</time></trkpt><trkpt lat="43.25410032137979" lon="5.606414658682882"><ele>322.0</ele><time>2026-03-24T15:11:18.999Z</time></trkpt><trkpt lat="43.254064996013526" lon="5.606267586887343"><ele>322.0</ele><time>2026-03-24T15:11:19.999Z</time></trkpt><trkpt lat="43.25402966382242" lon="5.606125150763879"><ele>322.0</ele><time>2026-03-24T15:11:20.999Z</time></trkpt><trkpt lat="43.25400958668935" lon="5.605981033947054"><ele>322.0</ele><time>2026-03-24T15:11:21.999Z</time></trkpt><trkpt lat="43.25401936358331" lon="5.605817798575481"><ele>322.0</ele><time>2026-03-24T15:11:22.999Z</time></trkpt><trkpt lat="43.25403183464381" lon="5.605645927455025"><ele>321.25</ele><time>2026-03-24T15:11:23.999Z</time></trkpt><trkpt lat="43.25406953943951" lon="5.605473296951147"><ele>320.5</ele><time>2026-03-24T15:11:24.999Z</time></trkpt><trkpt lat="43.25411004752201" lon="5.605312496799299"><ele>319.75</ele><time>2026-03-24T15:11:25.999Z</time></trkpt><trkpt lat="43.25413591337021" lon="5.605166548615983"><ele>319.0</ele><time>2026-03-24T15:11:26.999Z</time></trkpt><trkpt lat="43.25414607726089" lon="5.605001694727693"><ele>318.0</ele><time>2026-03-24T15:11:27.999Z</time></trkpt><trkpt lat="43.25414765298526" lon="5.604824385966675"><ele>317.0</ele><time>2026-03-24T15:11:28.999Z</time></trkpt><trkpt lat="43.254152221294895" lon="5.604662397613386"><ele>316.0</ele><time>2026-03-24T15:11:29.999Z</time></trkpt><trkpt lat="43.25414683795394" lon="5.604505238300446"><ele>315.0</ele><time>2026-03-24T15:11:31Z</time></trkpt><trkpt lat="43.25413764926384" lon="5.604334534189616"><ele>313.75</ele><time>2026-03-24T15:11:32Z</time></trkpt><trkpt lat="43.25412422726184" lon="5.604174752310145"><ele>312.5</ele><time>2026-03-24T15:11:33Z</time></trkpt><trkpt lat="43.25409019887592" lon="5.6040056988038565"><ele>311.25</ele><time>2026-03-24T15:11:34Z</time></trkpt><trkpt lat="43.254038162046385" lon="5.603832256497207"><ele>310.0</ele><time>2026-03-24T15:11:35Z</time></trkpt><trkpt lat="43.25398656227735" lon="5.603653907926254"><ele>308.75</ele><time>2026-03-24T15:11:36Z</time></trkpt><trkpt lat="43.25394800951614" lon="5.603484395053559"><ele>307.5</ele><time>2026-03-24T15:11:37Z</time></trkpt><trkpt lat="43.25392899787049" lon="5.6033419109905065"><ele>306.25</ele><time>2026-03-24T15:11:38Z</time></trkpt><trkpt lat="43.25393691426047" lon="5.603187919804623"><ele>305.0</ele><time>2026-03-24T15:11:39Z</time></trkpt><trkpt lat="43.25396513974191" lon="5.60303022931163"><ele>305.0</ele><time>2026-03-24T15:11:40Z</time></trkpt><trkpt lat="43.25398156265695" lon="5.602907571995309"><ele>305.0</ele><time>2026-03-24T15:11:41Z</time></trkpt><trkpt lat="43.25400251003563" lon="5.602800167867979"><ele>305.0</ele><time>2026-03-24T15:11:42Z</time></trkpt><trkpt lat="43.25401370538207" lon="5.602699431932733"><ele>305.0</ele><time>2026-03-24T15:11:43Z</time></trkpt><trkpt lat="43.25403021056295" lon="5.602559836104452"><ele>305.0</ele><time>2026-03-24T15:11:44Z</time></trkpt><trkpt lat="43.25407333186248" lon="5.602406298948912"><ele>304.0</ele><time>2026-03-24T15:11:45Z</time></trkpt><trkpt lat="43.25411074969808" lon="5.602245613974802"><ele>303.0</ele><time>2026-03-24T15:11:46Z</time></trkpt><trkpt lat="43.254160902760944" lon="5.602068584402602"><ele>302.0</ele><time>2026-03-24T15:11:47Z</time></trkpt><trkpt lat="43.254202816883286" lon="5.601903306663669"><ele>301.0</ele><time>2026-03-24T15:11:48Z</time></trkpt><trkpt lat="43.25422165469949" lon="5.60174928768925"><ele>301.0</ele><time>2026-03-24T15:11:49Z</time></trkpt><trkpt lat="43.254247935767474" lon="5.601572653490839"><ele>301.0</ele><time>2026-03-24T15:11:50Z</time></trkpt><trkpt lat="43.25428195869591" lon="5.601401768070707"><ele>301.0</ele><time>2026-03-24T15:11:51Z</time></trkpt><trkpt lat="43.254305577076885" lon="5.6012668037610664"><ele>301.0</ele><time>2026-03-24T15:11:52Z</time></trkpt><trkpt lat="43.25433070993817" lon="5.601122458753734"><ele>299.5</ele><time>2026-03-24T15:11:53Z</time></trkpt><trkpt lat="43.25435398108857" lon="5.601012508759564"><ele>298.0</ele><time>2026-03-24T15:11:54Z</time></trkpt><trkpt lat="43.254373233394716" lon="5.600894054865952"><ele>296.5</ele><time>2026-03-24T15:11:55Z</time></trkpt><trkpt lat="43.25440073144587" lon="5.600779828094043"><ele>295.0</ele><time>2026-03-24T15:11:55.999Z</time></trkpt><trkpt lat="43.2544285210996" lon="5.600655105058116"><ele>293.5</ele><time>2026-03-24T15:11:56.999Z</time></trkpt><trkpt lat="43.254448713868065" lon="5.600557666334135"><ele>292.0</ele><time>2026-03-24T15:11:57.999Z</time></trkpt><trkpt lat="43.254471703914625" lon="5.600470275593998"><ele>292.0</ele><time>2026-03-24T15:11:58.999Z</time></trkpt><trkpt lat="43.25449078559497" lon="5.600376727338112"><ele>292.0</ele><time>2026-03-24T15:11:59.999Z</time></trkpt><trkpt lat="43.2545296295251" lon="5.600246910312014"><ele>292.0</ele><time>2026-03-24T15:12:01.999Z</time></trkpt><trkpt lat="43.25456015288016" lon="5.60014745821299"><ele>292.0</ele><time>2026-03-24T15:12:03.999Z</time></trkpt><trkpt lat="43.254575851101556" lon="5.60005160889219"><ele>292.0</ele><time>2026-03-24T15:12:05.999Z</time></trkpt><trkpt lat="43.254573593799286" lon="5.599957169851372"><ele>292.0</ele><time>2026-03-24T15:12:08.999Z</time></trkpt><trkpt lat="43.254529188858335" lon="5.599890012859948"><ele>288.5</ele><time>2026-03-24T15:12:11.999Z</time></trkpt><trkpt lat="43.254533089303315" lon="5.599797396077429"><ele>285.0</ele><time>2026-03-24T15:12:16.999Z</time></trkpt><trkpt lat="43.254600687871594" lon="5.599763005331628"><ele>281.5</ele><time>2026-03-24T15:12:18.999Z</time></trkpt><trkpt lat="43.25466331378808" lon="5.59978239004106"><ele>278.0</ele><time>2026-03-24T15:12:19.999Z</time></trkpt><trkpt lat="43.25472609744075" lon="5.599811220887557"><ele>274.5</ele><time>2026-03-24T15:12:20.999Z</time></trkpt><trkpt lat="43.254822503627324" lon="5.59984757886677"><ele>271.0</ele><time>2026-03-24T15:12:22.999Z</time></trkpt><trkpt lat="43.2549034197495" lon="5.599937057927599"><ele>270.66666666666663</ele><time>2026-03-24T15:12:24.999Z</time></trkpt><trkpt lat="43.25494474971474" lon="5.600052364486856"><ele>270.3333333333333</ele><time>2026-03-24T15:12:26.999Z</time></trkpt><trkpt lat="43.2550093993787" lon="5.600139200673205"><ele>270.0</ele><time>2026-03-24T15:12:28.999Z</time></trkpt><trkpt lat="43.25504801925189" lon="5.600219977563672"><ele>269.6666666666667</ele><time>2026-03-24T15:12:29.999Z</time></trkpt><trkpt lat="43.2550762674444" lon="5.600314468608413"><ele>269.33333333333337</ele><time>2026-03-24T15:12:30.999Z</time></trkpt><trkpt lat="43.255090544867485" lon="5.60046480462106"><ele>269.0</ele><time>2026-03-24T15:12:32.999Z</time></trkpt><trkpt lat="43.255095156594344" lon="5.600598163490941"><ele>269.0</ele><time>2026-03-24T15:12:34.999Z</time></trkpt><trkpt lat="43.25513219797812" lon="5.6007291789440785"><ele>269.0</ele><time>2026-03-24T15:12:36.999Z</time></trkpt><trkpt lat="43.25513695743001" lon="5.600849975822098"><ele>269.0</ele><time>2026-03-24T15:12:38.999Z</time></trkpt><trkpt lat="43.25516566803549" lon="5.600945305485349"><ele>269.0</ele><time>2026-03-24T15:12:40.999Z</time></trkpt><trkpt lat="43.255183272745256" lon="5.601036345989949"><ele>269.0</ele><time>2026-03-24T15:12:42.999Z</time></trkpt><trkpt lat="43.25520369985881" lon="5.601126318940315"><ele>269.0</ele><time>2026-03-24T15:12:45.999Z</time></trkpt><trkpt lat="43.25521604241814" lon="5.601221983568795"><ele>268.33333333333337</ele><time>2026-03-24T15:12:48.999Z</time></trkpt><trkpt lat="43.255225835694006" lon="5.601323036158612"><ele>267.6666666666667</ele><time>2026-03-24T15:12:51.999Z</time></trkpt><trkpt lat="43.25522817627225" lon="5.601415000288928"><ele>267.0</ele><time>2026-03-24T15:12:57.999Z</time></trkpt><trkpt lat="43.25526942977837" lon="5.6015294757624625"><ele>266.3333333333333</ele><time>2026-03-24T15:13:00.999Z</time></trkpt><trkpt lat="43.25526476817016" lon="5.601630837227788"><ele>265.66666666666663</ele><time>2026-03-24T15:13:02.999Z</time></trkpt><trkpt lat="43.25531887665171" lon="5.601585252911014"><ele>265.0</ele><time>2026-03-24T15:13:11Z</time></trkpt><trkpt lat="43.25536068950702" lon="5.60149328199574"><ele>265.0</ele><time>2026-03-24T15:13:12Z</time></trkpt><trkpt lat="43.255385901646626" lon="5.601382237212303"><ele>265.0</ele><time>2026-03-24T15:13:13Z</time></trkpt><trkpt lat="43.25542573077275" lon="5.601257807563362"><ele>265.0</ele><time>2026-03-24T15:13:14Z</time></trkpt><trkpt lat="43.255467410876264" lon="5.601165055424667"><ele>265.0</ele><time>2026-03-24T15:13:15Z</time></trkpt><trkpt lat="43.25555495273153" lon="5.600562708775287"><ele>266.3333333333333</ele><time>2026-03-24T15:13:16Z</time></trkpt><trkpt lat="43.25560391188805" lon="5.600333743808983"><ele>267.6666666666667</ele><time>2026-03-24T15:13:17Z</time></trkpt><trkpt lat="43.255622488496094" lon="5.6001092255747835"><ele>269.0</ele><time>2026-03-24T15:13:18Z</time></trkpt><trkpt lat="43.2556322024429" lon="5.599873646082638"><ele>265.75</ele><time>2026-03-24T15:13:19Z</time></trkpt><trkpt lat="43.25565088947395" lon="5.59966297087009"><ele>262.5</ele><time>2026-03-24T15:13:20Z</time></trkpt><trkpt lat="43.255694084176646" lon="5.599457434689169"><ele>259.25</ele><time>2026-03-24T15:13:21Z</time></trkpt><trkpt lat="43.25574706188852" lon="5.599296274872118"><ele>256.0</ele><time>2026-03-24T15:13:22Z</time></trkpt><trkpt lat="43.255794160279734" lon="5.599172324577138"><ele>255.75</ele><time>2026-03-24T15:13:23Z</time></trkpt><trkpt lat="43.25586748888984" lon="5.599058467509628"><ele>255.5</ele><time>2026-03-24T15:13:25Z</time></trkpt><trkpt lat="43.25567876422529" lon="5.598919132376691"><ele>255.25</ele><time>2026-03-24T15:13:29Z</time></trkpt><trkpt lat="43.25557514098734" lon="5.598907185586492"><ele>255.0</ele><time>2026-03-24T15:13:30Z</time></trkpt><trkpt lat="43.2553874635981" lon="5.598883715974378"><ele>255.0</ele><time>2026-03-24T15:13:31Z</time></trkpt><trkpt lat="43.25518340526184" lon="5.598883372285846"><ele>255.0</ele><time>2026-03-24T15:13:32Z</time></trkpt><trkpt lat="43.255021506103425" lon="5.598873206003165"><ele>255.0</ele><time>2026-03-24T15:13:33Z</time></trkpt><trkpt lat="43.254910351371635" lon="5.598763847605687"><ele>255.0</ele><time>2026-03-24T15:13:34Z</time></trkpt><trkpt lat="43.25479511500759" lon="5.598678971631603"><ele>255.0</ele><time>2026-03-24T15:13:35Z</time></trkpt><trkpt lat="43.25463083425474" lon="5.598700105553381"><ele>255.0</ele><time>2026-03-24T15:13:36Z</time></trkpt><trkpt lat="43.25451624233528" lon="5.598720785957379"><ele>255.0</ele><time>2026-03-24T15:13:37Z</time></trkpt><trkpt lat="43.254366480510136" lon="5.598775053406752"><ele>255.75</ele><time>2026-03-24T15:13:38Z</time></trkpt><trkpt lat="43.25423830005587" lon="5.598825158045171"><ele>256.5</ele><time>2026-03-24T15:13:39Z</time></trkpt><trkpt lat="43.25408701300701" lon="5.598858360339541"><ele>257.25</ele><time>2026-03-24T15:13:40Z</time></trkpt><trkpt lat="43.25401265406545" lon="5.59892352618879"><ele>258.0</ele><time>2026-03-24T15:13:41Z</time></trkpt><trkpt lat="43.25400461040981" lon="5.599051755104108"><ele>258.0</ele><time>2026-03-24T15:13:42Z</time></trkpt><trkpt lat="43.25403078656931" lon="5.599196562434702"><ele>258.0</ele><time>2026-03-24T15:13:43Z</time></trkpt><trkpt lat="43.254041259170386" lon="5.599375666206985"><ele>258.0</ele><time>2026-03-24T15:13:44Z</time></trkpt><trkpt lat="43.25404108673162" lon="5.599511839525077"><ele>258.0</ele><time>2026-03-24T15:13:45Z</time></trkpt><trkpt lat="43.25396639228547" lon="5.599606006522548"><ele>258.0</ele><time>2026-03-24T15:13:46Z</time></trkpt><trkpt lat="43.253886329810236" lon="5.599676398551675"><ele>259.0</ele><time>2026-03-24T15:13:47Z</time></trkpt><trkpt lat="43.25378244119486" lon="5.5996557194877665"><ele>260.0</ele><time>2026-03-24T15:13:48Z</time></trkpt><trkpt lat="43.25368065386943" lon="5.5995709019811315"><ele>261.0</ele><time>2026-03-24T15:13:49Z</time></trkpt><trkpt lat="43.253556939284344" lon="5.59947731411648"><ele>262.0</ele><time>2026-03-24T15:13:50Z</time></trkpt><trkpt lat="43.25347140386779" lon="5.599427109385961"><ele>262.0</ele><time>2026-03-24T15:13:51Z</time></trkpt><trkpt lat="43.25339272829378" lon="5.59940897311542"><ele>262.0</ele><time>2026-03-24T15:13:52Z</time></trkpt><trkpt lat="43.253320288686474" lon="5.599439024587634"><ele>262.0</ele><time>2026-03-24T15:13:53Z</time></trkpt><trkpt lat="43.25326039444276" lon="5.599473674366115"><ele>262.0</ele><time>2026-03-24T15:13:54Z</time></trkpt><trkpt lat="43.25320394879221" lon="5.59953471952564"><ele>262.0</ele><time>2026-03-24T15:13:55Z</time></trkpt><trkpt lat="43.25315987746579" lon="5.5996179689058785"><ele>262.0</ele><time>2026-03-24T15:13:56Z</time></trkpt><trkpt lat="43.25312653838992" lon="5.599702312160506"><ele>262.0</ele><time>2026-03-24T15:13:57Z</time></trkpt><trkpt lat="43.25307354270698" lon="5.599803191837037"><ele>262.16666666666663</ele><time>2026-03-24T15:13:59Z</time></trkpt><trkpt lat="43.25303039167079" lon="5.59991410101426"><ele>262.3333333333333</ele><time>2026-03-24T15:14:01Z</time></trkpt><trkpt lat="43.252980315161814" lon="5.600004205808887"><ele>262.5</ele><time>2026-03-24T15:14:02Z</time></trkpt><trkpt lat="43.25292556720756" lon="5.60008880065918"><ele>262.6666666666667</ele><time>2026-03-24T15:14:03Z</time></trkpt><trkpt lat="43.25286412349207" lon="5.600175066187053"><ele>262.83333333333337</ele><time>2026-03-24T15:14:04Z</time></trkpt><trkpt lat="43.25279810145728" lon="5.600259991577796"><ele>263.0</ele><time>2026-03-24T15:14:05Z</time></trkpt><trkpt lat="43.25272784573398" lon="5.600335530368841"><ele>263.0</ele><time>2026-03-24T15:14:06Z</time></trkpt><trkpt lat="43.252650546162464" lon="5.600362507681929"><ele>263.0</ele><time>2026-03-24T15:14:07Z</time></trkpt><trkpt lat="43.25257493102405" lon="5.600426263814324"><ele>263.0</ele><time>2026-03-24T15:14:09Z</time></trkpt><trkpt lat="43.2527045337295" lon="5.600406800548275"><ele>263.0</ele><time>2026-03-24T15:14:12Z</time></trkpt><trkpt lat="43.25279244491621" lon="5.600302878377839"><ele>263.0</ele><time>2026-03-24T15:14:13Z</time></trkpt><trkpt lat="43.25290833954122" lon="5.6001569338515464"><ele>262.6666666666667</ele><time>2026-03-24T15:14:14Z</time></trkpt><trkpt lat="43.25304459424551" lon="5.599955746379263"><ele>262.3333333333333</ele><time>2026-03-24T15:14:15Z</time></trkpt><trkpt lat="43.25315698715552" lon="5.599755700213865"><ele>262.0</ele><time>2026-03-24T15:14:16Z</time></trkpt><trkpt lat="43.253249283600205" lon="5.599585370558315"><ele>262.5</ele><time>2026-03-24T15:14:17Z</time></trkpt><trkpt lat="43.25333613737159" lon="5.599449539850089"><ele>263.0</ele><time>2026-03-24T15:14:18Z</time></trkpt><trkpt lat="43.25344299339433" lon="5.599362297378009"><ele>263.5</ele><time>2026-03-24T15:14:19Z</time></trkpt><trkpt lat="43.25355085412912" lon="5.599408031658983"><ele>264.0</ele><time>2026-03-24T15:14:20Z</time></trkpt><trkpt lat="43.25364952588531" lon="5.5994713649844226"><ele>263.59999999999997</ele><time>2026-03-24T15:14:21Z</time></trkpt><trkpt lat="43.25376051238363" lon="5.599531323520687"><ele>263.2</ele><time>2026-03-24T15:14:22Z</time></trkpt><trkpt lat="43.253871562629676" lon="5.599560553905798"><ele>262.79999999999995</ele><time>2026-03-24T15:14:23Z</time></trkpt><trkpt lat="43.253962718459725" lon="5.599604273727866"><ele>262.4</ele><time>2026-03-24T15:14:24Z</time></trkpt><trkpt lat="43.25404901724455" lon="5.59959428662578"><ele>262.0</ele><time>2026-03-24T15:14:25Z</time></trkpt><trkpt lat="43.25411763585367" lon="5.59950553560991"><ele>261.2</ele><time>2026-03-24T15:14:26Z</time></trkpt><trkpt lat="43.25414840141203" lon="5.599369686066916"><ele>260.4</ele><time>2026-03-24T15:14:27Z</time></trkpt><trkpt lat="43.25413305732925" lon="5.59921794139639"><ele>259.6</ele><time>2026-03-24T15:14:28Z</time></trkpt><trkpt lat="43.254121217583375" lon="5.599072122553729"><ele>258.8</ele><time>2026-03-24T15:14:29Z</time></trkpt><trkpt lat="43.25413221154844" lon="5.598946478982452"><ele>258.0</ele><time>2026-03-24T15:14:30Z</time></trkpt><trkpt lat="43.254145427397745" lon="5.5988279731321065"><ele>258.0</ele><time>2026-03-24T15:14:31Z</time></trkpt><trkpt lat="43.25420690809807" lon="5.598750586788574"><ele>258.0</ele><time>2026-03-24T15:14:32Z</time></trkpt><trkpt lat="43.254362127593325" lon="5.598870144721449"><ele>258.0</ele><time>2026-03-24T15:14:33Z</time></trkpt><trkpt lat="43.254466353702334" lon="5.598880471321899"><ele>258.0</ele><time>2026-03-24T15:14:34Z</time></trkpt><trkpt lat="43.254563940876345" lon="5.598845983882757"><ele>258.0</ele><time>2026-03-24T15:14:35Z</time></trkpt><trkpt lat="43.254669998035" lon="5.598748432766485"><ele>258.0</ele><time>2026-03-24T15:14:36Z</time></trkpt><trkpt lat="43.254795220688194" lon="5.598724828314066"><ele>258.0</ele><time>2026-03-24T15:14:37Z</time></trkpt><trkpt lat="43.25490328893504" lon="5.598810074078994"><ele>258.0</ele><time>2026-03-24T15:14:38Z</time></trkpt><trkpt lat="43.25504871969941" lon="5.598887336210958"><ele>257.0</ele><time>2026-03-24T15:14:39Z</time></trkpt><trkpt lat="43.25520653550214" lon="5.598975575178644"><ele>256.0</ele><time>2026-03-24T15:14:40Z</time></trkpt><trkpt lat="43.25537011034555" lon="5.598992649063727"><ele>255.0</ele><time>2026-03-24T15:14:41Z</time></trkpt><trkpt lat="43.25551111567672" lon="5.599000334506573"><ele>253.25</ele><time>2026-03-24T15:14:42Z</time></trkpt><trkpt lat="43.255644680390205" lon="5.599029350080119"><ele>251.5</ele><time>2026-03-24T15:14:43Z</time></trkpt><trkpt lat="43.25575353514134" lon="5.599060807812487"><ele>249.75</ele><time>2026-03-24T15:14:44Z</time></trkpt><trkpt lat="43.25585921426973" lon="5.599065982501699"><ele>248.0</ele><time>2026-03-24T15:14:45Z</time></trkpt><trkpt lat="43.255963782807484" lon="5.59901670847192"><ele>248.0</ele><time>2026-03-24T15:14:46Z</time></trkpt><trkpt lat="43.2560478960041" lon="5.598897739534143"><ele>248.0</ele><time>2026-03-24T15:14:47Z</time></trkpt><trkpt lat="43.25609720212756" lon="5.5987395391052"><ele>248.0</ele><time>2026-03-24T15:14:48Z</time></trkpt><trkpt lat="43.2560928816128" lon="5.5985606537101695"><ele>248.0</ele><time>2026-03-24T15:14:49Z</time></trkpt><trkpt lat="43.2560276120773" lon="5.598397846079757"><ele>247.75</ele><time>2026-03-24T15:14:50Z</time></trkpt><trkpt lat="43.255937546731246" lon="5.598248631519766"><ele>247.5</ele><time>2026-03-24T15:14:51Z</time></trkpt><trkpt lat="43.25585787090425" lon="5.598089663125347"><ele>247.25</ele><time>2026-03-24T15:14:52Z</time></trkpt><trkpt lat="43.25580371171055" lon="5.597902896406813"><ele>247.0</ele><time>2026-03-24T15:14:53Z</time></trkpt><trkpt lat="43.25577462065195" lon="5.5977202429579265"><ele>247.0</ele><time>2026-03-24T15:14:54Z</time></trkpt><trkpt lat="43.255736976736564" lon="5.5975338513870545"><ele>247.0</ele><time>2026-03-24T15:14:55Z</time></trkpt><trkpt lat="43.2557097957217" lon="5.597336645131179"><ele>247.0</ele><time>2026-03-24T15:14:56Z</time></trkpt><trkpt lat="43.25568185209685" lon="5.59714608338173"><ele>247.0</ele><time>2026-03-24T15:14:57Z</time></trkpt><trkpt lat="43.25568248778309" lon="5.596780540821774"><ele>247.0</ele><time>2026-03-24T15:14:59Z</time></trkpt><trkpt lat="43.25569058533095" lon="5.596604842968984"><ele>247.0</ele><time>2026-03-24T15:15:00Z</time></trkpt><trkpt lat="43.255680432045054" lon="5.596430038522759"><ele>247.0</ele><time>2026-03-24T15:15:01Z</time></trkpt><trkpt lat="43.25567053059993" lon="5.596274404149425"><ele>247.0</ele><time>2026-03-24T15:15:02Z</time></trkpt><trkpt lat="43.25560620375894" lon="5.596150158923316"><ele>247.0</ele><time>2026-03-24T15:15:03Z</time></trkpt><trkpt lat="43.25548713161075" lon="5.596065754697762"><ele>247.0</ele><time>2026-03-24T15:15:04Z</time></trkpt><trkpt lat="43.25534968752053" lon="5.595984932878691"><ele>247.0</ele><time>2026-03-24T15:15:05Z</time></trkpt><trkpt lat="43.25525040264461" lon="5.595824058771191"><ele>247.0</ele><time>2026-03-24T15:15:06Z</time></trkpt><trkpt lat="43.25519600122024" lon="5.595635575386921"><ele>247.0</ele><time>2026-03-24T15:15:07Z</time></trkpt><trkpt lat="43.25517821487935" lon="5.595462738681065"><ele>247.0</ele><time>2026-03-24T15:15:08Z</time></trkpt><trkpt lat="43.255192356155085" lon="5.595316201523569"><ele>247.0</ele><time>2026-03-24T15:15:09Z</time></trkpt><trkpt lat="43.255261873669745" lon="5.5951626565364325"><ele>247.0</ele><time>2026-03-24T15:15:10Z</time></trkpt><trkpt lat="43.255358255921124" lon="5.594982854520219"><ele>245.33333333333331</ele><time>2026-03-24T15:15:11Z</time></trkpt><trkpt lat="43.255470531255966" lon="5.594801075084446"><ele>243.66666666666669</ele><time>2026-03-24T15:15:12Z</time></trkpt><trkpt lat="43.25560096728155" lon="5.594632668227751"><ele>242.0</ele><time>2026-03-24T15:15:13Z</time></trkpt><trkpt lat="43.25575194810315" lon="5.594528617105002"><ele>241.66666666666669</ele><time>2026-03-24T15:15:14Z</time></trkpt><trkpt lat="43.25591954584754" lon="5.594471429811769"><ele>241.33333333333331</ele><time>2026-03-24T15:15:15Z</time></trkpt><trkpt lat="43.256089642489115" lon="5.594451733797526"><ele>241.0</ele><time>2026-03-24T15:15:16Z</time></trkpt><trkpt lat="43.256245851276894" lon="5.5944178612404585"><ele>241.0</ele><time>2026-03-24T15:15:17Z</time></trkpt><trkpt lat="43.25639202772544" lon="5.594407761651179"><ele>241.0</ele><time>2026-03-24T15:15:18Z</time></trkpt><trkpt lat="43.256504360107776" lon="5.594318502405068"><ele>241.0</ele><time>2026-03-24T15:15:19Z</time></trkpt><trkpt lat="43.256553549930665" lon="5.594190250552079"><ele>241.0</ele><time>2026-03-24T15:15:20Z</time></trkpt><trkpt lat="43.25656354476655" lon="5.593810782866101"><ele>240.0</ele><time>2026-03-24T15:15:21Z</time></trkpt><trkpt lat="43.25655829135318" lon="5.593518408383262"><ele>239.0</ele><time>2026-03-24T15:15:22Z</time></trkpt><trkpt lat="43.256564709784584" lon="5.593155839069881"><ele>237.33333333333334</ele><time>2026-03-24T15:15:23Z</time></trkpt><trkpt lat="43.25660917782503" lon="5.59283612583125"><ele>235.66666666666669</ele><time>2026-03-24T15:15:24Z</time></trkpt><trkpt lat="43.25661980559391" lon="5.592546424989551"><ele>234.0</ele><time>2026-03-24T15:15:25Z</time></trkpt><trkpt lat="43.2566525417629" lon="5.592319065230719"><ele>234.0</ele><time>2026-03-24T15:15:26Z</time></trkpt><trkpt lat="43.25667296765656" lon="5.592097574484377"><ele>234.0</ele><time>2026-03-24T15:15:27Z</time></trkpt><trkpt lat="43.25669959695943" lon="5.591902899439389"><ele>234.0</ele><time>2026-03-24T15:15:28Z</time></trkpt><trkpt lat="43.256727852609984" lon="5.5918110170866635"><ele>234.0</ele><time>2026-03-24T15:15:29Z</time></trkpt><trkpt lat="43.25678426328305" lon="5.591703343741196"><ele>235.6</ele><time>2026-03-24T15:15:30Z</time></trkpt><trkpt lat="43.256847836818984" lon="5.59169643187021"><ele>237.2</ele><time>2026-03-24T15:15:33Z</time></trkpt><trkpt lat="43.25696733056878" lon="5.591712381022037"><ele>238.79999999999998</ele><time>2026-03-24T15:15:35Z</time></trkpt><trkpt lat="43.257038430898675" lon="5.591752539610779"><ele>240.39999999999998</ele><time>2026-03-24T15:15:36Z</time></trkpt><trkpt lat="43.257135436689246" lon="5.591814162159016"><ele>242.0</ele><time>2026-03-24T15:15:37Z</time></trkpt><trkpt lat="43.25722700355245" lon="5.591882195886705"><ele>241.0</ele><time>2026-03-24T15:15:38Z</time></trkpt><trkpt lat="43.257321823138305" lon="5.591947927497753"><ele>240.0</ele><time>2026-03-24T15:15:39Z</time></trkpt><trkpt lat="43.2574223695843" lon="5.592027966992054"><ele>239.0</ele><time>2026-03-24T15:15:40Z</time></trkpt><trkpt lat="43.25752751420769" lon="5.592052437281586"><ele>238.0</ele><time>2026-03-24T15:15:41Z</time></trkpt><trkpt lat="43.25764179603848" lon="5.592038150073953"><ele>237.0</ele><time>2026-03-24T15:15:42Z</time></trkpt><trkpt lat="43.257757552562104" lon="5.592002675139359"><ele>235.5</ele><time>2026-03-24T15:15:43Z</time></trkpt><trkpt lat="43.25787282594403" lon="5.591958062920974"><ele>234.0</ele><time>2026-03-24T15:15:44Z</time></trkpt><trkpt lat="43.25799178316291" lon="5.591916437210759"><ele>232.5</ele><time>2026-03-24T15:15:45Z</time></trkpt><trkpt lat="43.258111146531284" lon="5.591876790457131"><ele>231.0</ele><time>2026-03-24T15:15:46Z</time></trkpt><trkpt lat="43.25824262538219" lon="5.591831270641195"><ele>231.0</ele><time>2026-03-24T15:15:47Z</time></trkpt><trkpt lat="43.25836867220514" lon="5.591779810784272"><ele>231.0</ele><time>2026-03-24T15:15:48Z</time></trkpt><trkpt lat="43.25848336898777" lon="5.5917028718324495"><ele>231.0</ele><time>2026-03-24T15:15:49Z</time></trkpt><trkpt lat="43.25856522120724" lon="5.591581436513734"><ele>231.0</ele><time>2026-03-24T15:15:50Z</time></trkpt><trkpt lat="43.25862087283418" lon="5.5914357251568"><ele>231.0</ele><time>2026-03-24T15:15:51Z</time></trkpt><trkpt lat="43.25865658729288" lon="5.591273626472391"><ele>231.00000000000003</ele><time>2026-03-24T15:15:52Z</time></trkpt><trkpt lat="43.25870659308423" lon="5.591136402801917"><ele>231.00000000000003</ele><time>2026-03-24T15:15:53Z</time></trkpt><trkpt lat="43.25877883881276" lon="5.591039226667784"><ele>231.0</ele><time>2026-03-24T15:15:54Z</time></trkpt><trkpt lat="43.25884690231619" lon="5.59096786632303"><ele>231.0</ele><time>2026-03-24T15:15:55Z</time></trkpt><trkpt lat="43.258935871018345" lon="5.590973069882585"><ele>230.66666666666666</ele><time>2026-03-24T15:15:56Z</time></trkpt><trkpt lat="43.25902869954134" lon="5.591011876331764"><ele>230.33333333333331</ele><time>2026-03-24T15:15:57Z</time></trkpt><trkpt lat="43.25909754889945" lon="5.591099091963553"><ele>230.0</ele><time>2026-03-24T15:15:58Z</time></trkpt><trkpt lat="43.259149867389496" lon="5.591204673308744"><ele>229.66666666666666</ele><time>2026-03-24T15:15:59Z</time></trkpt><trkpt lat="43.25920691776868" lon="5.591288998144973"><ele>229.33333333333331</ele><time>2026-03-24T15:16:00Z</time></trkpt><trkpt lat="43.25927515934052" lon="5.59134154284516"><ele>229.0</ele><time>2026-03-24T15:16:01Z</time></trkpt><trkpt lat="43.259348034994595" lon="5.591395825145571"><ele>228.79999999999998</ele><time>2026-03-24T15:16:02Z</time></trkpt><trkpt lat="43.25944877402983" lon="5.591416695167521"><ele>228.59999999999997</ele><time>2026-03-24T15:16:03Z</time></trkpt><trkpt lat="43.2595593532334" lon="5.591398064610995"><ele>228.4</ele><time>2026-03-24T15:16:04Z</time></trkpt><trkpt lat="43.25966523293357" lon="5.591332863125006"><ele>228.2</ele><time>2026-03-24T15:16:05Z</time></trkpt><trkpt lat="43.259745214848245" lon="5.59121729993246"><ele>228.0</ele><time>2026-03-24T15:16:06Z</time></trkpt><trkpt lat="43.25979795624848" lon="5.591075912762601"><ele>227.0</ele><time>2026-03-24T15:16:07Z</time></trkpt><trkpt lat="43.25986019827026" lon="5.590941225668027"><ele>226.0</ele><time>2026-03-24T15:16:08Z</time></trkpt><trkpt lat="43.25992656591371" lon="5.590823986160537"><ele>225.0</ele><time>2026-03-24T15:16:09Z</time></trkpt><trkpt lat="43.259999249256914" lon="5.59070605559068"><ele>224.0</ele><time>2026-03-24T15:16:10Z</time></trkpt><trkpt lat="43.26009459589697" lon="5.590605578677788"><ele>224.0</ele><time>2026-03-24T15:16:11Z</time></trkpt><trkpt lat="43.260207228153355" lon="5.590550997849164"><ele>224.0</ele><time>2026-03-24T15:16:12Z</time></trkpt><trkpt lat="43.26032475222452" lon="5.590505434125965"><ele>224.0</ele><time>2026-03-24T15:16:13Z</time></trkpt><trkpt lat="43.260448733792394" lon="5.5904885170417815"><ele>224.0</ele><time>2026-03-24T15:16:14Z</time></trkpt><trkpt lat="43.260582669674804" lon="5.590482255959668"><ele>223.25</ele><time>2026-03-24T15:16:15Z</time></trkpt><trkpt lat="43.260720437526984" lon="5.590459108231304"><ele>222.5</ele><time>2026-03-24T15:16:16Z</time></trkpt><trkpt lat="43.260859361491434" lon="5.590469837319706"><ele>221.75</ele><time>2026-03-24T15:16:17Z</time></trkpt><trkpt lat="43.26099974911616" lon="5.590468255615803"><ele>221.0</ele><time>2026-03-24T15:16:18Z</time></trkpt><trkpt lat="43.261141356854296" lon="5.5904679372962045"><ele>221.0</ele><time>2026-03-24T15:16:19Z</time></trkpt><trkpt lat="43.26128124635946" lon="5.59046972128876"><ele>221.0</ele><time>2026-03-24T15:16:20Z</time></trkpt><trkpt lat="43.261418864877996" lon="5.590470523365413"><ele>221.0</ele><time>2026-03-24T15:16:21Z</time></trkpt><trkpt lat="43.261546243005995" lon="5.590464921598751"><ele>221.0</ele><time>2026-03-24T15:16:22Z</time></trkpt><trkpt lat="43.261655902575065" lon="5.590446924054251"><ele>221.0</ele><time>2026-03-24T15:16:23Z</time></trkpt><trkpt lat="43.261767817683335" lon="5.5904109471894206"><ele>221.0</ele><time>2026-03-24T15:16:24Z</time></trkpt><trkpt lat="43.261884143263515" lon="5.590332329193389"><ele>221.0</ele><time>2026-03-24T15:16:25Z</time></trkpt><trkpt lat="43.262000686985225" lon="5.590246697172185"><ele>221.0</ele><time>2026-03-24T15:16:26Z</time></trkpt><trkpt lat="43.262106584158296" lon="5.5901354963212615"><ele>219.75</ele><time>2026-03-24T15:16:27Z</time></trkpt><trkpt lat="43.262207974061056" lon="5.590011551455837"><ele>218.5</ele><time>2026-03-24T15:16:28Z</time></trkpt><trkpt lat="43.26230769460176" lon="5.589875404902041"><ele>217.25</ele><time>2026-03-24T15:16:29Z</time></trkpt><trkpt lat="43.26240565605533" lon="5.589729697810469"><ele>216.0</ele><time>2026-03-24T15:16:30Z</time></trkpt><trkpt lat="43.26250195639178" lon="5.589581612159723"><ele>219.0</ele><time>2026-03-24T15:16:31Z</time></trkpt><trkpt lat="43.26258278958784" lon="5.589380367718849"><ele>222.0</ele><time>2026-03-24T15:16:32Z</time></trkpt><trkpt lat="43.262649414883164" lon="5.589057337709134"><ele>225.0</ele><time>2026-03-24T15:16:33Z</time></trkpt><trkpt lat="43.26268909216615" lon="5.5887459643807516"><ele>227.66666666666669</ele><time>2026-03-24T15:16:34Z</time></trkpt><trkpt lat="43.26272978546354" lon="5.588486073000804"><ele>230.33333333333334</ele><time>2026-03-24T15:16:35Z</time></trkpt><trkpt lat="43.26279503821243" lon="5.588247868973532"><ele>233.0</ele><time>2026-03-24T15:16:36Z</time></trkpt><trkpt lat="43.26289545666858" lon="5.588035477029429"><ele>227.0</ele><time>2026-03-24T15:16:37Z</time></trkpt><trkpt lat="43.26301832535471" lon="5.5878252236181325"><ele>221.0</ele><time>2026-03-24T15:16:38Z</time></trkpt><trkpt lat="43.26316275488812" lon="5.587664452555413"><ele>215.0</ele><time>2026-03-24T15:16:39Z</time></trkpt><trkpt lat="43.263306607908824" lon="5.587558788038481"><ele>215.0</ele><time>2026-03-24T15:16:40Z</time></trkpt><trkpt lat="43.26344064306983" lon="5.587489057224211"><ele>215.0</ele><time>2026-03-24T15:16:41Z</time></trkpt><trkpt lat="43.26355561987029" lon="5.587491384137567"><ele>215.0</ele><time>2026-03-24T15:16:42Z</time></trkpt><trkpt lat="43.26365328029639" lon="5.587520017575795"><ele>215.0</ele><time>2026-03-24T15:16:43Z</time></trkpt><trkpt lat="43.26374413733273" lon="5.587532243233725"><ele>215.0</ele><time>2026-03-24T15:16:44Z</time></trkpt><trkpt lat="43.26382228488627" lon="5.587549242045779"><ele>215.0</ele><time>2026-03-24T15:16:45Z</time></trkpt><trkpt lat="43.26389652384924" lon="5.587527016515428"><ele>215.0</ele><time>2026-03-24T15:16:46Z</time></trkpt><trkpt lat="43.26398206679415" lon="5.587507085127444"><ele>215.0</ele><time>2026-03-24T15:16:47Z</time></trkpt><trkpt lat="43.264055748748895" lon="5.587413374330348"><ele>215.0</ele><time>2026-03-24T15:16:48Z</time></trkpt><trkpt lat="43.26410055260891" lon="5.58730421160009"><ele>215.0</ele><time>2026-03-24T15:16:49Z</time></trkpt><trkpt lat="43.26411173041478" lon="5.587126206854075"><ele>210.33333333333334</ele><time>2026-03-24T15:16:50Z</time></trkpt><trkpt lat="43.26407274536291" lon="5.586879370372459"><ele>205.66666666666669</ele><time>2026-03-24T15:16:51Z</time></trkpt><trkpt lat="43.264105479209796" lon="5.586654036510873"><ele>201.0</ele><time>2026-03-24T15:16:52Z</time></trkpt><trkpt lat="43.2641790559492" lon="5.586455025358542"><ele>201.0</ele><time>2026-03-24T15:16:53Z</time></trkpt><trkpt lat="43.26425230229815" lon="5.58628510053618"><ele>201.0</ele><time>2026-03-24T15:16:54Z</time></trkpt><trkpt lat="43.264325665432104" lon="5.586173023497063"><ele>201.0</ele><time>2026-03-24T15:16:55Z</time></trkpt><trkpt lat="43.26442439438754" lon="5.586149215349192"><ele>201.0</ele><time>2026-03-24T15:16:56Z</time></trkpt><trkpt lat="43.26452875108311" lon="5.586102804866062"><ele>200.0</ele><time>2026-03-24T15:16:57Z</time></trkpt><trkpt lat="43.26462721728724" lon="5.586057913075784"><ele>199.0</ele><time>2026-03-24T15:16:58Z</time></trkpt><trkpt lat="43.26469838914667" lon="5.586003254453015"><ele>198.0</ele><time>2026-03-24T15:16:59Z</time></trkpt><trkpt lat="43.26480387029355" lon="5.585975455409536"><ele>197.0</ele><time>2026-03-24T15:17:01Z</time></trkpt><trkpt lat="43.264858848634695" lon="5.585924431953794"><ele>196.0</ele><time>2026-03-24T15:17:03Z</time></trkpt><trkpt lat="43.26493478036157" lon="5.58587306765924"><ele>195.0</ele><time>2026-03-24T15:17:08Z</time></trkpt><trkpt lat="43.26500685315556" lon="5.585875473306426"><ele>195.0</ele><time>2026-03-24T15:17:09Z</time></trkpt><trkpt lat="43.26512809010213" lon="5.585850449366443"><ele>195.0</ele><time>2026-03-24T15:17:10Z</time></trkpt><trkpt lat="43.26529878713886" lon="5.585845348716307"><ele>195.0</ele><time>2026-03-24T15:17:11Z</time></trkpt><trkpt lat="43.26545225052085" lon="5.585927038765187"><ele>195.0</ele><time>2026-03-24T15:17:12Z</time></trkpt><trkpt lat="43.265576741672824" lon="5.586009575690598"><ele>195.0</ele><time>2026-03-24T15:17:13Z</time></trkpt><trkpt lat="43.26569369943159" lon="5.586088593058944"><ele>195.0</ele><time>2026-03-24T15:17:14Z</time></trkpt><trkpt lat="43.26581734505556" lon="5.586172429607224"><ele>195.0</ele><time>2026-03-24T15:17:15Z</time></trkpt><trkpt lat="43.265948793855365" lon="5.586244901002921"><ele>195.0</ele><time>2026-03-24T15:17:16Z</time></trkpt><trkpt lat="43.266087764418614" lon="5.586311543002059"><ele>195.0</ele><time>2026-03-24T15:17:17Z</time></trkpt><trkpt lat="43.26622834513909" lon="5.5863790585620725"><ele>195.0</ele><time>2026-03-24T15:17:18Z</time></trkpt><trkpt lat="43.26637058102259" lon="5.58645253230626"><ele>195.0</ele><time>2026-03-24T15:17:19Z</time></trkpt><trkpt lat="43.26651253870831" lon="5.586527675587666"><ele>194.5</ele><time>2026-03-24T15:17:20Z</time></trkpt><trkpt lat="43.266646366807414" lon="5.586605429251548"><ele>194.0</ele><time>2026-03-24T15:17:21Z</time></trkpt><trkpt lat="43.266767415122395" lon="5.586693541879556"><ele>193.5</ele><time>2026-03-24T15:17:22Z</time></trkpt><trkpt lat="43.2668718776203" lon="5.586800945574826"><ele>193.0</ele><time>2026-03-24T15:17:23Z</time></trkpt><trkpt lat="43.2669529583965" lon="5.58693692023497"><ele>194.25</ele><time>2026-03-24T15:17:24Z</time></trkpt><trkpt lat="43.267020527855884" lon="5.587086886638599"><ele>195.5</ele><time>2026-03-24T15:17:25Z</time></trkpt><trkpt lat="43.26708136349471" lon="5.587255580783099"><ele>196.75</ele><time>2026-03-24T15:17:26Z</time></trkpt><trkpt lat="43.267121359636945" lon="5.587427561980521"><ele>198.0</ele><time>2026-03-24T15:17:27Z</time></trkpt><trkpt lat="43.267134414953674" lon="5.587599524791231"><ele>198.0</ele><time>2026-03-24T15:17:28Z</time></trkpt><trkpt lat="43.26711509788858" lon="5.5877534599786065"><ele>198.0</ele><time>2026-03-24T15:17:29Z</time></trkpt><trkpt lat="43.26707798819298" lon="5.587912784847006"><ele>198.0</ele><time>2026-03-24T15:17:30Z</time></trkpt><trkpt lat="43.2670382940392" lon="5.588084957001484"><ele>198.0</ele><time>2026-03-24T15:17:31Z</time></trkpt><trkpt lat="43.26699191123414" lon="5.588254382752932"><ele>200.25</ele><time>2026-03-24T15:17:32Z</time></trkpt><trkpt lat="43.26693003764535" lon="5.588423822067482"><ele>202.5</ele><time>2026-03-24T15:17:33Z</time></trkpt><trkpt lat="43.266899258068335" lon="5.58861706542376"><ele>204.75</ele><time>2026-03-24T15:17:34Z</time></trkpt><trkpt lat="43.26688333539291" lon="5.588801191400224"><ele>207.0</ele><time>2026-03-24T15:17:35Z</time></trkpt><trkpt lat="43.26693263666393" lon="5.589016928635409"><ele>211.0</ele><time>2026-03-24T15:17:36Z</time></trkpt><trkpt lat="43.26701408597926" lon="5.589216587899919"><ele>215.0</ele><time>2026-03-24T15:17:37Z</time></trkpt><trkpt lat="43.26713100916964" lon="5.589361881852657"><ele>219.0</ele><time>2026-03-24T15:17:38Z</time></trkpt><trkpt lat="43.267262236271" lon="5.589432813087416"><ele>206.0</ele><time>2026-03-24T15:17:39Z</time></trkpt><trkpt lat="43.26740318008711" lon="5.589435282092303"><ele>193.0</ele><time>2026-03-24T15:17:40Z</time></trkpt><trkpt lat="43.267588888432" lon="5.589426890111508"><ele>180.0</ele><time>2026-03-24T15:17:41Z</time></trkpt><trkpt lat="43.267790814997" lon="5.589456298853855"><ele>184.0</ele><time>2026-03-24T15:17:42Z</time></trkpt><trkpt lat="43.2679601867846" lon="5.589545045974171"><ele>188.0</ele><time>2026-03-24T15:17:43Z</time></trkpt><trkpt lat="43.26811462393984" lon="5.589638917651392"><ele>192.0</ele><time>2026-03-24T15:17:44Z</time></trkpt><trkpt lat="43.2682657752541" lon="5.5896769962741635"><ele>192.0</ele><time>2026-03-24T15:17:45Z</time></trkpt><trkpt lat="43.26841023180572" lon="5.589621396001819"><ele>192.0</ele><time>2026-03-24T15:17:46Z</time></trkpt><trkpt lat="43.26853032768858" lon="5.5895155184020195"><ele>192.0</ele><time>2026-03-24T15:17:47Z</time></trkpt><trkpt lat="43.26863871033993" lon="5.589386852177428"><ele>192.0</ele><time>2026-03-24T15:17:48Z</time></trkpt><trkpt lat="43.268760630333716" lon="5.589273515135409"><ele>188.66666666666666</ele><time>2026-03-24T15:17:49Z</time></trkpt><trkpt lat="43.268911895545216" lon="5.589178669178608"><ele>185.33333333333331</ele><time>2026-03-24T15:17:50Z</time></trkpt><trkpt lat="43.26910885509698" lon="5.589111770577286"><ele>182.0</ele><time>2026-03-24T15:17:51Z</time></trkpt><trkpt lat="43.26934465376989" lon="5.589058666445589"><ele>178.5</ele><time>2026-03-24T15:17:52Z</time></trkpt><trkpt lat="43.269577838085794" lon="5.589001543033061"><ele>175.0</ele><time>2026-03-24T15:17:53Z</time></trkpt><trkpt lat="43.26980801570069" lon="5.588978499911948"><ele>175.0</ele><time>2026-03-24T15:17:54Z</time></trkpt><trkpt lat="43.27004402924584" lon="5.588985971575373"><ele>175.0</ele><time>2026-03-24T15:17:55Z</time></trkpt><trkpt lat="43.27030175885699" lon="5.589013747297403"><ele>175.0</ele><time>2026-03-24T15:17:56Z</time></trkpt><trkpt lat="43.27055871367904" lon="5.589054809137736"><ele>175.0</ele><time>2026-03-24T15:17:57Z</time></trkpt><trkpt lat="43.270786808524754" lon="5.5890953208493315"><ele>175.0</ele><time>2026-03-24T15:17:58Z</time></trkpt><trkpt lat="43.27099596868261" lon="5.589144229324656"><ele>175.0</ele><time>2026-03-24T15:17:59Z</time></trkpt><trkpt lat="43.271190206331205" lon="5.5892210700778096"><ele>175.0</ele><time>2026-03-24T15:18:00Z</time></trkpt><trkpt lat="43.271371789162814" lon="5.589339562960226"><ele>173.33333333333334</ele><time>2026-03-24T15:18:01Z</time></trkpt><trkpt lat="43.27154641371809" lon="5.589498906538973"><ele>171.66666666666666</ele><time>2026-03-24T15:18:02Z</time></trkpt><trkpt lat="43.271722338075534" lon="5.589664995536168"><ele>170.0</ele><time>2026-03-24T15:18:03Z</time></trkpt><trkpt lat="43.27190913736519" lon="5.589824954277911"><ele>173.66666666666666</ele><time>2026-03-24T15:18:04Z</time></trkpt><trkpt lat="43.27209836897633" lon="5.589980637046631"><ele>177.33333333333334</ele><time>2026-03-24T15:18:05Z</time></trkpt><trkpt lat="43.27228781367544" lon="5.590107367330933"><ele>181.0</ele><time>2026-03-24T15:18:06Z</time></trkpt><trkpt lat="43.27248193301967" lon="5.590195372086277"><ele>174.33333333333334</ele><time>2026-03-24T15:18:07Z</time></trkpt><trkpt lat="43.27268692116085" lon="5.590210351364478"><ele>167.66666666666666</ele><time>2026-03-24T15:18:08Z</time></trkpt><trkpt lat="43.27291480198762" lon="5.590160474977096"><ele>161.0</ele><time>2026-03-24T15:18:09Z</time></trkpt><trkpt lat="43.27314434148513" lon="5.590082224208589"><ele>161.0</ele><time>2026-03-24T15:18:10Z</time></trkpt><trkpt lat="43.27335835509019" lon="5.590033677666879"><ele>161.0</ele><time>2026-03-24T15:18:11Z</time></trkpt><trkpt lat="43.27354776642293" lon="5.59009320169184"><ele>161.0</ele><time>2026-03-24T15:18:12Z</time></trkpt><trkpt lat="43.27372570164029" lon="5.590132294880677"><ele>161.0</ele><time>2026-03-24T15:18:13Z</time></trkpt><trkpt lat="43.273890456572865" lon="5.590167009966512"><ele>161.0</ele><time>2026-03-24T15:18:14Z</time></trkpt><trkpt lat="43.2740555516288" lon="5.590098492510865"><ele>161.0</ele><time>2026-03-24T15:18:15Z</time></trkpt><trkpt lat="43.27420095260525" lon="5.589922603573265"><ele>160.33333333333331</ele><time>2026-03-24T15:18:16Z</time></trkpt><trkpt lat="43.27429689359637" lon="5.589734470986267"><ele>159.66666666666666</ele><time>2026-03-24T15:18:17Z</time></trkpt><trkpt lat="43.27435967590601" lon="5.589546232748301"><ele>159.0</ele><time>2026-03-24T15:18:18Z</time></trkpt><trkpt lat="43.27442395878578" lon="5.589375981169347"><ele>158.0</ele><time>2026-03-24T15:18:19Z</time></trkpt><trkpt lat="43.27453660972553" lon="5.589211674587871"><ele>157.0</ele><time>2026-03-24T15:18:20Z</time></trkpt><trkpt lat="43.27472034476312" lon="5.589135597513982"><ele>156.0</ele><time>2026-03-24T15:18:21Z</time></trkpt><trkpt lat="43.274930862425244" lon="5.589108771636002"><ele>154.0</ele><time>2026-03-24T15:18:22Z</time></trkpt><trkpt lat="43.275159208701474" lon="5.589103376209837"><ele>152.0</ele><time>2026-03-24T15:18:23Z</time></trkpt><trkpt lat="43.275337075377976" lon="5.589139452999855"><ele>150.0</ele><time>2026-03-24T15:18:24Z</time></trkpt><trkpt lat="43.27546938323948" lon="5.589201811818905"><ele>150.0</ele><time>2026-03-24T15:18:25Z</time></trkpt><trkpt lat="43.275543815408746" lon="5.5893515590009875"><ele>150.0</ele><time>2026-03-24T15:18:26Z</time></trkpt><trkpt lat="43.275611574777166" lon="5.589527786070416"><ele>150.0</ele><time>2026-03-24T15:18:27Z</time></trkpt><trkpt lat="43.27557495379843" lon="5.589797069802959"><ele>149.66666666666666</ele><time>2026-03-24T15:18:28Z</time></trkpt><trkpt lat="43.27560107775326" lon="5.590052405356043"><ele>149.33333333333331</ele><time>2026-03-24T15:18:29Z</time></trkpt><trkpt lat="43.27564530368396" lon="5.590275563420789"><ele>149.0</ele><time>2026-03-24T15:18:30Z</time></trkpt><trkpt lat="43.27575794063954" lon="5.590467116421287"><ele>154.66666666666666</ele><time>2026-03-24T15:18:31Z</time></trkpt><trkpt lat="43.27589453121535" lon="5.590570471032663"><ele>160.33333333333334</ele><time>2026-03-24T15:18:32Z</time></trkpt><trkpt lat="43.276044940706385" lon="5.590578263869549"><ele>166.0</ele><time>2026-03-24T15:18:33Z</time></trkpt><trkpt lat="43.27619650289282" lon="5.590481713687243"><ele>160.33333333333334</ele><time>2026-03-24T15:18:34Z</time></trkpt><trkpt lat="43.2763508750094" lon="5.59028339957917"><ele>154.66666666666666</ele><time>2026-03-24T15:18:35Z</time></trkpt><trkpt lat="43.276517655980186" lon="5.590122966291537"><ele>149.0</ele><time>2026-03-24T15:18:36Z</time></trkpt><trkpt lat="43.276745291420816" lon="5.59006921605297"><ele>148.33333333333331</ele><time>2026-03-24T15:18:37Z</time></trkpt><trkpt lat="43.276968144380824" lon="5.590006208898268"><ele>147.66666666666666</ele><time>2026-03-24T15:18:38Z</time></trkpt><trkpt lat="43.27715516891886" lon="5.590020786009257"><ele>147.0</ele><time>2026-03-24T15:18:39Z</time></trkpt><trkpt lat="43.27736469640911" lon="5.59009222911709"><ele>145.0</ele><time>2026-03-24T15:18:40Z</time></trkpt><trkpt lat="43.27760055794227" lon="5.590149830114822"><ele>143.0</ele><time>2026-03-24T15:18:41Z</time></trkpt><trkpt lat="43.277869093088455" lon="5.590214430580185"><ele>143.0</ele><time>2026-03-24T15:18:42Z</time></trkpt><trkpt lat="43.278110856791855" lon="5.590177472926036"><ele>143.0</ele><time>2026-03-24T15:18:43Z</time></trkpt><trkpt lat="43.27835305526018" lon="5.590084306586215"><ele>143.0</ele><time>2026-03-24T15:18:44Z</time></trkpt><trkpt lat="43.278579166971724" lon="5.589944191221898"><ele>143.0</ele><time>2026-03-24T15:18:45Z</time></trkpt><trkpt lat="43.278770865264114" lon="5.5897631717450595"><ele>143.0</ele><time>2026-03-24T15:18:46Z</time></trkpt><trkpt lat="43.27890706605308" lon="5.589529887680863"><ele>143.0</ele><time>2026-03-24T15:18:47Z</time></trkpt><trkpt lat="43.278978737208696" lon="5.589211588556515"><ele>143.5</ele><time>2026-03-24T15:18:48Z</time></trkpt><trkpt lat="43.279009756211394" lon="5.58884536616488"><ele>144.0</ele><time>2026-03-24T15:18:49Z</time></trkpt><trkpt lat="43.27904836678558" lon="5.588464770328819"><ele>144.0</ele><time>2026-03-24T15:18:50Z</time></trkpt><trkpt lat="43.27910118180879" lon="5.588127726381563"><ele>144.0</ele><time>2026-03-24T15:18:51Z</time></trkpt><trkpt lat="43.27913394207428" lon="5.587836148538969"><ele>142.66666666666666</ele><time>2026-03-24T15:18:52Z</time></trkpt><trkpt lat="43.2791362543857" lon="5.587557985531659"><ele>141.33333333333331</ele><time>2026-03-24T15:18:53Z</time></trkpt><trkpt lat="43.279089748590074" lon="5.587280329610985"><ele>140.0</ele><time>2026-03-24T15:18:54Z</time></trkpt><trkpt lat="43.27900720970919" lon="5.587042999501142"><ele>139.0</ele><time>2026-03-24T15:18:55Z</time></trkpt><trkpt lat="43.27898028071759" lon="5.586838346402044"><ele>138.0</ele><time>2026-03-24T15:18:56Z</time></trkpt><trkpt lat="43.27908003981761" lon="5.586655196920677"><ele>137.0</ele><time>2026-03-24T15:18:57Z</time></trkpt><trkpt lat="43.27921251519066" lon="5.586431644166876"><ele>137.0</ele><time>2026-03-24T15:18:58Z</time></trkpt><trkpt lat="43.279388731409604" lon="5.586189760104718"><ele>137.0</ele><time>2026-03-24T15:18:59Z</time></trkpt><trkpt lat="43.27958467222551" lon="5.585954232040357"><ele>137.0</ele><time>2026-03-24T15:19:00Z</time></trkpt><trkpt lat="43.279733550385934" lon="5.585709825198352"><ele>137.0</ele><time>2026-03-24T15:19:01Z</time></trkpt><trkpt lat="43.279842484594454" lon="5.585461913263337"><ele>137.0</ele><time>2026-03-24T15:19:02Z</time></trkpt><trkpt lat="43.27993082399476" lon="5.585206288576542"><ele>135.0</ele><time>2026-03-24T15:19:03Z</time></trkpt><trkpt lat="43.27999207958107" lon="5.584940253970073"><ele>133.0</ele><time>2026-03-24T15:19:04Z</time></trkpt><trkpt lat="43.280070295767345" lon="5.584699763364466"><ele>131.0</ele><time>2026-03-24T15:19:05Z</time></trkpt><trkpt lat="43.28015608506117" lon="5.58446890975348"><ele>129.66666666666666</ele><time>2026-03-24T15:19:06Z</time></trkpt><trkpt lat="43.280261066057385" lon="5.584239322078343"><ele>128.33333333333334</ele><time>2026-03-24T15:19:07Z</time></trkpt><trkpt lat="43.28040360536838" lon="5.583991212902022"><ele>127.0</ele><time>2026-03-24T15:19:08Z</time></trkpt><trkpt lat="43.28056979496701" lon="5.583770901420339"><ele>126.5</ele><time>2026-03-24T15:19:09Z</time></trkpt><trkpt lat="43.28076293841424" lon="5.583583809766528"><ele>126.0</ele><time>2026-03-24T15:19:10Z</time></trkpt><trkpt lat="43.28096308975903" lon="5.5834602197692265"><ele>126.0</ele><time>2026-03-24T15:19:11Z</time></trkpt><trkpt lat="43.28115953689552" lon="5.5834313366063"><ele>126.0</ele><time>2026-03-24T15:19:12Z</time></trkpt><trkpt lat="43.281365564970876" lon="5.583463103584061"><ele>126.0</ele><time>2026-03-24T15:19:13Z</time></trkpt><trkpt lat="43.28159133255814" lon="5.583564885342902"><ele>127.5</ele><time>2026-03-24T15:19:14Z</time></trkpt><trkpt lat="43.28183785054006" lon="5.58369537156471"><ele>129.0</ele><time>2026-03-24T15:19:15Z</time></trkpt><trkpt lat="43.2820512259691" lon="5.5838456630100834"><ele>129.0</ele><time>2026-03-24T15:19:16Z</time></trkpt><trkpt lat="43.28223138318875" lon="5.58395240661586"><ele>129.0</ele><time>2026-03-24T15:19:17Z</time></trkpt><trkpt lat="43.28238380593449" lon="5.584004724467025"><ele>129.0</ele><time>2026-03-24T15:19:18Z</time></trkpt><trkpt lat="43.28253604340255" lon="5.584020646216651"><ele>128.66666666666666</ele><time>2026-03-24T15:19:19Z</time></trkpt><trkpt lat="43.28267864942057" lon="5.584010382267058"><ele>128.33333333333331</ele><time>2026-03-24T15:19:20Z</time></trkpt><trkpt lat="43.28283501094843" lon="5.5839787948525235"><ele>128.0</ele><time>2026-03-24T15:19:21Z</time></trkpt><trkpt lat="43.28301261144601" lon="5.583875542676167"><ele>128.0</ele><time>2026-03-24T15:19:22Z</time></trkpt><trkpt lat="43.28318645237115" lon="5.583721136542328"><ele>128.0</ele><time>2026-03-24T15:19:23Z</time></trkpt><trkpt lat="43.28335729714676" lon="5.58355605869749"><ele>128.0</ele><time>2026-03-24T15:19:24Z</time></trkpt><trkpt lat="43.28353115169906" lon="5.5834114454566945"><ele>127.0</ele><time>2026-03-24T15:19:25Z</time></trkpt><trkpt lat="43.283700051477744" lon="5.583267747230507"><ele>126.0</ele><time>2026-03-24T15:19:26Z</time></trkpt><trkpt lat="43.28387356542361" lon="5.583116938287444"><ele>125.0</ele><time>2026-03-24T15:19:27Z</time></trkpt><trkpt lat="43.28403802071131" lon="5.582982259230736"><ele>123.66666666666666</ele><time>2026-03-24T15:19:28Z</time></trkpt><trkpt lat="43.28419312866099" lon="5.582829137202829"><ele>122.33333333333334</ele><time>2026-03-24T15:19:29Z</time></trkpt><trkpt lat="43.28432854815727" lon="5.582693567677887"><ele>121.0</ele><time>2026-03-24T15:19:30Z</time></trkpt><trkpt lat="43.28444098540704" lon="5.5826001110181815"><ele>121.0</ele><time>2026-03-24T15:19:31Z</time></trkpt><trkpt lat="43.28456756545518" lon="5.582485000005747"><ele>121.0</ele><time>2026-03-24T15:19:32Z</time></trkpt><trkpt lat="43.28472185231191" lon="5.582363303639116"><ele>121.0</ele><time>2026-03-24T15:19:33Z</time></trkpt><trkpt lat="43.28485990907335" lon="5.582291059349328"><ele>120.83333333333334</ele><time>2026-03-24T15:19:34Z</time></trkpt><trkpt lat="43.28494875752717" lon="5.582263001613387"><ele>120.66666666666667</ele><time>2026-03-24T15:19:35Z</time></trkpt><trkpt lat="43.28501542280227" lon="5.582245390044995"><ele>120.5</ele><time>2026-03-24T15:19:36Z</time></trkpt><trkpt lat="43.285105219381364" lon="5.582282451031672"><ele>120.33333333333334</ele><time>2026-03-24T15:19:38Z</time></trkpt><trkpt lat="43.28516978838834" lon="5.582330648142246"><ele>120.16666666666667</ele><time>2026-03-24T15:19:39Z</time></trkpt><trkpt lat="43.285239298603074" lon="5.582345772959094"><ele>120.0</ele><time>2026-03-24T15:19:40Z</time></trkpt><trkpt lat="43.28530363492947" lon="5.58222074400142"><ele>120.0</ele><time>2026-03-24T15:19:42Z</time></trkpt><trkpt lat="43.2853083601892" lon="5.582132074775684"><ele>120.0</ele><time>2026-03-24T15:19:43Z</time></trkpt><trkpt lat="43.28528048437874" lon="5.582025659944835"><ele>120.0</ele><time>2026-03-24T15:19:44Z</time></trkpt><trkpt lat="43.285247246203234" lon="5.581912719392566"><ele>120.0</ele><time>2026-03-24T15:19:45Z</time></trkpt><trkpt lat="43.28525748531178" lon="5.581790278884066"><ele>120.0</ele><time>2026-03-24T15:19:46Z</time></trkpt><trkpt lat="43.285308696738355" lon="5.5817128726447445"><ele>120.0</ele><time>2026-03-24T15:19:47Z</time></trkpt><trkpt lat="43.28538124634725" lon="5.581645303429493"><ele>120.0</ele><time>2026-03-24T15:19:49Z</time></trkpt><trkpt lat="43.28546677720489" lon="5.581562916042187"><ele>120.0</ele><time>2026-03-24T15:19:51Z</time></trkpt><trkpt lat="43.285534146249255" lon="5.581495611700747"><ele>120.0</ele><time>2026-03-24T15:19:52Z</time></trkpt><trkpt lat="43.285614075569576" lon="5.581407395908528"><ele>120.0</ele><time>2026-03-24T15:19:53Z</time></trkpt><trkpt lat="43.28571086654739" lon="5.581286731238163"><ele>120.0</ele><time>2026-03-24T15:19:54Z</time></trkpt><trkpt lat="43.28580509079618" lon="5.581161698293646"><ele>119.5</ele><time>2026-03-24T15:19:55Z</time></trkpt><trkpt lat="43.28590530857605" lon="5.581031274040157"><ele>119.0</ele><time>2026-03-24T15:19:56Z</time></trkpt><trkpt lat="43.28600893749167" lon="5.580883142748314"><ele>118.5</ele><time>2026-03-24T15:19:57Z</time></trkpt><trkpt lat="43.286111027703534" lon="5.580729473497633"><ele>118.0</ele><time>2026-03-24T15:19:58Z</time></trkpt><trkpt lat="43.28621488461674" lon="5.580580825263217"><ele>118.0</ele><time>2026-03-24T15:19:59Z</time></trkpt><trkpt lat="43.286315927780315" lon="5.580443724543951"><ele>118.0</ele><time>2026-03-24T15:20:00Z</time></trkpt><trkpt lat="43.28642106646085" lon="5.580314609852623"><ele>118.0</ele><time>2026-03-24T15:20:01Z</time></trkpt><trkpt lat="43.286528152437626" lon="5.580194720814166"><ele>118.0</ele><time>2026-03-24T15:20:02Z</time></trkpt><trkpt lat="43.28663892177481" lon="5.580083022351241"><ele>117.5</ele><time>2026-03-24T15:20:03Z</time></trkpt><trkpt lat="43.28675848683021" lon="5.579990404211644"><ele>117.0</ele><time>2026-03-24T15:20:04Z</time></trkpt><trkpt lat="43.286866779807845" lon="5.579876749191877"><ele>116.5</ele><time>2026-03-24T15:20:05Z</time></trkpt><trkpt lat="43.28698826546873" lon="5.57974846770892"><ele>116.0</ele><time>2026-03-24T15:20:06Z</time></trkpt><trkpt lat="43.28710200371071" lon="5.579638956230553"><ele>116.0</ele><time>2026-03-24T15:20:07Z</time></trkpt><trkpt lat="43.287181579592264" lon="5.579558783405679"><ele>116.0</ele><time>2026-03-24T15:20:08Z</time></trkpt><trkpt lat="43.28723829547694" lon="5.579499423554439"><ele>116.0</ele><time>2026-03-24T15:20:09Z</time></trkpt><trkpt lat="43.28728459637734" lon="5.579432884249455"><ele>116.0</ele><time>2026-03-24T15:20:10Z</time></trkpt><trkpt lat="43.287354752468275" lon="5.579362576622689"><ele>116.0</ele><time>2026-03-24T15:20:12Z</time></trkpt><trkpt lat="43.28726642723096" lon="5.579194687677354"><ele>115.75</ele><time>2026-03-24T15:20:13Z</time></trkpt><trkpt lat="43.28717922584863" lon="5.579106511363137"><ele>115.5</ele><time>2026-03-24T15:20:14Z</time></trkpt><trkpt lat="43.28705480680175" lon="5.578989719432781"><ele>115.25</ele><time>2026-03-24T15:20:15Z</time></trkpt><trkpt lat="43.28693319333206" lon="5.578864439945995"><ele>115.0</ele><time>2026-03-24T15:20:16Z</time></trkpt><trkpt lat="43.286814692998355" lon="5.578738252349854"><ele>115.33333333333334</ele><time>2026-03-24T15:20:17Z</time></trkpt><trkpt lat="43.28669047775311" lon="5.578629353971915"><ele>115.66666666666666</ele><time>2026-03-24T15:20:18Z</time></trkpt><trkpt lat="43.28653294955534" lon="5.578495409441502"><ele>116.0</ele><time>2026-03-24T15:20:19Z</time></trkpt><trkpt lat="43.28637954519334" lon="5.578343912028806"><ele>116.25</ele><time>2026-03-24T15:20:20Z</time></trkpt><trkpt lat="43.2862590225121" lon="5.5781957829620925"><ele>116.5</ele><time>2026-03-24T15:20:21Z</time></trkpt><trkpt lat="43.28615903397934" lon="5.578091707983756"><ele>116.75</ele><time>2026-03-24T15:20:22Z</time></trkpt><trkpt lat="43.28610212069207" lon="5.578030793911562"><ele>117.0</ele><time>2026-03-24T15:20:23Z</time></trkpt><trkpt lat="43.28601882140341" lon="5.577939506193771"><ele>117.0</ele><time>2026-03-24T15:20:25Z</time></trkpt><trkpt lat="43.28595178552323" lon="5.577858271119234"><ele>116.99999999999999</ele><time>2026-03-24T15:20:26.999Z</time></trkpt><trkpt lat="43.285873814559466" lon="5.577779342161698"><ele>116.99999999999999</ele><time>2026-03-24T15:20:28.999Z</time></trkpt><trkpt lat="43.28582195853313" lon="5.57763695816436"><ele>117.0</ele><time>2026-03-24T15:20:30.999Z</time></trkpt><trkpt lat="43.28576719007104" lon="5.577489810896785"><ele>117.0</ele><time>2026-03-24T15:20:32.999Z</time></trkpt><trkpt lat="43.28573138071196" lon="5.577365574487265"><ele>117.0</ele><time>2026-03-24T15:20:34.999Z</time></trkpt><trkpt lat="43.285679925354934" lon="5.577219321828725"><ele>116.99999999999999</ele><time>2026-03-24T15:20:36.999Z</time></trkpt><trkpt lat="43.285663391103434" lon="5.577113057839514"><ele>116.99999999999999</ele><time>2026-03-24T15:20:37.999Z</time></trkpt><trkpt lat="43.285685193756926" lon="5.576970308037626"><ele>117.0</ele><time>2026-03-24T15:20:38.999Z</time></trkpt><trkpt lat="43.28568437971278" lon="5.576779271265787"><ele>117.0</ele><time>2026-03-24T15:20:39.999Z</time></trkpt><trkpt lat="43.285727193266524" lon="5.57658936573401"><ele>117.0</ele><time>2026-03-24T15:20:40.999Z</time></trkpt><trkpt lat="43.285785345649465" lon="5.576407959937223"><ele>117.0</ele><time>2026-03-24T15:20:41.999Z</time></trkpt><trkpt lat="43.285862628960004" lon="5.576238408197116"><ele>117.0</ele><time>2026-03-24T15:20:42.999Z</time></trkpt><trkpt lat="43.28595339695138" lon="5.576069542394289"><ele>117.0</ele><time>2026-03-24T15:20:43.999Z</time></trkpt><trkpt lat="43.28603306710805" lon="5.575908239939742"><ele>117.33333333333334</ele><time>2026-03-24T15:20:44.999Z</time></trkpt><trkpt lat="43.28611132920881" lon="5.575738243614361"><ele>117.66666666666667</ele><time>2026-03-24T15:20:45.999Z</time></trkpt><trkpt lat="43.286193930700676" lon="5.575547711469277"><ele>118.0</ele><time>2026-03-24T15:20:46.999Z</time></trkpt><trkpt lat="43.28628034932833" lon="5.575358036582466"><ele>118.75</ele><time>2026-03-24T15:20:47.999Z</time></trkpt><trkpt lat="43.28636650091824" lon="5.575167696729224"><ele>119.5</ele><time>2026-03-24T15:20:48.999Z</time></trkpt><trkpt lat="43.28644722822865" lon="5.574998291212885"><ele>120.25</ele><time>2026-03-24T15:20:49.999Z</time></trkpt><trkpt lat="43.28652031815061" lon="5.574842335886856"><ele>121.0</ele><time>2026-03-24T15:20:50.999Z</time></trkpt><trkpt lat="43.2865931552623" lon="5.574690546881352"><ele>119.5</ele><time>2026-03-24T15:20:51.999Z</time></trkpt><trkpt lat="43.28667108128748" lon="5.574528510540422"><ele>118.0</ele><time>2026-03-24T15:20:52.999Z</time></trkpt><trkpt lat="43.28675372351062" lon="5.574360947089982"><ele>116.5</ele><time>2026-03-24T15:20:53.999Z</time></trkpt><trkpt lat="43.28683051937612" lon="5.574182096649978"><ele>115.0</ele><time>2026-03-24T15:20:54.999Z</time></trkpt><trkpt lat="43.286913809130176" lon="5.574007908385505"><ele>115.0</ele><time>2026-03-24T15:20:55.999Z</time></trkpt><trkpt lat="43.286991797257556" lon="5.573844178024304"><ele>115.0</ele><time>2026-03-24T15:20:56.999Z</time></trkpt><trkpt lat="43.28707006714613" lon="5.573689095014647"><ele>115.0</ele><time>2026-03-24T15:20:57.999Z</time></trkpt><trkpt lat="43.28715118538781" lon="5.573542146823398"><ele>115.0</ele><time>2026-03-24T15:20:58.999Z</time></trkpt><trkpt lat="43.28723735670354" lon="5.573395784026349"><ele>115.0</ele><time>2026-03-24T15:20:59.999Z</time></trkpt><trkpt lat="43.28731869221498" lon="5.573217989494492"><ele>115.0</ele><time>2026-03-24T15:21:00.999Z</time></trkpt><trkpt lat="43.28741883242595" lon="5.573025357732866"><ele>115.0</ele><time>2026-03-24T15:21:01.999Z</time></trkpt><trkpt lat="43.28753624986696" lon="5.572855713090433"><ele>115.66666666666667</ele><time>2026-03-24T15:21:02.999Z</time></trkpt><trkpt lat="43.2876559481073" lon="5.572697615645588"><ele>116.33333333333334</ele><time>2026-03-24T15:21:03.999Z</time></trkpt><trkpt lat="43.28776514828476" lon="5.572534955623258"><ele>117.0</ele><time>2026-03-24T15:21:04.999Z</time></trkpt><trkpt lat="43.287851837017406" lon="5.572378551067252"><ele>117.0</ele><time>2026-03-24T15:21:05.999Z</time></trkpt><trkpt lat="43.28791796919306" lon="5.572231578405382"><ele>117.0</ele><time>2026-03-24T15:21:06.999Z</time></trkpt><trkpt lat="43.28797794951288" lon="5.572093670826072"><ele>117.0</ele><time>2026-03-24T15:21:07.999Z</time></trkpt><trkpt lat="43.28804431457066" lon="5.571940353945277"><ele>117.0</ele><time>2026-03-24T15:21:08.999Z</time></trkpt><trkpt lat="43.288102473862416" lon="5.571738524678808"><ele>117.0</ele><time>2026-03-24T15:21:09.999Z</time></trkpt><trkpt lat="43.28819025379877" lon="5.571527258452054"><ele>117.0</ele><time>2026-03-24T15:21:10.999Z</time></trkpt><trkpt lat="43.288295602803814" lon="5.57131515119007"><ele>117.0</ele><time>2026-03-24T15:21:11.999Z</time></trkpt><trkpt lat="43.28838876842948" lon="5.571084862915054"><ele>118.33333333333334</ele><time>2026-03-24T15:21:12.999Z</time></trkpt><trkpt lat="43.288485306886095" lon="5.570870007988661"><ele>119.66666666666667</ele><time>2026-03-24T15:21:13.999Z</time></trkpt><trkpt lat="43.288585197997634" lon="5.570651890767945"><ele>121.0</ele><time>2026-03-24T15:21:14.999Z</time></trkpt><trkpt lat="43.28867767388345" lon="5.570445910954865"><ele>121.0</ele><time>2026-03-24T15:21:15.999Z</time></trkpt><trkpt lat="43.28876521583139" lon="5.570217621871868"><ele>121.0</ele><time>2026-03-24T15:21:16.999Z</time></trkpt><trkpt lat="43.28885199618504" lon="5.570004519616296"><ele>121.0</ele><time>2026-03-24T15:21:17.999Z</time></trkpt><trkpt lat="43.28894137964912" lon="5.5697950062337345"><ele>120.5</ele><time>2026-03-24T15:21:18.999Z</time></trkpt><trkpt lat="43.289020277307664" lon="5.569607461939667"><ele>120.0</ele><time>2026-03-24T15:21:19.999Z</time></trkpt><trkpt lat="43.289088792666654" lon="5.569439471958337"><ele>119.5</ele><time>2026-03-24T15:21:20.999Z</time></trkpt><trkpt lat="43.289154158605776" lon="5.569285133048042"><ele>119.0</ele><time>2026-03-24T15:21:21.999Z</time></trkpt><trkpt lat="43.28920726168534" lon="5.569149039432498"><ele>119.0</ele><time>2026-03-24T15:21:22.999Z</time></trkpt><trkpt lat="43.28925594505357" lon="5.568981393596151"><ele>119.0</ele><time>2026-03-24T15:21:23.999Z</time></trkpt><trkpt lat="43.2892963216763" lon="5.568793489106621"><ele>119.0</ele><time>2026-03-24T15:21:24.999Z</time></trkpt><trkpt lat="43.28931228579055" lon="5.568613055669504"><ele>119.0</ele><time>2026-03-24T15:21:25.999Z</time></trkpt><trkpt lat="43.28931800003024" lon="5.568466940827199"><ele>119.66666666666666</ele><time>2026-03-24T15:21:26.999Z</time></trkpt><trkpt lat="43.289343368360235" lon="5.568269394579897"><ele>120.33333333333334</ele><time>2026-03-24T15:21:27.999Z</time></trkpt><trkpt lat="43.28938359038151" lon="5.568017653822743"><ele>121.0</ele><time>2026-03-24T15:21:28.999Z</time></trkpt><trkpt lat="43.28941656414801" lon="5.5677861138252736"><ele>123.0</ele><time>2026-03-24T15:21:29.999Z</time></trkpt><trkpt lat="43.28944710945472" lon="5.5675458378816245"><ele>125.0</ele><time>2026-03-24T15:21:31Z</time></trkpt><trkpt lat="43.28947083506617" lon="5.567344718408123"><ele>127.0</ele><time>2026-03-24T15:21:32Z</time></trkpt><trkpt lat="43.289477376304184" lon="5.567171590332569"><ele>128.0</ele><time>2026-03-24T15:21:33Z</time></trkpt><trkpt lat="43.289460377457885" lon="5.567018459807134"><ele>129.0</ele><time>2026-03-24T15:21:34Z</time></trkpt><trkpt lat="43.28943220182904" lon="5.566896854801712"><ele>130.0</ele><time>2026-03-24T15:21:35Z</time></trkpt><trkpt lat="43.28940835229843" lon="5.566766981281386"><ele>131.0</ele><time>2026-03-24T15:21:37Z</time></trkpt><trkpt lat="43.289369219323" lon="5.5665587393871725"><ele>131.0</ele><time>2026-03-24T15:21:59Z</time></trkpt><trkpt lat="43.289326713915315" lon="5.566419964814243"><ele>131.0</ele><time>2026-03-24T15:22:00Z</time></trkpt><trkpt lat="43.28922427599987" lon="5.5662647184169325"><ele>131.0</ele><time>2026-03-24T15:22:01Z</time></trkpt><trkpt lat="43.28912856210858" lon="5.5661208556230095"><ele>131.0</ele><time>2026-03-24T15:22:02Z</time></trkpt><trkpt lat="43.28904235772788" lon="5.56595857076176"><ele>130.5</ele><time>2026-03-24T15:22:03Z</time></trkpt><trkpt lat="43.28895326941735" lon="5.565818619778333"><ele>130.0</ele><time>2026-03-24T15:22:04Z</time></trkpt><trkpt lat="43.28887041758063" lon="5.565688466080478"><ele>129.5</ele><time>2026-03-24T15:22:05Z</time></trkpt><trkpt lat="43.28878007129435" lon="5.565559735170264"><ele>129.0</ele><time>2026-03-24T15:22:06Z</time></trkpt><trkpt lat="43.28871179541206" lon="5.56540108359741"><ele>128.75</ele><time>2026-03-24T15:22:07Z</time></trkpt><trkpt lat="43.288633574841164" lon="5.565238570991239"><ele>128.5</ele><time>2026-03-24T15:22:08Z</time></trkpt><trkpt lat="43.288541616251266" lon="5.565077091183748"><ele>128.25</ele><time>2026-03-24T15:22:09Z</time></trkpt><trkpt lat="43.288463408092746" lon="5.5648932624379865"><ele>128.0</ele><time>2026-03-24T15:22:10Z</time></trkpt><trkpt lat="43.28837158865594" lon="5.564715291077638"><ele>128.0</ele><time>2026-03-24T15:22:11Z</time></trkpt><trkpt lat="43.28826922143431" lon="5.564533634288854"><ele>128.0</ele><time>2026-03-24T15:22:12Z</time></trkpt><trkpt lat="43.28816258136783" lon="5.564354336264921"><ele>128.0</ele><time>2026-03-24T15:22:13Z</time></trkpt><trkpt lat="43.288055782632135" lon="5.564179863104201"><ele>128.66666666666666</ele><time>2026-03-24T15:22:14Z</time></trkpt><trkpt lat="43.287974255554815" lon="5.563977664029807"><ele>129.33333333333334</ele><time>2026-03-24T15:22:15Z</time></trkpt><trkpt lat="43.287896190193614" lon="5.563762462110088"><ele>130.0</ele><time>2026-03-24T15:22:16Z</time></trkpt><trkpt lat="43.287811895470085" lon="5.563538792242064"><ele>127.66666666666667</ele><time>2026-03-24T15:22:17Z</time></trkpt><trkpt lat="43.287745896423445" lon="5.563308347000948"><ele>125.33333333333334</ele><time>2026-03-24T15:22:18Z</time></trkpt><trkpt lat="43.2876727094652" lon="5.5630706325071815"><ele>123.0</ele><time>2026-03-24T15:22:19Z</time></trkpt><trkpt lat="43.287598352661924" lon="5.562821518969974"><ele>121.0</ele><time>2026-03-24T15:22:20Z</time></trkpt><trkpt lat="43.28752171853484" lon="5.562583025320844"><ele>119.0</ele><time>2026-03-24T15:22:21Z</time></trkpt><trkpt lat="43.28744162210906" lon="5.562343177013335"><ele>117.0</ele><time>2026-03-24T15:22:22Z</time></trkpt><trkpt lat="43.287361598637794" lon="5.562099292311602"><ele>115.66666666666666</ele><time>2026-03-24T15:22:23Z</time></trkpt><trkpt lat="43.287278504478415" lon="5.561840558599889"><ele>114.33333333333333</ele><time>2026-03-24T15:22:24Z</time></trkpt><trkpt lat="43.28719974327771" lon="5.561577264525561"><ele>113.0</ele><time>2026-03-24T15:22:25Z</time></trkpt><trkpt lat="43.28712788749396" lon="5.561332244233234"><ele>112.0</ele><time>2026-03-24T15:22:26Z</time></trkpt><trkpt lat="43.28705300649372" lon="5.561095317301544"><ele>111.0</ele><time>2026-03-24T15:22:27Z</time></trkpt><trkpt lat="43.286966578994964" lon="5.5608537464039385"><ele>110.0</ele><time>2026-03-24T15:22:28Z</time></trkpt><trkpt lat="43.28686001189576" lon="5.560627972529467"><ele>110.0</ele><time>2026-03-24T15:22:29Z</time></trkpt><trkpt lat="43.28674074878426" lon="5.560407018040283"><ele>110.0</ele><time>2026-03-24T15:22:30Z</time></trkpt><trkpt lat="43.286620973089285" lon="5.560187541308034"><ele>110.0</ele><time>2026-03-24T15:22:31Z</time></trkpt><trkpt lat="43.28651547731941" lon="5.5599785544417"><ele>110.33333333333333</ele><time>2026-03-24T15:22:32Z</time></trkpt><trkpt lat="43.28642920623154" lon="5.559768584599325"><ele>110.66666666666666</ele><time>2026-03-24T15:22:33Z</time></trkpt><trkpt lat="43.286353078002584" lon="5.559564837823533"><ele>111.0</ele><time>2026-03-24T15:22:34Z</time></trkpt><trkpt lat="43.28628300979652" lon="5.559359263585093"><ele>111.0</ele><time>2026-03-24T15:22:35Z</time></trkpt><trkpt lat="43.28620903701643" lon="5.5591048024365115"><ele>111.0</ele><time>2026-03-24T15:22:36Z</time></trkpt><trkpt lat="43.286138495115104" lon="5.55884757059846"><ele>111.0</ele><time>2026-03-24T15:22:37Z</time></trkpt><trkpt lat="43.28608017653925" lon="5.558601190551923"><ele>108.66666666666666</ele><time>2026-03-24T15:22:38Z</time></trkpt><trkpt lat="43.28601768348983" lon="5.558357969587756"><ele>106.33333333333333</ele><time>2026-03-24T15:22:39Z</time></trkpt><trkpt lat="43.28596017276044" lon="5.558119265280483"><ele>104.0</ele><time>2026-03-24T15:22:40Z</time></trkpt><trkpt lat="43.28590931961931" lon="5.557878445073239"><ele>102.33333333333333</ele><time>2026-03-24T15:22:41Z</time></trkpt><trkpt lat="43.28587139020222" lon="5.557639849595053"><ele>100.66666666666666</ele><time>2026-03-24T15:22:42Z</time></trkpt><trkpt lat="43.285846862666624" lon="5.557397404848666"><ele>99.0</ele><time>2026-03-24T15:22:43Z</time></trkpt><trkpt lat="43.285836005070955" lon="5.557157671269809"><ele>98.6</ele><time>2026-03-24T15:22:44Z</time></trkpt><trkpt lat="43.28583464934627" lon="5.556950486097589"><ele>98.2</ele><time>2026-03-24T15:22:45Z</time></trkpt><trkpt lat="43.28583484433445" lon="5.556790841563847"><ele>97.8</ele><time>2026-03-24T15:22:46Z</time></trkpt><trkpt lat="43.28583440357806" lon="5.556684287334437"><ele>97.39999999999999</ele><time>2026-03-24T15:22:47Z</time></trkpt><trkpt lat="43.285832595002816" lon="5.556595631179277"><ele>97.0</ele><time>2026-03-24T15:22:48Z</time></trkpt><trkpt lat="43.28583030108332" lon="5.556479311104668"><ele>97.0</ele><time>2026-03-24T15:22:50Z</time></trkpt><trkpt lat="43.28584783077319" lon="5.556385073160408"><ele>97.0</ele><time>2026-03-24T15:22:51Z</time></trkpt><trkpt lat="43.28583543553804" lon="5.556250648537524"><ele>97.0</ele><time>2026-03-24T15:22:52Z</time></trkpt><trkpt lat="43.28584254241968" lon="5.556151621688521"><ele>97.0</ele><time>2026-03-24T15:22:54Z</time></trkpt><trkpt lat="43.285842322159134" lon="5.5560481844048555"><ele>97.0</ele><time>2026-03-24T15:22:59Z</time></trkpt><trkpt lat="43.2858517635194" lon="5.555755355162539"><ele>97.19999999999999</ele><time>2026-03-24T15:23:02Z</time></trkpt><trkpt lat="43.285847967177794" lon="5.555631839280625"><ele>97.4</ele><time>2026-03-24T15:23:03Z</time></trkpt><trkpt lat="43.285849191224095" lon="5.555469668149382"><ele>97.6</ele><time>2026-03-24T15:23:04Z</time></trkpt><trkpt lat="43.2858545400272" lon="5.555343725666177"><ele>97.80000000000001</ele><time>2026-03-24T15:23:05Z</time></trkpt><trkpt lat="43.285876860894334" lon="5.555209244375362"><ele>98.0</ele><time>2026-03-24T15:23:06Z</time></trkpt><trkpt lat="43.28588615310552" lon="5.5550750236198345"><ele>97.99999999999999</ele><time>2026-03-24T15:23:07Z</time></trkpt><trkpt lat="43.285813274341194" lon="5.554930853287863"><ele>98.0</ele><time>2026-03-24T15:23:08Z</time></trkpt><trkpt lat="43.28575550775676" lon="5.554826691678339"><ele>98.0</ele><time>2026-03-24T15:23:09Z</time></trkpt><trkpt lat="43.28570395660173" lon="5.55475691060102"><ele>98.0</ele><time>2026-03-24T15:23:10Z</time></trkpt><trkpt lat="43.285667131391484" lon="5.554665187041102"><ele>97.99999999999999</ele><time>2026-03-24T15:23:11Z</time></trkpt><trkpt lat="43.28562897152571" lon="5.554589649289989"><ele>98.0</ele><time>2026-03-24T15:23:12Z</time></trkpt><trkpt lat="43.285587817804625" lon="5.554508185495663"><ele>98.2</ele><time>2026-03-24T15:23:13Z</time></trkpt><trkpt lat="43.28553325790023" lon="5.5544349669627"><ele>98.4</ele><time>2026-03-24T15:23:14Z</time></trkpt><trkpt lat="43.285506827502466" lon="5.554336091261981"><ele>98.60000000000001</ele><time>2026-03-24T15:23:15Z</time></trkpt><trkpt lat="43.285470231857275" lon="5.554254666064172"><ele>98.80000000000001</ele><time>2026-03-24T15:23:16Z</time></trkpt><trkpt lat="43.28542664113635" lon="5.554146072052786"><ele>99.0</ele><time>2026-03-24T15:23:18Z</time></trkpt><trkpt lat="43.28532502731751" lon="5.553876660598811"><ele>98.0</ele><time>2026-03-24T15:23:41Z</time></trkpt><trkpt lat="43.28526494120555" lon="5.553677298533109"><ele>97.0</ele><time>2026-03-24T15:23:42Z</time></trkpt><trkpt lat="43.285202477949426" lon="5.553470586098302"><ele>96.0</ele><time>2026-03-24T15:23:43Z</time></trkpt><trkpt lat="43.28516756519779" lon="5.553251930923157"><ele>96.0</ele><time>2026-03-24T15:23:44Z</time></trkpt><trkpt lat="43.285129097995366" lon="5.553032618545184"><ele>96.0</ele><time>2026-03-24T15:23:45Z</time></trkpt><trkpt lat="43.285112516713326" lon="5.552808666986532"><ele>96.0</ele><time>2026-03-24T15:23:46Z</time></trkpt><trkpt lat="43.285097489401984" lon="5.552581712804887"><ele>95.66666666666667</ele><time>2026-03-24T15:23:47Z</time></trkpt><trkpt lat="43.28507491741256" lon="5.552357925739942"><ele>95.33333333333334</ele><time>2026-03-24T15:23:48Z</time></trkpt><trkpt lat="43.28505313921301" lon="5.552152169273149"><ele>95.0</ele><time>2026-03-24T15:23:49Z</time></trkpt><trkpt lat="43.285034205844084" lon="5.551964271770678"><ele>95.0</ele><time>2026-03-24T15:23:50Z</time></trkpt><trkpt lat="43.2850184223812" lon="5.551794271866259"><ele>95.0</ele><time>2026-03-24T15:23:51Z</time></trkpt><trkpt lat="43.28500221050556" lon="5.551608821344714"><ele>95.0</ele><time>2026-03-24T15:23:52Z</time></trkpt><trkpt lat="43.284983680252815" lon="5.551413657561312"><ele>95.0</ele><time>2026-03-24T15:23:53Z</time></trkpt><trkpt lat="43.28496298659882" lon="5.551213841028252"><ele>95.0</ele><time>2026-03-24T15:23:54Z</time></trkpt><trkpt lat="43.284940479307444" lon="5.551008779336725"><ele>95.0</ele><time>2026-03-24T15:23:55Z</time></trkpt><trkpt lat="43.28491843657942" lon="5.550801940581615"><ele>95.0</ele><time>2026-03-24T15:23:56Z</time></trkpt><trkpt lat="43.28489861045009" lon="5.550590666260303"><ele>95.0</ele><time>2026-03-24T15:23:57Z</time></trkpt><trkpt lat="43.28487827278428" lon="5.550375898720716"><ele>95.0</ele><time>2026-03-24T15:23:58Z</time></trkpt><trkpt lat="43.28485882947997" lon="5.550180815957542"><ele>95.0</ele><time>2026-03-24T15:23:59Z</time></trkpt><trkpt lat="43.28484009230684" lon="5.55001195855327"><ele>95.0</ele><time>2026-03-24T15:24:00Z</time></trkpt><trkpt lat="43.28481971234641" lon="5.54988216118562"><ele>95.0</ele><time>2026-03-24T15:24:01Z</time></trkpt><trkpt lat="43.28479419906009" lon="5.549732521069355"><ele>95.0</ele><time>2026-03-24T15:24:02Z</time></trkpt><trkpt lat="43.28478804124054" lon="5.549530978381594"><ele>95.0</ele><time>2026-03-24T15:24:03Z</time></trkpt><trkpt lat="43.28476799707414" lon="5.549354552398433"><ele>95.0</ele><time>2026-03-24T15:24:04Z</time></trkpt><trkpt lat="43.2847499067693" lon="5.549213653962201"><ele>94.83333333333334</ele><time>2026-03-24T15:24:05Z</time></trkpt><trkpt lat="43.2847306944561" lon="5.549083684450596"><ele>94.66666666666667</ele><time>2026-03-24T15:24:06Z</time></trkpt><trkpt lat="43.284725409177184" lon="5.5489764740923215"><ele>94.5</ele><time>2026-03-24T15:24:07Z</time></trkpt><trkpt lat="43.28472632797658" lon="5.548875317969912"><ele>94.33333333333333</ele><time>2026-03-24T15:24:09Z</time></trkpt><trkpt lat="43.28472824295279" lon="5.54872628287306"><ele>94.16666666666666</ele><time>2026-03-24T15:25:06Z</time></trkpt><trkpt lat="43.284713255636724" lon="5.5486069091521495"><ele>94.0</ele><time>2026-03-24T15:25:07Z</time></trkpt><trkpt lat="43.284688163388815" lon="5.5484660721474865"><ele>94.0</ele><time>2026-03-24T15:25:08Z</time></trkpt><trkpt lat="43.28464678168062" lon="5.548278375375466"><ele>94.0</ele><time>2026-03-24T15:25:09Z</time></trkpt><trkpt lat="43.28460306857188" lon="5.5480837273420285"><ele>94.0</ele><time>2026-03-24T15:25:10Z</time></trkpt><trkpt lat="43.28456358095896" lon="5.547896635261715"><ele>94.0</ele><time>2026-03-24T15:25:11Z</time></trkpt><trkpt lat="43.28452974346131" lon="5.547731851592488"><ele>94.0</ele><time>2026-03-24T15:25:12Z</time></trkpt><trkpt lat="43.28450215315957" lon="5.547576145575074"><ele>94.0</ele><time>2026-03-24T15:25:13Z</time></trkpt><trkpt lat="43.284493438475735" lon="5.547422664064431"><ele>94.0</ele><time>2026-03-24T15:25:14Z</time></trkpt><trkpt lat="43.28448962912061" lon="5.547222601502346"><ele>94.0</ele><time>2026-03-24T15:25:15Z</time></trkpt><trkpt lat="43.284479501137106" lon="5.547019091071423"><ele>93.80000000000001</ele><time>2026-03-24T15:25:16Z</time></trkpt><trkpt lat="43.284457510535574" lon="5.546850198620199"><ele>93.60000000000001</ele><time>2026-03-24T15:25:17Z</time></trkpt><trkpt lat="43.28443278485631" lon="5.546707203640743"><ele>93.4</ele><time>2026-03-24T15:25:18Z</time></trkpt><trkpt lat="43.28443055935655" lon="5.546575839444175"><ele>93.2</ele><time>2026-03-24T15:25:19Z</time></trkpt><trkpt lat="43.28441540410502" lon="5.546434261627718"><ele>93.0</ele><time>2026-03-24T15:25:20Z</time></trkpt><trkpt lat="43.28439377868942" lon="5.5462736738661915"><ele>92.5</ele><time>2026-03-24T15:25:21Z</time></trkpt><trkpt lat="43.28439053417672" lon="5.546129405091706"><ele>92.0</ele><time>2026-03-24T15:25:22Z</time></trkpt><trkpt lat="43.28438354575202" lon="5.546004340598332"><ele>91.5</ele><time>2026-03-24T15:25:23Z</time></trkpt><trkpt lat="43.28436375400778" lon="5.545817162856407"><ele>91.0</ele><time>2026-03-24T15:25:24Z</time></trkpt><trkpt lat="43.28433062777494" lon="5.545587638154537"><ele>91.0</ele><time>2026-03-24T15:25:25Z</time></trkpt><trkpt lat="43.284303164676444" lon="5.5453590113008255"><ele>91.0</ele><time>2026-03-24T15:25:26Z</time></trkpt><trkpt lat="43.28427497508788" lon="5.545144914790375"><ele>91.0</ele><time>2026-03-24T15:25:27Z</time></trkpt><trkpt lat="43.28426127525476" lon="5.544975953987686"><ele>91.0</ele><time>2026-03-24T15:25:28Z</time></trkpt><trkpt lat="43.28424348753442" lon="5.5448305562167866"><ele>91.0</ele><time>2026-03-24T15:25:29Z</time></trkpt><trkpt lat="43.28422638486817" lon="5.544713344667273"><ele>91.0</ele><time>2026-03-24T15:25:30Z</time></trkpt><trkpt lat="43.28421191824715" lon="5.544628537560297"><ele>91.0</ele><time>2026-03-24T15:25:31Z</time></trkpt><trkpt lat="43.284205850642984" lon="5.544497182069129"><ele>91.0</ele><time>2026-03-24T15:25:33Z</time></trkpt><trkpt lat="43.284192507557414" lon="5.544373519318959"><ele>91.0</ele><time>2026-03-24T15:25:34Z</time></trkpt><trkpt lat="43.28416217100355" lon="5.544213101609265"><ele>91.0</ele><time>2026-03-24T15:25:35Z</time></trkpt><trkpt lat="43.28414662363204" lon="5.544027497241187"><ele>91.0</ele><time>2026-03-24T15:25:36Z</time></trkpt><trkpt lat="43.284125724773446" lon="5.5438033762520345"><ele>91.0</ele><time>2026-03-24T15:25:37Z</time></trkpt><trkpt lat="43.284103947618654" lon="5.543571606472876"><ele>91.0</ele><time>2026-03-24T15:25:38Z</time></trkpt><trkpt lat="43.28408260613321" lon="5.543343460534003"><ele>91.0</ele><time>2026-03-24T15:25:39Z</time></trkpt><trkpt lat="43.28405371993934" lon="5.543114794953045"><ele>91.0</ele><time>2026-03-24T15:25:40Z</time></trkpt><trkpt lat="43.284023565957824" lon="5.542875759565108"><ele>90.66666666666666</ele><time>2026-03-24T15:25:41Z</time></trkpt><trkpt lat="43.28399829784199" lon="5.542651532095862"><ele>90.33333333333333</ele><time>2026-03-24T15:25:42Z</time></trkpt><trkpt lat="43.283970095656045" lon="5.542410740735207"><ele>90.0</ele><time>2026-03-24T15:25:43Z</time></trkpt><trkpt lat="43.2839426964245" lon="5.542179960760188"><ele>92.33333333333334</ele><time>2026-03-24T15:25:44Z</time></trkpt><trkpt lat="43.28390785079405" lon="5.5419171887125485"><ele>94.66666666666667</ele><time>2026-03-24T15:25:45Z</time></trkpt><trkpt lat="43.28386650169113" lon="5.541663918901469"><ele>97.0</ele><time>2026-03-24T15:25:46Z</time></trkpt><trkpt lat="43.283817483581394" lon="5.541403778549295"><ele>96.0</ele><time>2026-03-24T15:25:47Z</time></trkpt><trkpt lat="43.28377232173976" lon="5.54114128290926"><ele>95.0</ele><time>2026-03-24T15:25:48Z</time></trkpt><trkpt lat="43.28373080245124" lon="5.54088629980816"><ele>94.0</ele><time>2026-03-24T15:25:49Z</time></trkpt><trkpt lat="43.28368425220129" lon="5.5406325566429455"><ele>94.0</ele><time>2026-03-24T15:25:50Z</time></trkpt><trkpt lat="43.283633353841985" lon="5.540361452491854"><ele>94.0</ele><time>2026-03-24T15:25:51Z</time></trkpt><trkpt lat="43.283587421494694" lon="5.540101676686545"><ele>94.0</ele><time>2026-03-24T15:25:52Z</time></trkpt><trkpt lat="43.283549755156486" lon="5.539842237851186"><ele>94.0</ele><time>2026-03-24T15:25:53Z</time></trkpt><trkpt lat="43.28353079415884" lon="5.539573412448529"><ele>94.0</ele><time>2026-03-24T15:25:54Z</time></trkpt><trkpt lat="43.28352204326645" lon="5.539307396155821"><ele>94.0</ele><time>2026-03-24T15:25:55Z</time></trkpt><trkpt lat="43.28351041394575" lon="5.539038801293419"><ele>93.66666666666666</ele><time>2026-03-24T15:25:56Z</time></trkpt><trkpt lat="43.28349420841586" lon="5.538770345320066"><ele>93.33333333333333</ele><time>2026-03-24T15:25:57Z</time></trkpt><trkpt lat="43.283474854901314" lon="5.538504699137467"><ele>93.0</ele><time>2026-03-24T15:25:58Z</time></trkpt><trkpt lat="43.28345682707429" lon="5.538249439097156"><ele>92.66666666666667</ele><time>2026-03-24T15:25:59Z</time></trkpt><trkpt lat="43.283440356547274" lon="5.537999109603322"><ele>92.33333333333334</ele><time>2026-03-24T15:26:00Z</time></trkpt><trkpt lat="43.28342573015321" lon="5.5377357101680476"><ele>92.0</ele><time>2026-03-24T15:26:01Z</time></trkpt><trkpt lat="43.28341368520634" lon="5.537478159535496"><ele>91.33333333333334</ele><time>2026-03-24T15:26:02Z</time></trkpt><trkpt lat="43.28340298982653" lon="5.537221712801538"><ele>90.66666666666667</ele><time>2026-03-24T15:26:03Z</time></trkpt><trkpt lat="43.28339271389783" lon="5.536977356476881"><ele>90.0</ele><time>2026-03-24T15:26:04Z</time></trkpt><trkpt lat="43.28338880314945" lon="5.536740195941997"><ele>89.66666666666667</ele><time>2026-03-24T15:26:05Z</time></trkpt><trkpt lat="43.28339083880616" lon="5.536503887528775"><ele>89.33333333333334</ele><time>2026-03-24T15:26:06Z</time></trkpt><trkpt lat="43.28339501109177" lon="5.53628498761882"><ele>89.0</ele><time>2026-03-24T15:26:07Z</time></trkpt><trkpt lat="43.28339413918396" lon="5.53608774159792"><ele>88.75</ele><time>2026-03-24T15:26:08Z</time></trkpt><trkpt lat="43.28338523636385" lon="5.535903437370853"><ele>88.5</ele><time>2026-03-24T15:26:09Z</time></trkpt><trkpt lat="43.28337291193394" lon="5.53573677851692"><ele>88.25</ele><time>2026-03-24T15:26:10Z</time></trkpt><trkpt lat="43.28336371104012" lon="5.535578737304625"><ele>88.0</ele><time>2026-03-24T15:26:11Z</time></trkpt><trkpt lat="43.28335837435834" lon="5.5354362315023184"><ele>87.75</ele><time>2026-03-24T15:26:12Z</time></trkpt><trkpt lat="43.28334730931181" lon="5.535274617872247"><ele>87.5</ele><time>2026-03-24T15:26:13Z</time></trkpt><trkpt lat="43.283330573591364" lon="5.535083878099196"><ele>87.25</ele><time>2026-03-24T15:26:14Z</time></trkpt><trkpt lat="43.28331408684681" lon="5.534878912202732"><ele>87.0</ele><time>2026-03-24T15:26:15Z</time></trkpt><trkpt lat="43.28330373163751" lon="5.534692420086903"><ele>87.25</ele><time>2026-03-24T15:26:16Z</time></trkpt><trkpt lat="43.283291514084866" lon="5.5345254636414145"><ele>87.5</ele><time>2026-03-24T15:26:17Z</time></trkpt><trkpt lat="43.28328818918488" lon="5.534336750273651"><ele>87.75</ele><time>2026-03-24T15:26:18Z</time></trkpt><trkpt lat="43.28328395017631" lon="5.534111249683659"><ele>88.0</ele><time>2026-03-24T15:26:19Z</time></trkpt><trkpt lat="43.28326756072775" lon="5.533884551256585"><ele>87.75</ele><time>2026-03-24T15:26:20Z</time></trkpt><trkpt lat="43.28325241977115" lon="5.533662413810339"><ele>87.5</ele><time>2026-03-24T15:26:21Z</time></trkpt><trkpt lat="43.28325031900012" lon="5.533467586492602"><ele>87.25</ele><time>2026-03-24T15:26:22Z</time></trkpt><trkpt lat="43.28325455065309" lon="5.533294196544531"><ele>87.0</ele><time>2026-03-24T15:26:23Z</time></trkpt><trkpt lat="43.283255884990005" lon="5.533073284055552"><ele>86.66666666666667</ele><time>2026-03-24T15:26:24Z</time></trkpt><trkpt lat="43.28323267894302" lon="5.5328366672236005"><ele>86.33333333333334</ele><time>2026-03-24T15:26:25Z</time></trkpt><trkpt lat="43.28319848125895" lon="5.532592791082005"><ele>86.0</ele><time>2026-03-24T15:26:26Z</time></trkpt><trkpt lat="43.283169438978504" lon="5.532351818162027"><ele>86.0</ele><time>2026-03-24T15:26:27Z</time></trkpt><trkpt lat="43.28312701250393" lon="5.532119596327371"><ele>86.0</ele><time>2026-03-24T15:26:28Z</time></trkpt><trkpt lat="43.283066054209534" lon="5.531904975806342"><ele>86.0</ele><time>2026-03-24T15:26:29Z</time></trkpt><trkpt lat="43.28299930535762" lon="5.531684778397349"><ele>86.33333333333334</ele><time>2026-03-24T15:26:30Z</time></trkpt><trkpt lat="43.28293851485574" lon="5.531465101376671"><ele>86.66666666666667</ele><time>2026-03-24T15:26:31Z</time></trkpt><trkpt lat="43.28291158571117" lon="5.531238122362372"><ele>87.0</ele><time>2026-03-24T15:26:32Z</time></trkpt><trkpt lat="43.282855432632516" lon="5.531029334974504"><ele>87.0</ele><time>2026-03-24T15:26:33Z</time></trkpt><trkpt lat="43.28282366182343" lon="5.530822385245033"><ele>87.0</ele><time>2026-03-24T15:26:34Z</time></trkpt><trkpt lat="43.2827996070057" lon="5.53063005122748"><ele>87.0</ele><time>2026-03-24T15:26:35Z</time></trkpt><trkpt lat="43.28277262573751" lon="5.530426538837072"><ele>87.0</ele><time>2026-03-24T15:26:36Z</time></trkpt><trkpt lat="43.282737457878824" lon="5.5302181843614875"><ele>86.33333333333333</ele><time>2026-03-24T15:26:37Z</time></trkpt><trkpt lat="43.28269485562954" lon="5.530014395867832"><ele>85.66666666666666</ele><time>2026-03-24T15:26:38Z</time></trkpt><trkpt lat="43.282651174470615" lon="5.529811274362663"><ele>85.0</ele><time>2026-03-24T15:26:39Z</time></trkpt><trkpt lat="43.28260546664941" lon="5.529597851024147"><ele>85.33333333333333</ele><time>2026-03-24T15:26:40Z</time></trkpt><trkpt lat="43.2825613272979" lon="5.529386520700185"><ele>85.66666666666667</ele><time>2026-03-24T15:26:41Z</time></trkpt><trkpt lat="43.28251645498541" lon="5.5291873767803805"><ele>86.0</ele><time>2026-03-24T15:26:42Z</time></trkpt><trkpt lat="43.282469679479455" lon="5.5289841495052325"><ele>86.0</ele><time>2026-03-24T15:26:43Z</time></trkpt><trkpt lat="43.282431307419365" lon="5.528799764430678"><ele>86.0</ele><time>2026-03-24T15:26:44Z</time></trkpt><trkpt lat="43.28238429625467" lon="5.528621770256767"><ele>86.0</ele><time>2026-03-24T15:26:45Z</time></trkpt><trkpt lat="43.28234607088583" lon="5.528440551393789"><ele>86.0</ele><time>2026-03-24T15:26:46Z</time></trkpt><trkpt lat="43.28231660062551" lon="5.528258011881282"><ele>86.0</ele><time>2026-03-24T15:26:47Z</time></trkpt><trkpt lat="43.282297821478295" lon="5.528075306802152"><ele>86.0</ele><time>2026-03-24T15:26:48Z</time></trkpt><trkpt lat="43.282285259281764" lon="5.5278939774509075"><ele>86.0</ele><time>2026-03-24T15:26:49Z</time></trkpt><trkpt lat="43.28227141526636" lon="5.52771822494231"><ele>86.0</ele><time>2026-03-24T15:26:50Z</time></trkpt><trkpt lat="43.282253009589475" lon="5.527542234593167"><ele>87.0</ele><time>2026-03-24T15:26:51Z</time></trkpt><trkpt lat="43.28223038486868" lon="5.527360679281508"><ele>88.0</ele><time>2026-03-24T15:26:52Z</time></trkpt><trkpt lat="43.28220753388132" lon="5.527165460323008"><ele>89.0</ele><time>2026-03-24T15:26:53Z</time></trkpt><trkpt lat="43.28218940746376" lon="5.526961882746951"><ele>90.0</ele><time>2026-03-24T15:26:54Z</time></trkpt><trkpt lat="43.28217167901508" lon="5.526772110142996"><ele>90.0</ele><time>2026-03-24T15:26:55Z</time></trkpt><trkpt lat="43.28216995979787" lon="5.526587470959524"><ele>90.0</ele><time>2026-03-24T15:26:56Z</time></trkpt><trkpt lat="43.28215102644591" lon="5.526426137005966"><ele>90.0</ele><time>2026-03-24T15:26:57Z</time></trkpt><trkpt lat="43.28210886591098" lon="5.526278326244745"><ele>90.0</ele><time>2026-03-24T15:26:58Z</time></trkpt><trkpt lat="43.282085813713394" lon="5.526168220816925"><ele>90.0</ele><time>2026-03-24T15:26:59Z</time></trkpt><trkpt lat="43.28206199255" lon="5.526012445008486"><ele>90.0</ele><time>2026-03-24T15:27:01Z</time></trkpt><trkpt lat="43.28204767521327" lon="5.525926791706161"><ele>90.0</ele><time>2026-03-24T15:27:03Z</time></trkpt><trkpt lat="43.28201176241909" lon="5.525756804997586"><ele>90.0</ele><time>2026-03-24T15:27:05Z</time></trkpt><trkpt lat="43.281987660390875" lon="5.525638904016509"><ele>90.0</ele><time>2026-03-24T15:27:06Z</time></trkpt><trkpt lat="43.28196159434727" lon="5.525456593940405"><ele>89.5</ele><time>2026-03-24T15:27:07Z</time></trkpt><trkpt lat="43.281935410401374" lon="5.525267070393616"><ele>89.0</ele><time>2026-03-24T15:27:08Z</time></trkpt><trkpt lat="43.2819123186547" lon="5.525100866148784"><ele>88.5</ele><time>2026-03-24T15:27:09Z</time></trkpt><trkpt lat="43.28188182276007" lon="5.524893832821424"><ele>88.0</ele><time>2026-03-24T15:27:10Z</time></trkpt><trkpt lat="43.28183401620642" lon="5.5246695273275"><ele>87.5</ele><time>2026-03-24T15:27:11Z</time></trkpt><trkpt lat="43.28181829505657" lon="5.524471283040607"><ele>87.0</ele><time>2026-03-24T15:27:12Z</time></trkpt><trkpt lat="43.281787711973635" lon="5.524297940420399"><ele>86.5</ele><time>2026-03-24T15:27:13Z</time></trkpt><trkpt lat="43.281758458098416" lon="5.52411930993849"><ele>86.0</ele><time>2026-03-24T15:27:14Z</time></trkpt><trkpt lat="43.28173998696207" lon="5.523929494335624"><ele>85.0</ele><time>2026-03-24T15:27:15Z</time></trkpt><trkpt lat="43.28172050303045" lon="5.523723833356842"><ele>84.0</ele><time>2026-03-24T15:27:16Z</time></trkpt><trkpt lat="43.28169333734185" lon="5.52351046639251"><ele>83.0</ele><time>2026-03-24T15:27:17Z</time></trkpt><trkpt lat="43.28166466703677" lon="5.523306128013066"><ele>83.0</ele><time>2026-03-24T15:27:18Z</time></trkpt><trkpt lat="43.28163848105525" lon="5.523116417927292"><ele>83.0</ele><time>2026-03-24T15:27:19Z</time></trkpt><trkpt lat="43.28161325985857" lon="5.522959768052615"><ele>83.0</ele><time>2026-03-24T15:27:20Z</time></trkpt><trkpt lat="43.281603087839656" lon="5.5228455807136925"><ele>83.0</ele><time>2026-03-24T15:27:21Z</time></trkpt><trkpt lat="43.281703096284005" lon="5.522736154400962"><ele>83.0</ele><time>2026-03-24T15:27:23Z</time></trkpt><trkpt lat="43.281798630698816" lon="5.522751719895172"><ele>83.0</ele><time>2026-03-24T15:27:24Z</time></trkpt><trkpt lat="43.28191905300778" lon="5.522803262102903"><ele>83.0</ele><time>2026-03-24T15:27:25Z</time></trkpt><trkpt lat="43.282082334828914" lon="5.522879116735928"><ele>83.0</ele><time>2026-03-24T15:27:26Z</time></trkpt><trkpt lat="43.282248580196146" lon="5.522956295464348"><ele>82.5</ele><time>2026-03-24T15:27:27Z</time></trkpt><trkpt lat="43.282387895642785" lon="5.523016766752508"><ele>82.0</ele><time>2026-03-24T15:27:28Z</time></trkpt><trkpt lat="43.2824972705784" lon="5.523069959195446"><ele>81.5</ele><time>2026-03-24T15:27:29Z</time></trkpt><trkpt lat="43.282581604761944" lon="5.5231385007857785"><ele>81.0</ele><time>2026-03-24T15:27:30Z</time></trkpt><trkpt lat="43.28265701589863" lon="5.523253647690305"><ele>81.0</ele><time>2026-03-24T15:27:31Z</time></trkpt><trkpt lat="43.282715399174776" lon="5.523409576048644"><ele>81.0</ele><time>2026-03-24T15:27:32Z</time></trkpt><trkpt lat="43.282786912280244" lon="5.5236106102638045"><ele>81.0</ele><time>2026-03-24T15:27:33Z</time></trkpt><trkpt lat="43.282915444432945" lon="5.523772141188577"><ele>80.75</ele><time>2026-03-24T15:27:34Z</time></trkpt><trkpt lat="43.28303675622931" lon="5.523899710013855"><ele>80.5</ele><time>2026-03-24T15:27:35Z</time></trkpt><trkpt lat="43.28315993575067" lon="5.5239733653702805"><ele>80.25</ele><time>2026-03-24T15:27:36Z</time></trkpt><trkpt lat="43.28329270286909" lon="5.5239919228551075"><ele>80.0</ele><time>2026-03-24T15:27:36.999Z</time></trkpt><trkpt lat="43.283432770745705" lon="5.523932256576953"><ele>80.0</ele><time>2026-03-24T15:27:37.999Z</time></trkpt><trkpt lat="43.28359255758672" lon="5.523891180169335"><ele>80.0</ele><time>2026-03-24T15:27:38.999Z</time></trkpt><trkpt lat="43.28377370066401" lon="5.523810878734978"><ele>80.0</ele><time>2026-03-24T15:27:39.999Z</time></trkpt><trkpt lat="43.28396430330668" lon="5.523747811241655"><ele>79.75</ele><time>2026-03-24T15:27:40.999Z</time></trkpt><trkpt lat="43.284130545149964" lon="5.523716335561989"><ele>79.5</ele><time>2026-03-24T15:27:41.999Z</time></trkpt><trkpt lat="43.28427288747633" lon="5.523690405113758"><ele>79.25</ele><time>2026-03-24T15:27:42.999Z</time></trkpt><trkpt lat="43.28437513252866" lon="5.523660148952509"><ele>79.0</ele><time>2026-03-24T15:27:43.999Z</time></trkpt><trkpt lat="43.28445631741684" lon="5.523630787833136"><ele>79.0</ele><time>2026-03-24T15:27:44.999Z</time></trkpt><trkpt lat="43.28452538950832" lon="5.523575571670099"><ele>79.0</ele><time>2026-03-24T15:27:59Z</time></trkpt><trkpt lat="43.28450303952188" lon="5.523292745080645"><ele>79.0</ele><time>2026-03-24T15:28:01Z</time></trkpt><trkpt lat="43.284476117899736" lon="5.52307624487539"><ele>79.0</ele><time>2026-03-24T15:28:02Z</time></trkpt><trkpt lat="43.284438288214425" lon="5.522807154551898"><ele>79.0</ele><time>2026-03-24T15:28:03Z</time></trkpt><trkpt lat="43.2844046870392" lon="5.522485432505728"><ele>79.0</ele><time>2026-03-24T15:28:04Z</time></trkpt><trkpt lat="43.28438068098185" lon="5.522227343125614"><ele>79.0</ele><time>2026-03-24T15:28:05Z</time></trkpt><trkpt lat="43.284337800937074" lon="5.521861826808871"><ele>78.5</ele><time>2026-03-24T15:28:06Z</time></trkpt><trkpt lat="43.28429589712028" lon="5.521500930091529"><ele>78.0</ele><time>2026-03-24T15:28:07Z</time></trkpt><trkpt lat="43.28426458521159" lon="5.521134721484817"><ele>77.5</ele><time>2026-03-24T15:28:08Z</time></trkpt><trkpt lat="43.28424632422463" lon="5.520780559003"><ele>77.0</ele><time>2026-03-24T15:28:09Z</time></trkpt><trkpt lat="43.284236504151124" lon="5.520442622152308"><ele>78.0</ele><time>2026-03-24T15:28:10Z</time></trkpt><trkpt lat="43.28423312299111" lon="5.520109889711171"><ele>79.0</ele><time>2026-03-24T15:28:11Z</time></trkpt><trkpt lat="43.28423940922124" lon="5.519791817323253"><ele>79.0</ele><time>2026-03-24T15:28:12Z</time></trkpt><trkpt lat="43.28424888632897" lon="5.519512807106271"><ele>79.0</ele><time>2026-03-24T15:28:13Z</time></trkpt><trkpt lat="43.28426124480553" lon="5.519270009874005"><ele>79.0</ele><time>2026-03-24T15:28:14Z</time></trkpt><trkpt lat="43.284280252161274" lon="5.519043928341059"><ele>79.0</ele><time>2026-03-24T15:28:15Z</time></trkpt><trkpt lat="43.28430328283325" lon="5.5187774113766075"><ele>79.0</ele><time>2026-03-24T15:28:16Z</time></trkpt><trkpt lat="43.28433005974691" lon="5.518456007654384"><ele>79.0</ele><time>2026-03-24T15:28:17Z</time></trkpt><trkpt lat="43.2843712852537" lon="5.518117016234261"><ele>78.0</ele><time>2026-03-24T15:28:18Z</time></trkpt><trkpt lat="43.28440675208924" lon="5.517805367284927"><ele>77.0</ele><time>2026-03-24T15:28:19Z</time></trkpt><trkpt lat="43.284436588596385" lon="5.517525111688022"><ele>76.0</ele><time>2026-03-24T15:28:20Z</time></trkpt><trkpt lat="43.284462811927696" lon="5.51727394247006"><ele>76.0</ele><time>2026-03-24T15:28:21Z</time></trkpt><trkpt lat="43.28449302475695" lon="5.517044342350334"><ele>76.0</ele><time>2026-03-24T15:28:22Z</time></trkpt><trkpt lat="43.28452072145459" lon="5.51682918348688"><ele>76.0</ele><time>2026-03-24T15:28:23Z</time></trkpt><trkpt lat="43.28453241018256" lon="5.516606476187445"><ele>76.0</ele><time>2026-03-24T15:28:24Z</time></trkpt><trkpt lat="43.28449072553577" lon="5.516385345631644"><ele>76.0</ele><time>2026-03-24T15:28:25Z</time></trkpt><trkpt lat="43.28446508384361" lon="5.516160485348771"><ele>76.0</ele><time>2026-03-24T15:28:26Z</time></trkpt><trkpt lat="43.284428475353295" lon="5.51597731146717"><ele>76.0</ele><time>2026-03-24T15:28:27Z</time></trkpt><trkpt lat="43.28441520805083" lon="5.515811140233403"><ele>76.0</ele><time>2026-03-24T15:28:28Z</time></trkpt><trkpt lat="43.28441196473597" lon="5.515687330360174"><ele>76.0</ele><time>2026-03-24T15:28:29Z</time></trkpt><trkpt lat="43.28441137322366" lon="5.515596612034541"><ele>76.0</ele><time>2026-03-24T15:28:30Z</time></trkpt><trkpt lat="43.28441907582988" lon="5.515477792686119"><ele>76.0</ele><time>2026-03-24T15:28:32Z</time></trkpt><trkpt lat="43.28443539498292" lon="5.515343165520086"><ele>76.16666666666666</ele><time>2026-03-24T15:28:34Z</time></trkpt><trkpt lat="43.284441844594596" lon="5.515232503107147"><ele>76.33333333333333</ele><time>2026-03-24T15:28:36Z</time></trkpt><trkpt lat="43.2844078522681" lon="5.515117606312393"><ele>76.5</ele><time>2026-03-24T15:28:38Z</time></trkpt><trkpt lat="43.28436328580417" lon="5.515034922122528"><ele>76.66666666666667</ele><time>2026-03-24T15:28:39Z</time></trkpt><trkpt lat="43.28430837877637" lon="5.514988283563177"><ele>76.83333333333334</ele><time>2026-03-24T15:28:40Z</time></trkpt><trkpt lat="43.2841862514572" lon="5.51500803268527"><ele>77.0</ele><time>2026-03-24T15:28:42Z</time></trkpt><trkpt lat="43.28411148975451" lon="5.51500895197275"><ele>77.0</ele><time>2026-03-24T15:28:43Z</time></trkpt><trkpt lat="43.28403135485598" lon="5.5150066725033"><ele>77.0</ele><time>2026-03-24T15:28:44Z</time></trkpt><trkpt lat="43.28396613206767" lon="5.514999715043313"><ele>77.0</ele><time>2026-03-24T15:28:45Z</time></trkpt><trkpt lat="43.28388784643546" lon="5.514988791180458"><ele>77.0</ele><time>2026-03-24T15:28:47Z</time></trkpt><trkpt lat="43.28381796558296" lon="5.514845696781073"><ele>77.0</ele><time>2026-03-24T15:28:51Z</time></trkpt><trkpt lat="43.28379153071631" lon="5.514741874346936"><ele>77.0</ele><time>2026-03-24T15:28:52Z</time></trkpt><trkpt lat="43.28378057863421" lon="5.514625405957892"><ele>76.83333333333334</ele><time>2026-03-24T15:28:53Z</time></trkpt><trkpt lat="43.2837764218733" lon="5.5145000970664775"><ele>76.66666666666667</ele><time>2026-03-24T15:28:54Z</time></trkpt><trkpt lat="43.28377467803416" lon="5.514409724976157"><ele>76.5</ele><time>2026-03-24T15:28:55Z</time></trkpt><trkpt lat="43.28381534636104" lon="5.514339881773273"><ele>76.33333333333333</ele><time>2026-03-24T15:28:57Z</time></trkpt><trkpt lat="43.283872470547784" lon="5.514247325120173"><ele>76.16666666666666</ele><time>2026-03-24T15:28:58Z</time></trkpt><trkpt lat="43.28393737422996" lon="5.5141987819368"><ele>76.0</ele><time>2026-03-24T15:28:59Z</time></trkpt><trkpt lat="43.284032058872604" lon="5.514176729962628"><ele>76.66666666666666</ele><time>2026-03-24T15:29:01Z</time></trkpt><trkpt lat="43.28419123905558" lon="5.514187741400177"><ele>77.33333333333333</ele><time>2026-03-24T15:29:03Z</time></trkpt><trkpt lat="43.28436495692222" lon="5.514192174515927"><ele>78.0</ele><time>2026-03-24T15:29:04Z</time></trkpt><trkpt lat="43.28452965888412" lon="5.514189158695478"><ele>78.0</ele><time>2026-03-24T15:29:05Z</time></trkpt><trkpt lat="43.28465974257259" lon="5.51418435100798"><ele>78.0</ele><time>2026-03-24T15:29:06Z</time></trkpt><trkpt lat="43.28476855361124" lon="5.514186990841018"><ele>78.0</ele><time>2026-03-24T15:29:07Z</time></trkpt><trkpt lat="43.28485060207855" lon="5.51419094281025"><ele>78.0</ele><time>2026-03-24T15:29:08Z</time></trkpt><trkpt lat="43.28491490139982" lon="5.51418945309271"><ele>78.0</ele><time>2026-03-24T15:29:09Z</time></trkpt><trkpt lat="43.28498311636611" lon="5.514185794051724"><ele>78.0</ele><time>2026-03-24T15:29:11Z</time></trkpt><trkpt lat="43.285136212515354" lon="5.514190948347767"><ele>78.0</ele><time>2026-03-24T15:29:13Z</time></trkpt><trkpt lat="43.285214467657944" lon="5.51419496009383"><ele>78.0</ele><time>2026-03-24T15:29:14Z</time></trkpt><trkpt lat="43.28532959781386" lon="5.514172085898094"><ele>78.0</ele><time>2026-03-24T15:29:16Z</time></trkpt><trkpt lat="43.28542297156687" lon="5.514172522714578"><ele>78.0</ele><time>2026-03-24T15:29:17Z</time></trkpt><trkpt lat="43.28551832219164" lon="5.514175566043169"><ele>78.0</ele><time>2026-03-24T15:29:18Z</time></trkpt><trkpt lat="43.28558542592383" lon="5.51417443998269"><ele>78.0</ele><time>2026-03-24T15:29:19Z</time></trkpt><trkpt lat="43.28564974928706" lon="5.514165771554041"><ele>78.0</ele><time>2026-03-24T15:29:20Z</time></trkpt><trkpt lat="43.28577672449324" lon="5.514171553247439"><ele>78.0</ele><time>2026-03-24T15:29:22Z</time></trkpt><trkpt lat="43.28587164566894" lon="5.514167918214651"><ele>78.0</ele><time>2026-03-24T15:29:24Z</time></trkpt><trkpt lat="43.28594145921431" lon="5.5141639059143905"><ele>78.0</ele><time>2026-03-24T15:29:25Z</time></trkpt><trkpt lat="43.28600510101736" lon="5.514162069384765"><ele>78.0</ele><time>2026-03-24T15:29:26Z</time></trkpt><trkpt lat="43.28607467680045" lon="5.514158699193177"><ele>78.0</ele><time>2026-03-24T15:29:27Z</time></trkpt><trkpt lat="43.28616169417578" lon="5.514163158038897"><ele>78.0</ele><time>2026-03-24T15:29:28Z</time></trkpt><trkpt lat="43.286253117109496" lon="5.514155344855483"><ele>78.0</ele><time>2026-03-24T15:29:29Z</time></trkpt><trkpt lat="43.28634551027212" lon="5.514155401214173"><ele>78.0</ele><time>2026-03-24T15:29:30Z</time></trkpt><trkpt lat="43.28645241469099" lon="5.514151029746598"><ele>78.0</ele><time>2026-03-24T15:29:31Z</time></trkpt><trkpt lat="43.28656007157198" lon="5.5141448509267486"><ele>78.0</ele><time>2026-03-24T15:29:32Z</time></trkpt><trkpt lat="43.28663207189392" lon="5.5141443833337656"><ele>78.0</ele><time>2026-03-24T15:29:33Z</time></trkpt><trkpt lat="43.2867371292133" lon="5.514158123640445"><ele>78.0</ele><time>2026-03-24T15:29:35Z</time></trkpt><trkpt lat="43.28682405803785" lon="5.51426213825644"><ele>78.0</ele><time>2026-03-24T15:29:37Z</time></trkpt><trkpt lat="43.28687843711854" lon="5.5143193043204395"><ele>78.0</ele><time>2026-03-24T15:29:39Z</time></trkpt><trkpt lat="43.286946080871" lon="5.514274988783231"><ele>78.0</ele><time>2026-03-24T15:29:41Z</time></trkpt><trkpt lat="43.286971233552286" lon="5.514176608329114"><ele>78.0</ele><time>2026-03-24T15:29:42Z</time></trkpt><trkpt lat="43.28696574822357" lon="5.514056218061926"><ele>78.0</ele><time>2026-03-24T15:29:43Z</time></trkpt><trkpt lat="43.286983021312295" lon="5.5139227800571655"><ele>78.0</ele><time>2026-03-24T15:29:44Z</time></trkpt><trkpt lat="43.28701459047475" lon="5.51379596308113"><ele>78.0</ele><time>2026-03-24T15:29:45Z</time></trkpt><trkpt lat="43.287028208754876" lon="5.513684929690303"><ele>78.0</ele><time>2026-03-24T15:29:46Z</time></trkpt><trkpt lat="43.287030831919985" lon="5.513598233354902"><ele>78.0</ele><time>2026-03-24T15:29:47Z</time></trkpt><trkpt lat="43.28704583669882" lon="5.513490463364528"><ele>78.0</ele><time>2026-03-24T15:29:49Z</time></trkpt><trkpt lat="43.28706213537094" lon="5.513352154305711"><ele>78.0</ele><time>2026-03-24T15:29:51Z</time></trkpt><trkpt lat="43.28707322652715" lon="5.513263798716753"><ele>78.0</ele><time>2026-03-24T15:29:52Z</time></trkpt><trkpt lat="43.287079429448966" lon="5.513154846788687"><ele>78.0</ele><time>2026-03-24T15:29:53Z</time></trkpt><trkpt lat="43.28709060335533" lon="5.51298891543433"><ele>78.0</ele><time>2026-03-24T15:29:54Z</time></trkpt><trkpt lat="43.28711999873154" lon="5.512799196014243"><ele>78.25</ele><time>2026-03-24T15:29:55Z</time></trkpt><trkpt lat="43.287155611209606" lon="5.51261072718106"><ele>78.5</ele><time>2026-03-24T15:29:56Z</time></trkpt><trkpt lat="43.28717733053954" lon="5.512446665028133"><ele>78.75</ele><time>2026-03-24T15:29:57Z</time></trkpt><trkpt lat="43.28719045244783" lon="5.512303869709559"><ele>79.0</ele><time>2026-03-24T15:29:58Z</time></trkpt><trkpt lat="43.28720072161053" lon="5.512147323645935"><ele>78.75</ele><time>2026-03-24T15:29:59Z</time></trkpt><trkpt lat="43.28722525551904" lon="5.511970485729009"><ele>78.5</ele><time>2026-03-24T15:30:00Z</time></trkpt><trkpt lat="43.287256868909935" lon="5.511782883404105"><ele>78.25</ele><time>2026-03-24T15:30:01Z</time></trkpt><trkpt lat="43.28728716660611" lon="5.511584482292945"><ele>78.0</ele><time>2026-03-24T15:30:02Z</time></trkpt><trkpt lat="43.2873088088385" lon="5.5113754578077545"><ele>78.5</ele><time>2026-03-24T15:30:03Z</time></trkpt><trkpt lat="43.28732573172179" lon="5.511173972704414"><ele>79.0</ele><time>2026-03-24T15:30:04Z</time></trkpt><trkpt lat="43.28734173613923" lon="5.510967735361018"><ele>79.5</ele><time>2026-03-24T15:30:05Z</time></trkpt><trkpt lat="43.28735244119291" lon="5.5107645965923515"><ele>80.0</ele><time>2026-03-24T15:30:06Z</time></trkpt><trkpt lat="43.2873633881187" lon="5.510577362963167"><ele>79.4</ele><time>2026-03-24T15:30:07Z</time></trkpt><trkpt lat="43.287381398587534" lon="5.510405053030596"><ele>78.8</ele><time>2026-03-24T15:30:08Z</time></trkpt><trkpt lat="43.28739371049843" lon="5.510290626189856"><ele>78.2</ele><time>2026-03-24T15:30:09Z</time></trkpt><trkpt lat="43.287404786170214" lon="5.510191049991166"><ele>77.6</ele><time>2026-03-24T15:30:10Z</time></trkpt><trkpt lat="43.287416104610536" lon="5.510098104138871"><ele>77.0</ele><time>2026-03-24T15:30:11Z</time></trkpt><trkpt lat="43.287429481856094" lon="5.509965811595025"><ele>77.0</ele><time>2026-03-24T15:30:13Z</time></trkpt><trkpt lat="43.287444506752266" lon="5.5098399613167794"><ele>77.0</ele><time>2026-03-24T15:30:24Z</time></trkpt><trkpt lat="43.287456117089" lon="5.509736777061778"><ele>77.0</ele><time>2026-03-24T15:30:27Z</time></trkpt><trkpt lat="43.28745809569123" lon="5.509572955355262"><ele>77.0</ele><time>2026-03-24T15:30:29Z</time></trkpt><trkpt lat="43.28745739780259" lon="5.509468631815997"><ele>77.0</ele><time>2026-03-24T15:30:30Z</time></trkpt><trkpt lat="43.287420561257946" lon="5.509380518423042"><ele>77.0</ele><time>2026-03-24T15:30:31Z</time></trkpt><trkpt lat="43.28742536225042" lon="5.509239579744587"><ele>76.6</ele><time>2026-03-24T15:30:38Z</time></trkpt><trkpt lat="43.28747975362049" lon="5.509070102860502"><ele>76.2</ele><time>2026-03-24T15:30:40Z</time></trkpt><trkpt lat="43.287473619927894" lon="5.508961424127953"><ele>75.8</ele><time>2026-03-24T15:30:41Z</time></trkpt><trkpt lat="43.287429344144435" lon="5.508868991973572"><ele>75.4</ele><time>2026-03-24T15:30:42Z</time></trkpt><trkpt lat="43.287327159898624" lon="5.508834945164184"><ele>75.0</ele><time>2026-03-24T15:30:43Z</time></trkpt><trkpt lat="43.28719257996399" lon="5.508961168095817"><ele>75.0</ele><time>2026-03-24T15:30:44Z</time></trkpt><trkpt lat="43.28708593743114" lon="5.509108848875606"><ele>75.0</ele><time>2026-03-24T15:30:45Z</time></trkpt><trkpt lat="43.286961044099044" lon="5.5092256198341545"><ele>75.0</ele><time>2026-03-24T15:30:46Z</time></trkpt><trkpt lat="43.28682429776289" lon="5.5092973461956465"><ele>75.0</ele><time>2026-03-24T15:30:47Z</time></trkpt><trkpt lat="43.28670350904222" lon="5.509287400147229"><ele>75.0</ele><time>2026-03-24T15:30:48Z</time></trkpt><trkpt lat="43.28660654138779" lon="5.509202456285529"><ele>75.0</ele><time>2026-03-24T15:30:49Z</time></trkpt><trkpt lat="43.28653880064654" lon="5.5090594070911"><ele>75.0</ele><time>2026-03-24T15:30:50Z</time></trkpt><trkpt lat="43.286519847068476" lon="5.508864253170471"><ele>75.0</ele><time>2026-03-24T15:30:51Z</time></trkpt><trkpt lat="43.28655672864425" lon="5.5086476542220435"><ele>74.66666666666667</ele><time>2026-03-24T15:30:52Z</time></trkpt><trkpt lat="43.28662591778682" lon="5.508388527160493"><ele>74.33333333333334</ele><time>2026-03-24T15:30:53Z</time></trkpt><trkpt lat="43.28669796550914" lon="5.508066829337752"><ele>74.0</ele><time>2026-03-24T15:30:54Z</time></trkpt><trkpt lat="43.286768297190825" lon="5.50768578749114"><ele>74.0</ele><time>2026-03-24T15:30:55Z</time></trkpt><trkpt lat="43.2868474959151" lon="5.5072757600898985"><ele>74.0</ele><time>2026-03-24T15:30:56Z</time></trkpt><trkpt lat="43.28692759986701" lon="5.5068723837494025"><ele>74.0</ele><time>2026-03-24T15:30:57Z</time></trkpt><trkpt lat="43.28700710084402" lon="5.506476764563144"><ele>74.0</ele><time>2026-03-24T15:30:58Z</time></trkpt><trkpt lat="43.28708571417203" lon="5.5060882506971245"><ele>73.5</ele><time>2026-03-24T15:30:59Z</time></trkpt><trkpt lat="43.28716195698703" lon="5.505715848955487"><ele>73.0</ele><time>2026-03-24T15:31:00Z</time></trkpt><trkpt lat="43.28722537823516" lon="5.505353903512704"><ele>73.5</ele><time>2026-03-24T15:31:01Z</time></trkpt><trkpt lat="43.28728483492791" lon="5.504995461181935"><ele>74.0</ele><time>2026-03-24T15:31:02Z</time></trkpt><trkpt lat="43.28734755606786" lon="5.504650600200764"><ele>74.0</ele><time>2026-03-24T15:31:03Z</time></trkpt><trkpt lat="43.28741645139624" lon="5.504309000495527"><ele>74.0</ele><time>2026-03-24T15:31:04Z</time></trkpt><trkpt lat="43.28748714188798" lon="5.503976615277382"><ele>74.0</ele><time>2026-03-24T15:31:05Z</time></trkpt><trkpt lat="43.28755213621941" lon="5.503652546954023"><ele>74.0</ele><time>2026-03-24T15:31:06Z</time></trkpt><trkpt lat="43.28761242299206" lon="5.503327312461154"><ele>74.0</ele><time>2026-03-24T15:31:07Z</time></trkpt><trkpt lat="43.2876750772381" lon="5.502993213919691"><ele>74.0</ele><time>2026-03-24T15:31:08Z</time></trkpt><trkpt lat="43.28773824069164" lon="5.502660724043244"><ele>73.5</ele><time>2026-03-24T15:31:09Z</time></trkpt><trkpt lat="43.28779080977633" lon="5.50232465476947"><ele>73.0</ele><time>2026-03-24T15:31:10Z</time></trkpt><trkpt lat="43.28784323851303" lon="5.5019896572410465"><ele>72.5</ele><time>2026-03-24T15:31:11Z</time></trkpt><trkpt lat="43.28790720278256" lon="5.501671264168468"><ele>72.0</ele><time>2026-03-24T15:31:12Z</time></trkpt><trkpt lat="43.28797308950482" lon="5.5013769808371"><ele>72.0</ele><time>2026-03-24T15:31:13Z</time></trkpt><trkpt lat="43.288032848268436" lon="5.501079596378304"><ele>72.0</ele><time>2026-03-24T15:31:14Z</time></trkpt><trkpt lat="43.28808783074193" lon="5.500780816135485"><ele>72.0</ele><time>2026-03-24T15:31:15Z</time></trkpt><trkpt lat="43.288155438986266" lon="5.500474393210079"><ele>73.0</ele><time>2026-03-24T15:31:16Z</time></trkpt><trkpt lat="43.28823511520041" lon="5.500176187065142"><ele>74.0</ele><time>2026-03-24T15:31:17Z</time></trkpt><trkpt lat="43.2883125337337" lon="5.4998698635908925"><ele>76.0</ele><time>2026-03-24T15:31:18Z</time></trkpt><trkpt lat="43.28837483558733" lon="5.499560439271377"><ele>78.0</ele><time>2026-03-24T15:31:19Z</time></trkpt><trkpt lat="43.28842946015514" lon="5.499247523776299"><ele>78.0</ele><time>2026-03-24T15:31:20Z</time></trkpt><trkpt lat="43.288484743019445" lon="5.498936479086932"><ele>78.0</ele><time>2026-03-24T15:31:21Z</time></trkpt><trkpt lat="43.288541439365325" lon="5.498631716321486"><ele>78.5</ele><time>2026-03-24T15:31:22Z</time></trkpt><trkpt lat="43.288596321317925" lon="5.498318190109627"><ele>79.0</ele><time>2026-03-24T15:31:23Z</time></trkpt><trkpt lat="43.28865059495197" lon="5.498002079996909"><ele>79.0</ele><time>2026-03-24T15:31:24Z</time></trkpt><trkpt lat="43.288709916819286" lon="5.497683414912665"><ele>79.0</ele><time>2026-03-24T15:31:25Z</time></trkpt><trkpt lat="43.28877299258079" lon="5.497366349404337"><ele>78.0</ele><time>2026-03-24T15:31:26Z</time></trkpt><trkpt lat="43.28883797608034" lon="5.497053071243936"><ele>77.0</ele><time>2026-03-24T15:31:27Z</time></trkpt><trkpt lat="43.28890166539709" lon="5.496750399393638"><ele>79.0</ele><time>2026-03-24T15:31:28Z</time></trkpt><trkpt lat="43.288959357061245" lon="5.496448415307643"><ele>81.0</ele><time>2026-03-24T15:31:29Z</time></trkpt><trkpt lat="43.289015780387544" lon="5.496143192075515"><ele>81.0</ele><time>2026-03-24T15:31:30Z</time></trkpt><trkpt lat="43.28907095695709" lon="5.495852254871038"><ele>81.0</ele><time>2026-03-24T15:31:31Z</time></trkpt><trkpt lat="43.28912585580082" lon="5.495564853201428"><ele>81.0</ele><time>2026-03-24T15:31:32Z</time></trkpt><trkpt lat="43.289182827576795" lon="5.495290920831487"><ele>81.0</ele><time>2026-03-24T15:31:33Z</time></trkpt><trkpt lat="43.289232783882575" lon="5.4950034246130715"><ele>81.0</ele><time>2026-03-24T15:31:34Z</time></trkpt><trkpt lat="43.289282361404055" lon="5.494689695332176"><ele>81.0</ele><time>2026-03-24T15:31:35Z</time></trkpt><trkpt lat="43.28934364173057" lon="5.4943641217261305"><ele>81.0</ele><time>2026-03-24T15:31:36Z</time></trkpt><trkpt lat="43.28942228825812" lon="5.494040135683474"><ele>81.0</ele><time>2026-03-24T15:31:37Z</time></trkpt><trkpt lat="43.289496469515846" lon="5.493724240429226"><ele>81.5</ele><time>2026-03-24T15:31:38Z</time></trkpt><trkpt lat="43.28956056244877" lon="5.493404210231126"><ele>82.0</ele><time>2026-03-24T15:31:39Z</time></trkpt><trkpt lat="43.289625998371754" lon="5.49307727491359"><ele>82.0</ele><time>2026-03-24T15:31:40Z</time></trkpt><trkpt lat="43.28969269941956" lon="5.492750795929028"><ele>82.0</ele><time>2026-03-24T15:31:41Z</time></trkpt><trkpt lat="43.28975870527146" lon="5.492423853708206"><ele>82.5</ele><time>2026-03-24T15:31:42Z</time></trkpt><trkpt lat="43.28982447331894" lon="5.492104658694273"><ele>83.0</ele><time>2026-03-24T15:31:43Z</time></trkpt><trkpt lat="43.289892194412204" lon="5.491786849735731"><ele>83.5</ele><time>2026-03-24T15:31:44Z</time></trkpt><trkpt lat="43.28995900101965" lon="5.491471299654053"><ele>84.0</ele><time>2026-03-24T15:31:45Z</time></trkpt><trkpt lat="43.29002256359311" lon="5.491159560119809"><ele>84.0</ele><time>2026-03-24T15:31:46Z</time></trkpt><trkpt lat="43.29008095957666" lon="5.490857343059191"><ele>84.0</ele><time>2026-03-24T15:31:47Z</time></trkpt><trkpt lat="43.2901386273003" lon="5.4905530098837705"><ele>84.0</ele><time>2026-03-24T15:31:48Z</time></trkpt><trkpt lat="43.29019113340404" lon="5.490251210791816"><ele>84.0</ele><time>2026-03-24T15:31:49Z</time></trkpt><trkpt lat="43.290240789626836" lon="5.4899418985892385"><ele>84.0</ele><time>2026-03-24T15:31:50Z</time></trkpt><trkpt lat="43.29029342388485" lon="5.489636216502115"><ele>84.0</ele><time>2026-03-24T15:31:51Z</time></trkpt><trkpt lat="43.29035404436671" lon="5.489316939108354"><ele>85.0</ele><time>2026-03-24T15:31:52Z</time></trkpt><trkpt lat="43.290425668932954" lon="5.488983639536926"><ele>86.0</ele><time>2026-03-24T15:31:53Z</time></trkpt><trkpt lat="43.29051012065644" lon="5.488628087565853"><ele>87.5</ele><time>2026-03-24T15:31:54Z</time></trkpt><trkpt lat="43.290597051988314" lon="5.4882791406599125"><ele>89.0</ele><time>2026-03-24T15:31:55Z</time></trkpt><trkpt lat="43.29068307419483" lon="5.487927150959993"><ele>86.5</ele><time>2026-03-24T15:31:56Z</time></trkpt><trkpt lat="43.29076352484712" lon="5.487576907303639"><ele>84.0</ele><time>2026-03-24T15:31:57Z</time></trkpt><trkpt lat="43.29083735027865" lon="5.487233281571697"><ele>82.5</ele><time>2026-03-24T15:31:58Z</time></trkpt><trkpt lat="43.290906716245516" lon="5.486903165261011"><ele>81.0</ele><time>2026-03-24T15:31:59Z</time></trkpt><trkpt lat="43.290970711682384" lon="5.486596356270996"><ele>81.0</ele><time>2026-03-24T15:32:00Z</time></trkpt><trkpt lat="43.29102614198055" lon="5.486312985731691"><ele>81.0</ele><time>2026-03-24T15:32:01Z</time></trkpt><trkpt lat="43.2910763677143" lon="5.486041435174221"><ele>81.0</ele><time>2026-03-24T15:32:02Z</time></trkpt><trkpt lat="43.291127615479006" lon="5.4857872844088575"><ele>80.0</ele><time>2026-03-24T15:32:03Z</time></trkpt><trkpt lat="43.291179103672945" lon="5.485540518838721"><ele>79.0</ele><time>2026-03-24T15:32:04Z</time></trkpt><trkpt lat="43.291232629855436" lon="5.485297804984549"><ele>78.0</ele><time>2026-03-24T15:32:05Z</time></trkpt><trkpt lat="43.29128368977671" lon="5.485038252898479"><ele>77.0</ele><time>2026-03-24T15:32:06Z</time></trkpt><trkpt lat="43.291330274574804" lon="5.484777223211541"><ele>76.0</ele><time>2026-03-24T15:32:07Z</time></trkpt><trkpt lat="43.291380569203795" lon="5.48451825621466"><ele>75.0</ele><time>2026-03-24T15:32:08Z</time></trkpt><trkpt lat="43.29143384099137" lon="5.484254219948311"><ele>72.66666666666667</ele><time>2026-03-24T15:32:09Z</time></trkpt><trkpt lat="43.29148398178598" lon="5.483985637309876"><ele>70.33333333333334</ele><time>2026-03-24T15:32:10Z</time></trkpt><trkpt lat="43.29153110749694" lon="5.483705560016196"><ele>68.0</ele><time>2026-03-24T15:32:11Z</time></trkpt><trkpt lat="43.291587763373755" lon="5.48340882840988"><ele>68.0</ele><time>2026-03-24T15:32:12Z</time></trkpt><trkpt lat="43.29165930081915" lon="5.483117969336617"><ele>68.0</ele><time>2026-03-24T15:32:13Z</time></trkpt><trkpt lat="43.2917224411613" lon="5.482817543660938"><ele>68.5</ele><time>2026-03-24T15:32:14Z</time></trkpt><trkpt lat="43.291777656853526" lon="5.482499285229001"><ele>69.0</ele><time>2026-03-24T15:32:15Z</time></trkpt><trkpt lat="43.29183945092343" lon="5.482169132248448"><ele>68.0</ele><time>2026-03-24T15:32:16Z</time></trkpt><trkpt lat="43.291906637438665" lon="5.481851458157346"><ele>67.0</ele><time>2026-03-24T15:32:17Z</time></trkpt><trkpt lat="43.29197179856367" lon="5.481541505062027"><ele>67.5</ele><time>2026-03-24T15:32:18Z</time></trkpt><trkpt lat="43.29202976498599" lon="5.481235664338442"><ele>68.0</ele><time>2026-03-24T15:32:19Z</time></trkpt><trkpt lat="43.29208311871348" lon="5.480933106047967"><ele>68.0</ele><time>2026-03-24T15:32:20Z</time></trkpt><trkpt lat="43.29213845373734" lon="5.480644896524885"><ele>68.0</ele><time>2026-03-24T15:32:21Z</time></trkpt><trkpt lat="43.2921886963225" lon="5.480374951779823"><ele>68.0</ele><time>2026-03-24T15:32:22Z</time></trkpt><trkpt lat="43.292237074641605" lon="5.480107199152677"><ele>71.0</ele><time>2026-03-24T15:32:23Z</time></trkpt><trkpt lat="43.29229007659012" lon="5.479815677386595"><ele>74.0</ele><time>2026-03-24T15:32:24Z</time></trkpt><trkpt lat="43.292357613055955" lon="5.479501551597577"><ele>74.0</ele><time>2026-03-24T15:32:25Z</time></trkpt><trkpt lat="43.29244379252611" lon="5.479182941360121"><ele>74.0</ele><time>2026-03-24T15:32:26Z</time></trkpt><trkpt lat="43.29252173491162" lon="5.478863339008449"><ele>74.5</ele><time>2026-03-24T15:32:27Z</time></trkpt><trkpt lat="43.29258779522077" lon="5.478547319685278"><ele>75.0</ele><time>2026-03-24T15:32:28Z</time></trkpt><trkpt lat="43.2926468360846" lon="5.478236916693322"><ele>76.0</ele><time>2026-03-24T15:32:29Z</time></trkpt><trkpt lat="43.2927058226611" lon="5.477928578878413"><ele>77.0</ele><time>2026-03-24T15:32:30Z</time></trkpt><trkpt lat="43.2927670714034" lon="5.477623899960718"><ele>77.0</ele><time>2026-03-24T15:32:31Z</time></trkpt><trkpt lat="43.292827244262796" lon="5.47732736603851"><ele>77.0</ele><time>2026-03-24T15:32:32Z</time></trkpt><trkpt lat="43.292886069664114" lon="5.4770266339768945"><ele>78.0</ele><time>2026-03-24T15:32:33Z</time></trkpt><trkpt lat="43.29293844219202" lon="5.476730155589714"><ele>79.0</ele><time>2026-03-24T15:32:34Z</time></trkpt><trkpt lat="43.29299162347444" lon="5.476416009911779"><ele>78.5</ele><time>2026-03-24T15:32:35Z</time></trkpt><trkpt lat="43.293056767597264" lon="5.47608259687561"><ele>78.0</ele><time>2026-03-24T15:32:36Z</time></trkpt><trkpt lat="43.29312411021292" lon="5.475761669860247"><ele>77.0</ele><time>2026-03-24T15:32:37Z</time></trkpt><trkpt lat="43.29318622417449" lon="5.475451276424324"><ele>76.0</ele><time>2026-03-24T15:32:38Z</time></trkpt><trkpt lat="43.29324457181414" lon="5.4751453846008085"><ele>76.0</ele><time>2026-03-24T15:32:39Z</time></trkpt><trkpt lat="43.29330165446139" lon="5.4748441731570505"><ele>76.0</ele><time>2026-03-24T15:32:40Z</time></trkpt><trkpt lat="43.29335844020147" lon="5.474539050514004"><ele>74.5</ele><time>2026-03-24T15:32:41Z</time></trkpt><trkpt lat="43.29341570914443" lon="5.474237446175065"><ele>73.0</ele><time>2026-03-24T15:32:42Z</time></trkpt><trkpt lat="43.29347439698734" lon="5.473924406986881"><ele>72.0</ele><time>2026-03-24T15:32:43Z</time></trkpt><trkpt lat="43.29354362874787" lon="5.473609129137751"><ele>71.0</ele><time>2026-03-24T15:32:44Z</time></trkpt><trkpt lat="43.29361582933354" lon="5.47330143348201"><ele>71.0</ele><time>2026-03-24T15:32:45Z</time></trkpt><trkpt lat="43.293678861197016" lon="5.472988637643482"><ele>71.0</ele><time>2026-03-24T15:32:46Z</time></trkpt><trkpt lat="43.29373409661473" lon="5.472724634506531"><ele>71.0</ele><time>2026-03-24T15:32:47Z</time></trkpt><trkpt lat="43.293782298793474" lon="5.47243317314621"><ele>71.66666666666667</ele><time>2026-03-24T15:32:48Z</time></trkpt><trkpt lat="43.29382905113427" lon="5.472141818479996"><ele>72.33333333333333</ele><time>2026-03-24T15:32:49Z</time></trkpt><trkpt lat="43.293886540795704" lon="5.47184971560007"><ele>73.0</ele><time>2026-03-24T15:32:50Z</time></trkpt><trkpt lat="43.293960889996605" lon="5.471537122453981"><ele>78.5</ele><time>2026-03-24T15:32:51Z</time></trkpt><trkpt lat="43.2940351096189" lon="5.471208069929526"><ele>84.0</ele><time>2026-03-24T15:32:52Z</time></trkpt><trkpt lat="43.29409992064746" lon="5.470882993150193"><ele>84.0</ele><time>2026-03-24T15:32:53Z</time></trkpt><trkpt lat="43.29414817437476" lon="5.470558362751996"><ele>84.0</ele><time>2026-03-24T15:32:54Z</time></trkpt><trkpt lat="43.294176986113534" lon="5.47023409968154"><ele>84.5</ele><time>2026-03-24T15:32:55Z</time></trkpt><trkpt lat="43.294192389565225" lon="5.469909722563161"><ele>85.0</ele><time>2026-03-24T15:32:56Z</time></trkpt><trkpt lat="43.29421779430316" lon="5.469585241209496"><ele>85.5</ele><time>2026-03-24T15:32:57Z</time></trkpt><trkpt lat="43.29426348686281" lon="5.4692572444379515"><ele>86.0</ele><time>2026-03-24T15:32:58Z</time></trkpt><trkpt lat="43.29431375343077" lon="5.468929452089143"><ele>86.0</ele><time>2026-03-24T15:32:59Z</time></trkpt><trkpt lat="43.2943511735492" lon="5.468601467032393"><ele>86.0</ele><time>2026-03-24T15:33:00Z</time></trkpt><trkpt lat="43.29439427023066" lon="5.468275834055586"><ele>86.0</ele><time>2026-03-24T15:33:01Z</time></trkpt><trkpt lat="43.294445409837316" lon="5.467953845998424"><ele>86.0</ele><time>2026-03-24T15:33:02Z</time></trkpt><trkpt lat="43.29450018708297" lon="5.467637196315793"><ele>86.0</ele><time>2026-03-24T15:33:03Z</time></trkpt><trkpt lat="43.29454754673025" lon="5.467327773782001"><ele>86.0</ele><time>2026-03-24T15:33:04Z</time></trkpt><trkpt lat="43.29458316581949" lon="5.467022071498537"><ele>86.0</ele><time>2026-03-24T15:33:05Z</time></trkpt><trkpt lat="43.29460799554516" lon="5.466731361160369"><ele>86.0</ele><time>2026-03-24T15:33:06Z</time></trkpt><trkpt lat="43.29463242700486" lon="5.466441854503986"><ele>86.0</ele><time>2026-03-24T15:33:07Z</time></trkpt><trkpt lat="43.29466403303889" lon="5.466153762155519"><ele>82.66666666666667</ele><time>2026-03-24T15:33:08Z</time></trkpt><trkpt lat="43.29469720492429" lon="5.465880792752238"><ele>79.33333333333333</ele><time>2026-03-24T15:33:09Z</time></trkpt><trkpt lat="43.29471475593221" lon="5.465602725241294"><ele>76.0</ele><time>2026-03-24T15:33:10Z</time></trkpt><trkpt lat="43.294741026834245" lon="5.465295475730817"><ele>77.0</ele><time>2026-03-24T15:33:11Z</time></trkpt><trkpt lat="43.2947646646732" lon="5.464970527932433"><ele>78.0</ele><time>2026-03-24T15:33:12Z</time></trkpt><trkpt lat="43.29478791781404" lon="5.464615078451139"><ele>77.0</ele><time>2026-03-24T15:33:13Z</time></trkpt><trkpt lat="43.29481718614074" lon="5.46426036656728"><ele>76.0</ele><time>2026-03-24T15:33:14Z</time></trkpt><trkpt lat="43.29482567316281" lon="5.46391057483449"><ele>74.5</ele><time>2026-03-24T15:33:15Z</time></trkpt><trkpt lat="43.29481612441748" lon="5.463549412356507"><ele>73.0</ele><time>2026-03-24T15:33:16Z</time></trkpt><trkpt lat="43.29479884184371" lon="5.463169863009634"><ele>71.5</ele><time>2026-03-24T15:33:17Z</time></trkpt><trkpt lat="43.2947792010224" lon="5.4628027880027705"><ele>70.0</ele><time>2026-03-24T15:33:18Z</time></trkpt><trkpt lat="43.29474957815057" lon="5.462452945221233"><ele>64.5</ele><time>2026-03-24T15:33:19Z</time></trkpt><trkpt lat="43.294708752962165" lon="5.462085740659167"><ele>59.0</ele><time>2026-03-24T15:33:20Z</time></trkpt><trkpt lat="43.29465086405472" lon="5.461701505630992"><ele>59.0</ele><time>2026-03-24T15:33:21Z</time></trkpt><trkpt lat="43.294600592147184" lon="5.461342065246117"><ele>59.0</ele><time>2026-03-24T15:33:22Z</time></trkpt><trkpt lat="43.29457371553293" lon="5.460971237000425"><ele>59.0</ele><time>2026-03-24T15:33:23Z</time></trkpt><trkpt lat="43.29453878098472" lon="5.460587980616287"><ele>59.0</ele><time>2026-03-24T15:33:24Z</time></trkpt><trkpt lat="43.29447358697262" lon="5.46019351243988"><ele>58.5</ele><time>2026-03-24T15:33:25Z</time></trkpt><trkpt lat="43.294405290672195" lon="5.459782824529823"><ele>58.0</ele><time>2026-03-24T15:33:26Z</time></trkpt><trkpt lat="43.294332037747864" lon="5.4593876788134645"><ele>55.5</ele><time>2026-03-24T15:33:27Z</time></trkpt><trkpt lat="43.294246997285384" lon="5.459003809830855"><ele>53.0</ele><time>2026-03-24T15:33:28Z</time></trkpt><trkpt lat="43.294154327979165" lon="5.45863466459525"><ele>53.0</ele><time>2026-03-24T15:33:29Z</time></trkpt><trkpt lat="43.2940574978381" lon="5.458267098408707"><ele>53.0</ele><time>2026-03-24T15:33:30Z</time></trkpt><trkpt lat="43.29395796154761" lon="5.457907604910037"><ele>50.5</ele><time>2026-03-24T15:33:31Z</time></trkpt><trkpt lat="43.29385421349576" lon="5.457563495876925"><ele>48.0</ele><time>2026-03-24T15:33:32Z</time></trkpt><trkpt lat="43.29374212215298" lon="5.457229146365811"><ele>49.0</ele><time>2026-03-24T15:33:33Z</time></trkpt><trkpt lat="43.29362310388296" lon="5.456903846353036"><ele>50.0</ele><time>2026-03-24T15:33:34Z</time></trkpt><trkpt lat="43.29349773079447" lon="5.456580453313776"><ele>51.0</ele><time>2026-03-24T15:33:35Z</time></trkpt><trkpt lat="43.293372349346896" lon="5.45625648780773"><ele>52.0</ele><time>2026-03-24T15:33:36Z</time></trkpt><trkpt lat="43.29324681602323" lon="5.455926535256076"><ele>52.0</ele><time>2026-03-24T15:33:37Z</time></trkpt><trkpt lat="43.293121714818554" lon="5.455588813003073"><ele>52.0</ele><time>2026-03-24T15:33:38Z</time></trkpt><trkpt lat="43.293000111027645" lon="5.455255017411996"><ele>49.5</ele><time>2026-03-24T15:33:39Z</time></trkpt><trkpt lat="43.2928734324276" lon="5.4549324241949435"><ele>47.0</ele><time>2026-03-24T15:33:40Z</time></trkpt><trkpt lat="43.29274698782378" lon="5.454587039155322"><ele>47.0</ele><time>2026-03-24T15:33:41Z</time></trkpt><trkpt lat="43.29261799568193" lon="5.454232513663336"><ele>47.0</ele><time>2026-03-24T15:33:42Z</time></trkpt><trkpt lat="43.29249945906503" lon="5.453898309702921"><ele>46.0</ele><time>2026-03-24T15:33:43Z</time></trkpt><trkpt lat="43.292378188356636" lon="5.4535688553688395"><ele>45.0</ele><time>2026-03-24T15:33:44Z</time></trkpt><trkpt lat="43.29225510897314" lon="5.453238442392726"><ele>45.0</ele><time>2026-03-24T15:33:45Z</time></trkpt><trkpt lat="43.29213132167858" lon="5.452906143622599"><ele>45.0</ele><time>2026-03-24T15:33:46Z</time></trkpt><trkpt lat="43.29200151406476" lon="5.45256025889569"><ele>45.0</ele><time>2026-03-24T15:33:47Z</time></trkpt><trkpt lat="43.2918608977529" lon="5.452187470988246"><ele>45.0</ele><time>2026-03-24T15:33:48Z</time></trkpt><trkpt lat="43.29171447050823" lon="5.451801248704208"><ele>44.0</ele><time>2026-03-24T15:33:49Z</time></trkpt><trkpt lat="43.291572851531335" lon="5.451433029275452"><ele>43.0</ele><time>2026-03-24T15:33:50Z</time></trkpt><trkpt lat="43.291438053010665" lon="5.451078669365827"><ele>43.0</ele><time>2026-03-24T15:33:51Z</time></trkpt><trkpt lat="43.29131890444325" lon="5.450721045067187"><ele>43.0</ele><time>2026-03-24T15:33:52Z</time></trkpt><trkpt lat="43.29120612114405" lon="5.450362059334443"><ele>41.5</ele><time>2026-03-24T15:33:53Z</time></trkpt><trkpt lat="43.291077356933606" lon="5.450009606078798"><ele>40.0</ele><time>2026-03-24T15:33:54Z</time></trkpt><trkpt lat="43.290943828903586" lon="5.44966453870164"><ele>40.5</ele><time>2026-03-24T15:33:55Z</time></trkpt><trkpt lat="43.290814221710406" lon="5.449328323607649"><ele>41.0</ele><time>2026-03-24T15:33:56Z</time></trkpt><trkpt lat="43.290685592577276" lon="5.4489912192410594"><ele>41.5</ele><time>2026-03-24T15:33:57Z</time></trkpt><trkpt lat="43.290554524087945" lon="5.448647658127344"><ele>42.0</ele><time>2026-03-24T15:33:58Z</time></trkpt><trkpt lat="43.290425874407575" lon="5.448298181066891"><ele>42.5</ele><time>2026-03-24T15:33:59Z</time></trkpt><trkpt lat="43.29028647006059" lon="5.447927931470364"><ele>43.0</ele><time>2026-03-24T15:34:00Z</time></trkpt><trkpt lat="43.290156465582896" lon="5.44758165201753"><ele>43.0</ele><time>2026-03-24T15:34:01Z</time></trkpt><trkpt lat="43.29002195513401" lon="5.447236772629403"><ele>43.0</ele><time>2026-03-24T15:34:02Z</time></trkpt><trkpt lat="43.28988517691502" lon="5.44689164171017"><ele>43.5</ele><time>2026-03-24T15:34:03Z</time></trkpt><trkpt lat="43.28975168635105" lon="5.446527155302165"><ele>44.0</ele><time>2026-03-24T15:34:04Z</time></trkpt><trkpt lat="43.2896197125272" lon="5.446166391883912"><ele>42.0</ele><time>2026-03-24T15:34:05Z</time></trkpt><trkpt lat="43.28947812873919" lon="5.445793210670699"><ele>40.0</ele><time>2026-03-24T15:34:06Z</time></trkpt><trkpt lat="43.28933827887622" lon="5.445444565921155"><ele>40.0</ele><time>2026-03-24T15:34:07Z</time></trkpt><trkpt lat="43.28919656542615" lon="5.445105901676925"><ele>40.0</ele><time>2026-03-24T15:34:08Z</time></trkpt><trkpt lat="43.28905739681267" lon="5.4447459198857615"><ele>40.5</ele><time>2026-03-24T15:34:09Z</time></trkpt><trkpt lat="43.2889250603776" lon="5.444389247106168"><ele>41.0</ele><time>2026-03-24T15:34:10Z</time></trkpt><trkpt lat="43.288806398943606" lon="5.4440355145852735"><ele>40.5</ele><time>2026-03-24T15:34:11Z</time></trkpt><trkpt lat="43.28869719092382" lon="5.443672011569519"><ele>40.0</ele><time>2026-03-24T15:34:12Z</time></trkpt><trkpt lat="43.28856971587561" lon="5.44333045108895"><ele>40.0</ele><time>2026-03-24T15:34:13Z</time></trkpt><trkpt lat="43.288421988935504" lon="5.442965924839398"><ele>40.0</ele><time>2026-03-24T15:34:14Z</time></trkpt><trkpt lat="43.288293733656545" lon="5.4425857119582215"><ele>39.5</ele><time>2026-03-24T15:34:15Z</time></trkpt><trkpt lat="43.28819244116665" lon="5.442214774144552"><ele>39.0</ele><time>2026-03-24T15:34:16Z</time></trkpt><trkpt lat="43.28809851529019" lon="5.441872217525752"><ele>39.0</ele><time>2026-03-24T15:34:17Z</time></trkpt><trkpt lat="43.28801381002882" lon="5.441549613932523"><ele>39.0</ele><time>2026-03-24T15:34:18Z</time></trkpt><trkpt lat="43.28793474401711" lon="5.44123510276352"><ele>39.0</ele><time>2026-03-24T15:34:19Z</time></trkpt><trkpt lat="43.28785800979171" lon="5.440916765023598"><ele>39.0</ele><time>2026-03-24T15:34:20Z</time></trkpt><trkpt lat="43.28778968334271" lon="5.440584478390393"><ele>39.0</ele><time>2026-03-24T15:34:21Z</time></trkpt><trkpt lat="43.28770862904009" lon="5.440239776746921"><ele>39.0</ele><time>2026-03-24T15:34:22Z</time></trkpt><trkpt lat="43.28760561070401" lon="5.439886152912102"><ele>39.0</ele><time>2026-03-24T15:34:23Z</time></trkpt><trkpt lat="43.28752431610009" lon="5.439525860661538"><ele>39.0</ele><time>2026-03-24T15:34:24Z</time></trkpt><trkpt lat="43.28745941113711" lon="5.439162794752364"><ele>42.5</ele><time>2026-03-24T15:34:25Z</time></trkpt><trkpt lat="43.28740174943976" lon="5.438794989394317"><ele>46.0</ele><time>2026-03-24T15:34:26Z</time></trkpt><trkpt lat="43.287345208758" lon="5.43841490674757"><ele>46.0</ele><time>2026-03-24T15:34:27Z</time></trkpt><trkpt lat="43.287293794768345" lon="5.4380340094599795"><ele>46.0</ele><time>2026-03-24T15:34:28Z</time></trkpt><trkpt lat="43.28724936725927" lon="5.437648759816544"><ele>42.5</ele><time>2026-03-24T15:34:29Z</time></trkpt><trkpt lat="43.28720690540091" lon="5.437263899290148"><ele>39.0</ele><time>2026-03-24T15:34:30Z</time></trkpt><trkpt lat="43.287172881686395" lon="5.436884424299598"><ele>37.0</ele><time>2026-03-24T15:34:31Z</time></trkpt><trkpt lat="43.287131810858234" lon="5.436514779431876"><ele>35.0</ele><time>2026-03-24T15:34:32Z</time></trkpt><trkpt lat="43.28706771060746" lon="5.436150969401287"><ele>34.5</ele><time>2026-03-24T15:34:33Z</time></trkpt><trkpt lat="43.286990348659906" lon="5.435756419871512"><ele>34.0</ele><time>2026-03-24T15:34:34Z</time></trkpt><trkpt lat="43.286929834339766" lon="5.435371812880336"><ele>33.0</ele><time>2026-03-24T15:34:35Z</time></trkpt><trkpt lat="43.2868876721576" lon="5.4349929429222446"><ele>32.0</ele><time>2026-03-24T15:34:36Z</time></trkpt><trkpt lat="43.286840830053045" lon="5.434619139786956"><ele>32.0</ele><time>2026-03-24T15:34:37Z</time></trkpt><trkpt lat="43.28679062363422" lon="5.434249948033883"><ele>32.0</ele><time>2026-03-24T15:34:38Z</time></trkpt><trkpt lat="43.28674334429654" lon="5.433892294525209"><ele>32.0</ele><time>2026-03-24T15:34:39Z</time></trkpt><trkpt lat="43.28669821522751" lon="5.433538706553604"><ele>32.0</ele><time>2026-03-24T15:34:40Z</time></trkpt><trkpt lat="43.28665765780412" lon="5.433204592985522"><ele>32.0</ele><time>2026-03-24T15:34:41Z</time></trkpt><trkpt lat="43.28661872820483" lon="5.432869899726945"><ele>32.0</ele><time>2026-03-24T15:34:42Z</time></trkpt><trkpt lat="43.28657516127339" lon="5.432531244231206"><ele>32.0</ele><time>2026-03-24T15:34:43Z</time></trkpt><trkpt lat="43.286524986825135" lon="5.432196689349898"><ele>32.0</ele><time>2026-03-24T15:34:44Z</time></trkpt><trkpt lat="43.28647067763961" lon="5.4318589173314455"><ele>31.5</ele><time>2026-03-24T15:34:45Z</time></trkpt><trkpt lat="43.28642153624398" lon="5.43151931320209"><ele>31.0</ele><time>2026-03-24T15:34:46Z</time></trkpt><trkpt lat="43.286376688440335" lon="5.431188654814663"><ele>30.5</ele><time>2026-03-24T15:34:47Z</time></trkpt><trkpt lat="43.28632827739657" lon="5.430882927909283"><ele>30.0</ele><time>2026-03-24T15:34:48Z</time></trkpt><trkpt lat="43.28628392154427" lon="5.430582995438114"><ele>29.0</ele><time>2026-03-24T15:34:49Z</time></trkpt><trkpt lat="43.28624692632614" lon="5.43027790072976"><ele>28.0</ele><time>2026-03-24T15:34:50Z</time></trkpt><trkpt lat="43.28620399830584" lon="5.429921332425517"><ele>29.0</ele><time>2026-03-24T15:34:51Z</time></trkpt><trkpt lat="43.28614400257583" lon="5.429590304311114"><ele>30.0</ele><time>2026-03-24T15:34:52Z</time></trkpt><trkpt lat="43.28608454455193" lon="5.429273058065133"><ele>30.0</ele><time>2026-03-24T15:34:53Z</time></trkpt><trkpt lat="43.28603507821167" lon="5.428945205927193"><ele>30.0</ele><time>2026-03-24T15:34:54Z</time></trkpt><trkpt lat="43.285995226208065" lon="5.428608449495083"><ele>30.5</ele><time>2026-03-24T15:34:55Z</time></trkpt><trkpt lat="43.28594945614389" lon="5.428264853848123"><ele>31.0</ele><time>2026-03-24T15:34:56Z</time></trkpt><trkpt lat="43.285903787111714" lon="5.427919703184209"><ele>30.0</ele><time>2026-03-24T15:34:57Z</time></trkpt><trkpt lat="43.28586159256536" lon="5.427575759526284"><ele>29.0</ele><time>2026-03-24T15:34:58Z</time></trkpt><trkpt lat="43.28581601257032" lon="5.427254642792674"><ele>29.5</ele><time>2026-03-24T15:34:59Z</time></trkpt><trkpt lat="43.28577477262553" lon="5.426950523227883"><ele>30.0</ele><time>2026-03-24T15:35:00Z</time></trkpt><trkpt lat="43.285735508189816" lon="5.4266468455071095"><ele>30.0</ele><time>2026-03-24T15:35:01Z</time></trkpt><trkpt lat="43.28570711939145" lon="5.426353089481176"><ele>30.0</ele><time>2026-03-24T15:35:02Z</time></trkpt><trkpt lat="43.2856756327659" lon="5.4260859967130095"><ele>30.0</ele><time>2026-03-24T15:35:03Z</time></trkpt><trkpt lat="43.28564953883198" lon="5.425851650218714"><ele>30.333333333333336</ele><time>2026-03-24T15:35:04Z</time></trkpt><trkpt lat="43.28560234013998" lon="5.425630248143698"><ele>30.666666666666668</ele><time>2026-03-24T15:35:05Z</time></trkpt><trkpt lat="43.28556880023565" lon="5.425392670382432"><ele>31.0</ele><time>2026-03-24T15:35:06Z</time></trkpt><trkpt lat="43.2855138832308" lon="5.425157871385724"><ele>28.0</ele><time>2026-03-24T15:35:07Z</time></trkpt><trkpt lat="43.28542746403025" lon="5.424587461931285"><ele>25.0</ele><time>2026-03-24T15:35:08Z</time></trkpt><trkpt lat="43.28534534850966" lon="5.424009824927022"><ele>24.5</ele><time>2026-03-24T15:35:09Z</time></trkpt><trkpt lat="43.285274008484635" lon="5.423574912686438"><ele>24.0</ele><time>2026-03-24T15:35:10Z</time></trkpt><trkpt lat="43.285252605981555" lon="5.423234990146245"><ele>24.5</ele><time>2026-03-24T15:35:11Z</time></trkpt><trkpt lat="43.28524351850566" lon="5.4228952160344805"><ele>25.0</ele><time>2026-03-24T15:35:12Z</time></trkpt><trkpt lat="43.2852308098569" lon="5.42254843749898"><ele>25.0</ele><time>2026-03-24T15:35:13Z</time></trkpt><trkpt lat="43.28522101777637" lon="5.422201087818953"><ele>25.0</ele><time>2026-03-24T15:35:14Z</time></trkpt><trkpt lat="43.285223031550714" lon="5.42186456970603"><ele>25.5</ele><time>2026-03-24T15:35:15Z</time></trkpt><trkpt lat="43.28522411969523" lon="5.421537295258248"><ele>26.0</ele><time>2026-03-24T15:35:16Z</time></trkpt><trkpt lat="43.285218934506325" lon="5.421242199612573"><ele>26.0</ele><time>2026-03-24T15:35:17Z</time></trkpt><trkpt lat="43.285210396180204" lon="5.420968484898493"><ele>26.0</ele><time>2026-03-24T15:35:18Z</time></trkpt><trkpt lat="43.2851995787808" lon="5.42071171830615"><ele>26.0</ele><time>2026-03-24T15:35:19Z</time></trkpt><trkpt lat="43.28518465879795" lon="5.420425632347163"><ele>26.0</ele><time>2026-03-24T15:35:20Z</time></trkpt><trkpt lat="43.285179989182865" lon="5.42008064430364"><ele>26.0</ele><time>2026-03-24T15:35:21Z</time></trkpt><trkpt lat="43.285165514963516" lon="5.419707816027447"><ele>25.5</ele><time>2026-03-24T15:35:22Z</time></trkpt><trkpt lat="43.28513135804051" lon="5.419366719692943"><ele>25.0</ele><time>2026-03-24T15:35:23Z</time></trkpt><trkpt lat="43.28508971597701" lon="5.419035560698003"><ele>25.5</ele><time>2026-03-24T15:35:24Z</time></trkpt><trkpt lat="43.28505019757347" lon="5.418719637661403"><ele>26.0</ele><time>2026-03-24T15:35:25Z</time></trkpt><trkpt lat="43.28502141240611" lon="5.418409261099992"><ele>26.0</ele><time>2026-03-24T15:35:26Z</time></trkpt><trkpt lat="43.28499623591384" lon="5.418091267064776"><ele>26.0</ele><time>2026-03-24T15:35:27Z</time></trkpt><trkpt lat="43.284967849314" lon="5.417776793660476"><ele>25.5</ele><time>2026-03-24T15:35:28Z</time></trkpt><trkpt lat="43.28493208282608" lon="5.41745897916681"><ele>25.0</ele><time>2026-03-24T15:35:29Z</time></trkpt><trkpt lat="43.28489058425699" lon="5.417144847429957"><ele>27.0</ele><time>2026-03-24T15:35:30Z</time></trkpt><trkpt lat="43.28484466247126" lon="5.416829447501554"><ele>29.0</ele><time>2026-03-24T15:35:31Z</time></trkpt><trkpt lat="43.28479364834912" lon="5.416517397267764"><ele>27.0</ele><time>2026-03-24T15:35:32Z</time></trkpt><trkpt lat="43.284748605629815" lon="5.416201168438787"><ele>25.0</ele><time>2026-03-24T15:35:33Z</time></trkpt><trkpt lat="43.2847131046348" lon="5.415883267455363"><ele>25.0</ele><time>2026-03-24T15:35:34Z</time></trkpt><trkpt lat="43.2846884557923" lon="5.415564434877714"><ele>25.0</ele><time>2026-03-24T15:35:35Z</time></trkpt><trkpt lat="43.28466959613712" lon="5.41525081452039"><ele>24.666666666666668</ele><time>2026-03-24T15:35:36Z</time></trkpt><trkpt lat="43.284660471147795" lon="5.414959162016494"><ele>24.333333333333336</ele><time>2026-03-24T15:35:37Z</time></trkpt><trkpt lat="43.284655504615124" lon="5.414688206471195"><ele>24.0</ele><time>2026-03-24T15:35:38Z</time></trkpt><trkpt lat="43.28465342498754" lon="5.414434265897829"><ele>24.0</ele><time>2026-03-24T15:35:39Z</time></trkpt><trkpt lat="43.28465447321279" lon="5.414162204472619"><ele>24.0</ele><time>2026-03-24T15:35:40Z</time></trkpt><trkpt lat="43.284659338558754" lon="5.413852070204462"><ele>24.0</ele><time>2026-03-24T15:35:41Z</time></trkpt><trkpt lat="43.284666543069825" lon="5.413540104264287"><ele>24.0</ele><time>2026-03-24T15:35:42Z</time></trkpt><trkpt lat="43.28467594300452" lon="5.413254296496307"><ele>24.0</ele><time>2026-03-24T15:35:43Z</time></trkpt><trkpt lat="43.284685988219" lon="5.413007492593808"><ele>24.0</ele><time>2026-03-24T15:35:44Z</time></trkpt><trkpt lat="43.28469465684703" lon="5.4127673201953135"><ele>24.333333333333336</ele><time>2026-03-24T15:35:45Z</time></trkpt><trkpt lat="43.28470738230862" lon="5.412506869725447"><ele>24.666666666666668</ele><time>2026-03-24T15:35:46Z</time></trkpt><trkpt lat="43.28473844611016" lon="5.412242698259693"><ele>25.0</ele><time>2026-03-24T15:35:47Z</time></trkpt><trkpt lat="43.28477778317258" lon="5.411978692098843"><ele>25.0</ele><time>2026-03-24T15:35:48Z</time></trkpt><trkpt lat="43.28481843179152" lon="5.4117139808375425"><ele>25.0</ele><time>2026-03-24T15:35:49Z</time></trkpt><trkpt lat="43.284850352508684" lon="5.411446513131104"><ele>25.0</ele><time>2026-03-24T15:35:50Z</time></trkpt><trkpt lat="43.284871971542366" lon="5.41116551634381"><ele>27.0</ele><time>2026-03-24T15:35:51Z</time></trkpt><trkpt lat="43.284894314687314" lon="5.410893376819232"><ele>29.0</ele><time>2026-03-24T15:35:52Z</time></trkpt><trkpt lat="43.2849127057266" lon="5.410618317013243"><ele>31.0</ele><time>2026-03-24T15:35:53Z</time></trkpt><trkpt lat="43.28492430445919" lon="5.410353779744673"><ele>31.0</ele><time>2026-03-24T15:35:54Z</time></trkpt><trkpt lat="43.28493533099335" lon="5.410084662238397"><ele>31.0</ele><time>2026-03-24T15:35:55Z</time></trkpt><trkpt lat="43.284937680419034" lon="5.409818367140502"><ele>31.0</ele><time>2026-03-24T15:35:56Z</time></trkpt><trkpt lat="43.28493830301703" lon="5.4095598456138765"><ele>30.666666666666668</ele><time>2026-03-24T15:35:57Z</time></trkpt><trkpt lat="43.28493362944479" lon="5.409301878297296"><ele>30.333333333333336</ele><time>2026-03-24T15:35:58Z</time></trkpt><trkpt lat="43.28492716688102" lon="5.409050047980965"><ele>30.0</ele><time>2026-03-24T15:35:59Z</time></trkpt><trkpt lat="43.28491885267913" lon="5.408806199425773"><ele>30.0</ele><time>2026-03-24T15:36:00Z</time></trkpt><trkpt lat="43.28490837462956" lon="5.408570283278026"><ele>30.0</ele><time>2026-03-24T15:36:01Z</time></trkpt><trkpt lat="43.28489610253076" lon="5.40834568689572"><ele>30.0</ele><time>2026-03-24T15:36:02Z</time></trkpt><trkpt lat="43.28488051937436" lon="5.408126491049188"><ele>30.333333333333336</ele><time>2026-03-24T15:36:03Z</time></trkpt><trkpt lat="43.28483459116332" lon="5.407847660529816"><ele>30.666666666666668</ele><time>2026-03-24T15:36:04Z</time></trkpt><trkpt lat="43.28480013671553" lon="5.407627881105653"><ele>31.0</ele><time>2026-03-24T15:36:05Z</time></trkpt><trkpt lat="43.28476724579976" lon="5.4074113112647835"><ele>30.0</ele><time>2026-03-24T15:36:06Z</time></trkpt><trkpt lat="43.2847374929838" lon="5.407196328663846"><ele>29.0</ele><time>2026-03-24T15:36:07Z</time></trkpt><trkpt lat="43.28470658452431" lon="5.406986580232378"><ele>28.0</ele><time>2026-03-24T15:36:08Z</time></trkpt><trkpt lat="43.28468177464814" lon="5.406784618132458"><ele>28.0</ele><time>2026-03-24T15:36:09Z</time></trkpt><trkpt lat="43.28464957945417" lon="5.406573473069697"><ele>28.0</ele><time>2026-03-24T15:36:10Z</time></trkpt><trkpt lat="43.28461015983018" lon="5.406344432126009"><ele>28.0</ele><time>2026-03-24T15:36:11Z</time></trkpt><trkpt lat="43.28456993593461" lon="5.406116697504415"><ele>27.666666666666668</ele><time>2026-03-24T15:36:12Z</time></trkpt><trkpt lat="43.28452864018557" lon="5.405889191472338"><ele>27.333333333333336</ele><time>2026-03-24T15:36:13Z</time></trkpt><trkpt lat="43.28449011585742" lon="5.405656471792795"><ele>27.0</ele><time>2026-03-24T15:36:14Z</time></trkpt><trkpt lat="43.28445012784264" lon="5.405424535212304"><ele>27.0</ele><time>2026-03-24T15:36:15Z</time></trkpt><trkpt lat="43.284414851025076" lon="5.405211291855229"><ele>27.0</ele><time>2026-03-24T15:36:16Z</time></trkpt><trkpt lat="43.28438144941067" lon="5.405011560163247"><ele>27.0</ele><time>2026-03-24T15:36:17Z</time></trkpt><trkpt lat="43.28434605954904" lon="5.404805474347261"><ele>28.0</ele><time>2026-03-24T15:36:18Z</time></trkpt><trkpt lat="43.28431145884442" lon="5.404601708850099"><ele>29.0</ele><time>2026-03-24T15:36:19Z</time></trkpt><trkpt lat="43.284278751468946" lon="5.404405571933452"><ele>30.0</ele><time>2026-03-24T15:36:20Z</time></trkpt><trkpt lat="43.2842459755469" lon="5.404219125343317"><ele>31.0</ele><time>2026-03-24T15:36:21Z</time></trkpt><trkpt lat="43.28421268411174" lon="5.40403634379637"><ele>31.0</ele><time>2026-03-24T15:36:22Z</time></trkpt><trkpt lat="43.28417793872206" lon="5.403843239996241"><ele>31.0</ele><time>2026-03-24T15:36:23Z</time></trkpt><trkpt lat="43.284141745467025" lon="5.403644853134434"><ele>31.0</ele><time>2026-03-24T15:36:24Z</time></trkpt><trkpt lat="43.28410427668228" lon="5.403447724295429"><ele>31.0</ele><time>2026-03-24T15:36:25Z</time></trkpt><trkpt lat="43.2840535067929" lon="5.403246042064405"><ele>31.25</ele><time>2026-03-24T15:36:26Z</time></trkpt><trkpt lat="43.28400464225249" lon="5.403053777123461"><ele>31.5</ele><time>2026-03-24T15:36:27Z</time></trkpt><trkpt lat="43.28395422686066" lon="5.402860415506307"><ele>31.75</ele><time>2026-03-24T15:36:28Z</time></trkpt><trkpt lat="43.28390571056112" lon="5.402666361901254"><ele>32.0</ele><time>2026-03-24T15:36:29Z</time></trkpt><trkpt lat="43.28385793722677" lon="5.402472111056819"><ele>30.333333333333332</ele><time>2026-03-24T15:36:30Z</time></trkpt><trkpt lat="43.28381282477156" lon="5.402277358465551"><ele>28.666666666666664</ele><time>2026-03-24T15:36:31Z</time></trkpt><trkpt lat="43.28376973317103" lon="5.402079437707199"><ele>27.0</ele><time>2026-03-24T15:36:32Z</time></trkpt><trkpt lat="43.283733422724175" lon="5.401877079560012"><ele>24.0</ele><time>2026-03-24T15:36:33Z</time></trkpt></trkseg></trk></gpx>